<?xml version="1.0" encoding="UTF-8"?>
<gpx  version="1.1"  creator="Verlag Esterbauer" xmlns:xsi="http://www.w3.org/2001/XMLSchema-instance" xmlns="http://www.topografix.com/GPX/1/1"  xsi:schemaLocation="http://www.topografix.com/GPX/1/1 http://www.topografix.com/GPX/1/1/gpx.xsd">
  <trk>
    <name>drw2#04</name>
    <cmt>by Verlag Esterbauer</cmt>
    <trkseg>
      <trkpt lat="48.30508167" lon="14.28722056">
        <ele>270</ele>
        <time>2021-08-01T00:00:00Z</time>
      </trkpt>
      <trkpt lat="48.30595889" lon="14.28644806">
        <ele>265</ele>
        <time>2021-08-01T00:00:23.957Z</time>
      </trkpt>
      <trkpt lat="48.30699" lon="14.28574445">
        <ele>262</ele>
        <time>2021-08-01T00:00:50.635Z</time>
      </trkpt>
      <trkpt lat="48.30700417" lon="14.28582473">
        <ele>262.5714</ele>
        <time>2021-08-01T00:00:51.938Z</time>
      </trkpt>
      <trkpt lat="48.30807417" lon="14.28514167">
        <ele>260.6667</ele>
        <time>2021-08-01T00:01:19.323Z</time>
      </trkpt>
      <trkpt lat="48.30938973" lon="14.2842475">
        <ele>259.2727</ele>
        <time>2021-08-01T00:01:53.337Z</time>
      </trkpt>
      <trkpt lat="48.31072917" lon="14.28330556">
        <ele>258.3846</ele>
        <time>2021-08-01T00:02:28.175Z</time>
      </trkpt>
      <trkpt lat="48.30950778" lon="14.284495">
        <ele>257.0769</ele>
        <time>2021-08-01T00:03:02.472Z</time>
      </trkpt>
      <trkpt lat="48.30982862" lon="14.28531306">
        <ele>256.2308</ele>
        <time>2021-08-01T00:03:17.379Z</time>
      </trkpt>
      <trkpt lat="48.310215" lon="14.28595556">
        <ele>255.7692</ele>
        <time>2021-08-01T00:03:30.967Z</time>
      </trkpt>
      <trkpt lat="48.31078528" lon="14.28677001">
        <ele>255.3077</ele>
        <time>2021-08-01T00:03:49.514Z</time>
      </trkpt>
      <trkpt lat="48.31166139" lon="14.28784417">
        <ele>255.2308</ele>
        <time>2021-08-01T00:04:16.165Z</time>
      </trkpt>
      <trkpt lat="48.31263584" lon="14.28901139">
        <ele>254.9231</ele>
        <time>2021-08-01T00:04:45.536Z</time>
      </trkpt>
      <trkpt lat="48.31488917" lon="14.29135417">
        <ele>253.8462</ele>
        <time>2021-08-01T00:05:50.107Z</time>
      </trkpt>
      <trkpt lat="48.31652389" lon="14.29301556">
        <ele>253.8462</ele>
        <time>2021-08-01T00:06:36.611Z</time>
      </trkpt>
      <trkpt lat="48.3172225" lon="14.29378695">
        <ele>254.0769</ele>
        <time>2021-08-01T00:06:57.041Z</time>
      </trkpt>
      <trkpt lat="48.31755945" lon="14.29411945">
        <ele>254.6923</ele>
        <time>2021-08-01T00:07:06.535Z</time>
      </trkpt>
      <trkpt lat="48.31799945" lon="14.29318834">
        <ele>254.7692</ele>
        <time>2021-08-01T00:07:24.457Z</time>
      </trkpt>
      <trkpt lat="48.31808889" lon="14.29327751">
        <ele>255.0769</ele>
        <time>2021-08-01T00:07:26.985Z</time>
      </trkpt>
      <trkpt lat="48.31842167" lon="14.29361473">
        <ele>255.3077</ele>
        <time>2021-08-01T00:07:36.439Z</time>
      </trkpt>
      <trkpt lat="48.31893501" lon="14.29401917">
        <ele>255.5385</ele>
        <time>2021-08-01T00:07:50.094Z</time>
      </trkpt>
      <trkpt lat="48.31935251" lon="14.29455723">
        <ele>255.6154</ele>
        <time>2021-08-01T00:08:03.058Z</time>
      </trkpt>
      <trkpt lat="48.32057278" lon="14.29629973">
        <ele>255.6923</ele>
        <time>2021-08-01T00:08:42.739Z</time>
      </trkpt>
      <trkpt lat="48.32118278" lon="14.29703306">
        <ele>255.6923</ele>
        <time>2021-08-01T00:09:01.15Z</time>
      </trkpt>
      <trkpt lat="48.32163306" lon="14.29768556">
        <ele>255.6154</ele>
        <time>2021-08-01T00:09:15.895Z</time>
      </trkpt>
      <trkpt lat="48.32219334" lon="14.29848556">
        <ele>255.5385</ele>
        <time>2021-08-01T00:09:34.113Z</time>
      </trkpt>
      <trkpt lat="48.32272639" lon="14.29930195">
        <ele>255.5385</ele>
        <time>2021-08-01T00:09:52.055Z</time>
      </trkpt>
      <trkpt lat="48.32327973" lon="14.30016751">
        <ele>255.3846</ele>
        <time>2021-08-01T00:10:10.884Z</time>
      </trkpt>
      <trkpt lat="48.32368112" lon="14.30095612">
        <ele>255.2308</ele>
        <time>2021-08-01T00:10:26.463Z</time>
      </trkpt>
      <trkpt lat="48.32430445" lon="14.30234556">
        <ele>254.7692</ele>
        <time>2021-08-01T00:10:52.76Z</time>
      </trkpt>
      <trkpt lat="48.32485945" lon="14.30386889">
        <ele>254.6154</ele>
        <time>2021-08-01T00:11:20.019Z</time>
      </trkpt>
      <trkpt lat="48.3252325" lon="14.30529973">
        <ele>254.2308</ele>
        <time>2021-08-01T00:11:44.144Z</time>
      </trkpt>
      <trkpt lat="48.32557112" lon="14.30678556">
        <ele>253.9231</ele>
        <time>2021-08-01T00:12:08.801Z</time>
      </trkpt>
      <trkpt lat="48.32590917" lon="14.30898917">
        <ele>253.6154</ele>
        <time>2021-08-01T00:12:44.309Z</time>
      </trkpt>
      <trkpt lat="48.32604278" lon="14.31018362">
        <ele>253.3846</ele>
        <time>2021-08-01T00:13:03.328Z</time>
      </trkpt>
      <trkpt lat="48.32610723" lon="14.3118375">
        <ele>253.2308</ele>
        <time>2021-08-01T00:13:29.343Z</time>
      </trkpt>
      <trkpt lat="48.3260875" lon="14.31307973">
        <ele>253.1538</ele>
        <time>2021-08-01T00:13:48.855Z</time>
      </trkpt>
      <trkpt lat="48.32597473" lon="14.31453167">
        <ele>253</ele>
        <time>2021-08-01T00:14:11.809Z</time>
      </trkpt>
      <trkpt lat="48.32585251" lon="14.31569167">
        <ele>252.7692</ele>
        <time>2021-08-01T00:14:30.251Z</time>
      </trkpt>
      <trkpt lat="48.32561139" lon="14.31724">
        <ele>252.5385</ele>
        <time>2021-08-01T00:14:55.219Z</time>
      </trkpt>
      <trkpt lat="48.32500001" lon="14.31988028">
        <ele>252.4615</ele>
        <time>2021-08-01T00:15:39.109Z</time>
      </trkpt>
      <trkpt lat="48.32472278" lon="14.32083584">
        <ele>252.3077</ele>
        <time>2021-08-01T00:15:55.473Z</time>
      </trkpt>
      <trkpt lat="48.32457473" lon="14.32097056">
        <ele>252.4615</ele>
        <time>2021-08-01T00:15:59.549Z</time>
      </trkpt>
      <trkpt lat="48.32457139" lon="14.32125389">
        <ele>252.3077</ele>
        <time>2021-08-01T00:16:03.992Z</time>
      </trkpt>
      <trkpt lat="48.32434473" lon="14.32188445">
        <ele>252.3077</ele>
        <time>2021-08-01T00:16:15.241Z</time>
      </trkpt>
      <trkpt lat="48.32391417" lon="14.32293112">
        <ele>252.0769</ele>
        <time>2021-08-01T00:16:34.553Z</time>
      </trkpt>
      <trkpt lat="48.32371334" lon="14.32333473">
        <ele>252</ele>
        <time>2021-08-01T00:16:42.461Z</time>
      </trkpt>
      <trkpt lat="48.32317639" lon="14.32436695">
        <ele>251.6923</ele>
        <time>2021-08-01T00:17:03.019Z</time>
      </trkpt>
      <trkpt lat="48.32276362" lon="14.32506445">
        <ele>251.5385</ele>
        <time>2021-08-01T00:17:17.663Z</time>
      </trkpt>
      <trkpt lat="48.32165445" lon="14.32660056">
        <ele>251.5385</ele>
        <time>2021-08-01T00:17:53.217Z</time>
      </trkpt>
      <trkpt lat="48.32075195" lon="14.32745973">
        <ele>251.5385</ele>
        <time>2021-08-01T00:18:18.39Z</time>
      </trkpt>
      <trkpt lat="48.31944695" lon="14.32858862">
        <ele>251.3846</ele>
        <time>2021-08-01T00:18:53.867Z</time>
      </trkpt>
      <trkpt lat="48.31799112" lon="14.32976139">
        <ele>251.3077</ele>
        <time>2021-08-01T00:19:32.783Z</time>
      </trkpt>
      <trkpt lat="48.31603612" lon="14.33135417">
        <ele>251.0769</ele>
        <time>2021-08-01T00:20:25.176Z</time>
      </trkpt>
      <trkpt lat="48.31459001" lon="14.33248223">
        <ele>250.9231</ele>
        <time>2021-08-01T00:21:03.562Z</time>
      </trkpt>
      <trkpt lat="48.31407917" lon="14.33291723">
        <ele>250.4615</ele>
        <time>2021-08-01T00:21:17.396Z</time>
      </trkpt>
      <trkpt lat="48.31291278" lon="14.33360556">
        <ele>250.4615</ele>
        <time>2021-08-01T00:21:46.913Z</time>
      </trkpt>
      <trkpt lat="48.31125889" lon="14.33445139">
        <ele>250.4615</ele>
        <time>2021-08-01T00:22:28.062Z</time>
      </trkpt>
      <trkpt lat="48.31053334" lon="14.33460945">
        <ele>250.5385</ele>
        <time>2021-08-01T00:22:45.326Z</time>
      </trkpt>
      <trkpt lat="48.31021195" lon="14.33482389">
        <ele>250.6923</ele>
        <time>2021-08-01T00:22:53.608Z</time>
      </trkpt>
      <trkpt lat="48.3100325" lon="14.33507556">
        <ele>250.9231</ele>
        <time>2021-08-01T00:22:59.391Z</time>
      </trkpt>
      <trkpt lat="48.30962667" lon="14.33521473">
        <ele>251</ele>
        <time>2021-08-01T00:23:09.193Z</time>
      </trkpt>
      <trkpt lat="48.30884945" lon="14.33548501">
        <ele>251.1538</ele>
        <time>2021-08-01T00:23:27.979Z</time>
      </trkpt>
      <trkpt lat="48.30829945" lon="14.33597">
        <ele>251.2308</ele>
        <time>2021-08-01T00:23:43.005Z</time>
      </trkpt>
      <trkpt lat="48.30808195" lon="14.33607084">
        <ele>251.3846</ele>
        <time>2021-08-01T00:23:48.365Z</time>
      </trkpt>
      <trkpt lat="48.30607667" lon="14.33663556">
        <ele>251.5385</ele>
        <time>2021-08-01T00:24:36.41Z</time>
      </trkpt>
      <trkpt lat="48.30537667" lon="14.33690862">
        <ele>251.3846</ele>
        <time>2021-08-01T00:24:53.441Z</time>
      </trkpt>
      <trkpt lat="48.30482306" lon="14.33721084">
        <ele>251.3846</ele>
        <time>2021-08-01T00:25:07.312Z</time>
      </trkpt>
      <trkpt lat="48.30411723" lon="14.33782528">
        <ele>251.2308</ele>
        <time>2021-08-01T00:25:26.532Z</time>
      </trkpt>
      <trkpt lat="48.30323167" lon="14.338655">
        <ele>251</ele>
        <time>2021-08-01T00:25:51.124Z</time>
      </trkpt>
      <trkpt lat="48.30161639" lon="14.33974556">
        <ele>250.6923</ele>
        <time>2021-08-01T00:26:32.84Z</time>
      </trkpt>
      <trkpt lat="48.30000917" lon="14.34054028">
        <ele>250.3846</ele>
        <time>2021-08-01T00:27:12.692Z</time>
      </trkpt>
      <trkpt lat="48.29813362" lon="14.34121445">
        <ele>250</ele>
        <time>2021-08-01T00:27:58.109Z</time>
      </trkpt>
      <trkpt lat="48.29652639" lon="14.34154473">
        <ele>249.7692</ele>
        <time>2021-08-01T00:28:36.308Z</time>
      </trkpt>
      <trkpt lat="48.29563973" lon="14.34174167">
        <ele>249.9231</ele>
        <time>2021-08-01T00:28:57.414Z</time>
      </trkpt>
      <trkpt lat="48.29401195" lon="14.34241251">
        <ele>249.6154</ele>
        <time>2021-08-01T00:29:37.167Z</time>
      </trkpt>
      <trkpt lat="48.29164195" lon="14.343805">
        <ele>249.4615</ele>
        <time>2021-08-01T00:30:37.11Z</time>
      </trkpt>
      <trkpt lat="48.29058084" lon="14.34426695">
        <ele>249.2308</ele>
        <time>2021-08-01T00:31:03.129Z</time>
      </trkpt>
      <trkpt lat="48.28892778" lon="14.34480695">
        <ele>249.8462</ele>
        <time>2021-08-01T00:31:42.968Z</time>
      </trkpt>
      <trkpt lat="48.28786862" lon="14.34516278">
        <ele>250.6154</ele>
        <time>2021-08-01T00:32:08.526Z</time>
      </trkpt>
      <trkpt lat="48.28729945" lon="14.34537167">
        <ele>250.7692</ele>
        <time>2021-08-01T00:32:22.323Z</time>
      </trkpt>
      <trkpt lat="48.28713834" lon="14.34542889">
        <ele>251</ele>
        <time>2021-08-01T00:32:26.222Z</time>
      </trkpt>
      <trkpt lat="48.28683417" lon="14.34555251">
        <ele>251.1538</ele>
        <time>2021-08-01T00:32:33.642Z</time>
      </trkpt>
      <trkpt lat="48.2860575" lon="14.34589612">
        <ele>251.3846</ele>
        <time>2021-08-01T00:32:52.709Z</time>
      </trkpt>
      <trkpt lat="48.28487834" lon="14.34653612">
        <ele>251.5385</ele>
        <time>2021-08-01T00:33:22.241Z</time>
      </trkpt>
      <trkpt lat="48.28366806" lon="14.34735362">
        <ele>251.8462</ele>
        <time>2021-08-01T00:33:53.502Z</time>
      </trkpt>
      <trkpt lat="48.28228917" lon="14.34862389">
        <ele>251.6923</ele>
        <time>2021-08-01T00:34:31.618Z</time>
      </trkpt>
      <trkpt lat="48.28170001" lon="14.34920889">
        <ele>251.3077</ele>
        <time>2021-08-01T00:34:48.261Z</time>
      </trkpt>
      <trkpt lat="48.28040473" lon="14.35082417">
        <ele>251.1538</ele>
        <time>2021-08-01T00:35:27.945Z</time>
      </trkpt>
      <trkpt lat="48.27934195" lon="14.35228584">
        <ele>250.9231</ele>
        <time>2021-08-01T00:36:01.917Z</time>
      </trkpt>
      <trkpt lat="48.27869806" lon="14.35332167">
        <ele>250.9231</ele>
        <time>2021-08-01T00:36:24.164Z</time>
      </trkpt>
      <trkpt lat="48.27778139" lon="14.35481195">
        <ele>250.0769</ele>
        <time>2021-08-01T00:36:56.017Z</time>
      </trkpt>
      <trkpt lat="48.27720917" lon="14.35577834">
        <ele>249.4615</ele>
        <time>2021-08-01T00:37:16.322Z</time>
      </trkpt>
      <trkpt lat="48.27704278" lon="14.35617445">
        <ele>249.3077</ele>
        <time>2021-08-01T00:37:23.678Z</time>
      </trkpt>
      <trkpt lat="48.27690028" lon="14.35647084">
        <ele>249</ele>
        <time>2021-08-01T00:37:29.414Z</time>
      </trkpt>
      <trkpt lat="48.27655528" lon="14.35724084">
        <ele>248.8462</ele>
        <time>2021-08-01T00:37:43.991Z</time>
      </trkpt>
      <trkpt lat="48.27600389" lon="14.35842334">
        <ele>248.6923</ele>
        <time>2021-08-01T00:38:06.664Z</time>
      </trkpt>
      <trkpt lat="48.27563223" lon="14.35934195">
        <ele>249.1538</ele>
        <time>2021-08-01T00:38:23.548Z</time>
      </trkpt>
      <trkpt lat="48.27551528" lon="14.36014473">
        <ele>249.6154</ele>
        <time>2021-08-01T00:38:36.464Z</time>
      </trkpt>
      <trkpt lat="48.27489139" lon="14.36167001">
        <ele>250.0769</ele>
        <time>2021-08-01T00:39:04.582Z</time>
      </trkpt>
      <trkpt lat="48.27402084" lon="14.363895">
        <ele>250.1538</ele>
        <time>2021-08-01T00:39:45.121Z</time>
      </trkpt>
      <trkpt lat="48.27317473" lon="14.36644278">
        <ele>250.3077</ele>
        <time>2021-08-01T00:40:29.852Z</time>
      </trkpt>
      <trkpt lat="48.27270001" lon="14.36852945">
        <ele>250.8462</ele>
        <time>2021-08-01T00:41:04.506Z</time>
      </trkpt>
      <trkpt lat="48.27244973" lon="14.36986778">
        <ele>250.6923</ele>
        <time>2021-08-01T00:41:26.354Z</time>
      </trkpt>
      <trkpt lat="48.27235639" lon="14.37096334">
        <ele>250.6923</ele>
        <time>2021-08-01T00:41:43.715Z</time>
      </trkpt>
      <trkpt lat="48.27219528" lon="14.37330334">
        <ele>250.5385</ele>
        <time>2021-08-01T00:42:20.694Z</time>
      </trkpt>
      <trkpt lat="48.27169" lon="14.37564667">
        <ele>251</ele>
        <time>2021-08-01T00:42:59.404Z</time>
      </trkpt>
      <trkpt lat="48.27167945" lon="14.37645223">
        <ele>251.4615</ele>
        <time>2021-08-01T00:43:12.07Z</time>
      </trkpt>
      <trkpt lat="48.27108723" lon="14.37876056">
        <ele>251.8462</ele>
        <time>2021-08-01T00:43:50.944Z</time>
      </trkpt>
      <trkpt lat="48.27068751" lon="14.38056584">
        <ele>251.9231</ele>
        <time>2021-08-01T00:44:20.843Z</time>
      </trkpt>
      <trkpt lat="48.27054862" lon="14.38144862">
        <ele>251.4615</ele>
        <time>2021-08-01T00:44:35.101Z</time>
      </trkpt>
      <trkpt lat="48.27089917" lon="14.38257417">
        <ele>250.6154</ele>
        <time>2021-08-01T00:44:54.626Z</time>
      </trkpt>
      <trkpt lat="48.27101417" lon="14.38326112">
        <ele>250.2308</ele>
        <time>2021-08-01T00:45:05.759Z</time>
      </trkpt>
      <trkpt lat="48.27043862" lon="14.38452612">
        <ele>250.1538</ele>
        <time>2021-08-01T00:45:29.824Z</time>
      </trkpt>
      <trkpt lat="48.27021417" lon="14.38506917">
        <ele>249.8462</ele>
        <time>2021-08-01T00:45:39.864Z</time>
      </trkpt>
      <trkpt lat="48.2698725" lon="14.38553251">
        <ele>249.9231</ele>
        <time>2021-08-01T00:45:50.717Z</time>
      </trkpt>
      <trkpt lat="48.26932889" lon="14.38541278">
        <ele>251.3077</ele>
        <time>2021-08-01T00:46:03.655Z</time>
      </trkpt>
      <trkpt lat="48.26923417" lon="14.38563695">
        <ele>252.3846</ele>
        <time>2021-08-01T00:46:07.821Z</time>
      </trkpt>
      <trkpt lat="48.26831973" lon="14.38719001">
        <ele>252.9231</ele>
        <time>2021-08-01T00:46:40.375Z</time>
      </trkpt>
      <trkpt lat="48.26740917" lon="14.38835056">
        <ele>252.6154</ele>
        <time>2021-08-01T00:47:08.528Z</time>
      </trkpt>
      <trkpt lat="48.26636167" lon="14.38954139">
        <ele>252.6923</ele>
        <time>2021-08-01T00:47:39.494Z</time>
      </trkpt>
      <trkpt lat="48.26520112" lon="14.39118195">
        <ele>252.8462</ele>
        <time>2021-08-01T00:48:17.071Z</time>
      </trkpt>
      <trkpt lat="48.26397889" lon="14.39283751">
        <ele>253.5385</ele>
        <time>2021-08-01T00:48:55.876Z</time>
      </trkpt>
      <trkpt lat="48.26307862" lon="14.39436389">
        <ele>253.2308</ele>
        <time>2021-08-01T00:49:27.896Z</time>
      </trkpt>
      <trkpt lat="48.26227056" lon="14.39605195">
        <ele>253.4615</ele>
        <time>2021-08-01T00:50:00.553Z</time>
      </trkpt>
      <trkpt lat="48.26136473" lon="14.39790251">
        <ele>253.6923</ele>
        <time>2021-08-01T00:50:36.63Z</time>
      </trkpt>
      <trkpt lat="48.26020834" lon="14.40024973">
        <ele>254.4615</ele>
        <time>2021-08-01T00:51:22.494Z</time>
      </trkpt>
      <trkpt lat="48.25913362" lon="14.40287195">
        <ele>255.1538</ele>
        <time>2021-08-01T00:52:10.872Z</time>
      </trkpt>
      <trkpt lat="48.25865917" lon="14.40509667">
        <ele>255.3077</ele>
        <time>2021-08-01T00:52:47.594Z</time>
      </trkpt>
      <trkpt lat="48.25832667" lon="14.40678112">
        <ele>254.6923</ele>
        <time>2021-08-01T00:53:15.213Z</time>
      </trkpt>
      <trkpt lat="48.25807334" lon="14.40846362">
        <ele>253.9231</ele>
        <time>2021-08-01T00:53:42.333Z</time>
      </trkpt>
      <trkpt lat="48.25779473" lon="14.41112334">
        <ele>253.7692</ele>
        <time>2021-08-01T00:54:24.666Z</time>
      </trkpt>
      <trkpt lat="48.25773001" lon="14.41210306">
        <ele>253.9231</ele>
        <time>2021-08-01T00:54:40.146Z</time>
      </trkpt>
      <trkpt lat="48.25747" lon="14.41334556">
        <ele>253.8462</ele>
        <time>2021-08-01T00:55:00.62Z</time>
      </trkpt>
      <trkpt lat="48.25693889" lon="14.41576889">
        <ele>253.6923</ele>
        <time>2021-08-01T00:55:40.725Z</time>
      </trkpt>
      <trkpt lat="48.25645806" lon="14.41778389">
        <ele>253.9231</ele>
        <time>2021-08-01T00:56:14.372Z</time>
      </trkpt>
      <trkpt lat="48.25607389" lon="14.41924806">
        <ele>254.3846</ele>
        <time>2021-08-01T00:56:39.109Z</time>
      </trkpt>
      <trkpt lat="48.25553417" lon="14.42090584">
        <ele>254.4615</ele>
        <time>2021-08-01T00:57:08.11Z</time>
      </trkpt>
      <trkpt lat="48.25532362" lon="14.42146056">
        <ele>254.5385</ele>
        <time>2021-08-01T00:57:18.143Z</time>
      </trkpt>
      <trkpt lat="48.25511889" lon="14.42195723">
        <ele>254.0769</ele>
        <time>2021-08-01T00:57:27.321Z</time>
      </trkpt>
      <trkpt lat="48.25497584" lon="14.42231806">
        <ele>254.1538</ele>
        <time>2021-08-01T00:57:33.912Z</time>
      </trkpt>
      <trkpt lat="48.25421973" lon="14.42429278">
        <ele>253.5385</ele>
        <time>2021-08-01T00:58:09.707Z</time>
      </trkpt>
      <trkpt lat="48.25330278" lon="14.42640612">
        <ele>253.4615</ele>
        <time>2021-08-01T00:58:49.338Z</time>
      </trkpt>
      <trkpt lat="48.25171001" lon="14.43022778">
        <ele>253.2308</ele>
        <time>2021-08-01T01:00:00.179Z</time>
      </trkpt>
      <trkpt lat="48.25145445" lon="14.43117417">
        <ele>253</ele>
        <time>2021-08-01T01:00:16.232Z</time>
      </trkpt>
      <trkpt lat="48.25088973" lon="14.43324723">
        <ele>252.7692</ele>
        <time>2021-08-01T01:00:51.441Z</time>
      </trkpt>
      <trkpt lat="48.25056556" lon="14.43296195">
        <ele>252.5385</ele>
        <time>2021-08-01T01:01:00.292Z</time>
      </trkpt>
      <trkpt lat="48.24892167" lon="14.43149667">
        <ele>252.0769</ele>
        <time>2021-08-01T01:01:45.341Z</time>
      </trkpt>
      <trkpt lat="48.24760695" lon="14.43028389">
        <ele>251.1538</ele>
        <time>2021-08-01T01:02:21.703Z</time>
      </trkpt>
      <trkpt lat="48.24467973" lon="14.42758723">
        <ele>251.2308</ele>
        <time>2021-08-01T01:03:42.634Z</time>
      </trkpt>
      <trkpt lat="48.24389501" lon="14.4268475">
        <ele>251.3077</ele>
        <time>2021-08-01T01:04:04.47Z</time>
      </trkpt>
      <trkpt lat="48.24292362" lon="14.42595751">
        <ele>251.3077</ele>
        <time>2021-08-01T01:04:31.287Z</time>
      </trkpt>
      <trkpt lat="48.24216112" lon="14.42525056">
        <ele>251.0769</ele>
        <time>2021-08-01T01:04:52.406Z</time>
      </trkpt>
      <trkpt lat="48.24147251" lon="14.42477445">
        <ele>250.6923</ele>
        <time>2021-08-01T01:05:10.267Z</time>
      </trkpt>
      <trkpt lat="48.23978584" lon="14.42422251">
        <ele>250.6923</ele>
        <time>2021-08-01T01:05:50.921Z</time>
      </trkpt>
      <trkpt lat="48.23751334" lon="14.4234525">
        <ele>250</ele>
        <time>2021-08-01T01:06:45.786Z</time>
      </trkpt>
      <trkpt lat="48.23701917" lon="14.42335501">
        <ele>249.7692</ele>
        <time>2021-08-01T01:06:57.523Z</time>
      </trkpt>
      <trkpt lat="48.23637751" lon="14.42352056">
        <ele>249.5385</ele>
        <time>2021-08-01T01:07:12.854Z</time>
      </trkpt>
      <trkpt lat="48.23578945" lon="14.42387806">
        <ele>249.7692</ele>
        <time>2021-08-01T01:07:27.796Z</time>
      </trkpt>
      <trkpt lat="48.23547334" lon="14.42415973">
        <ele>249.9231</ele>
        <time>2021-08-01T01:07:36.455Z</time>
      </trkpt>
      <trkpt lat="48.23504806" lon="14.42510889">
        <ele>249.9231</ele>
        <time>2021-08-01T01:07:54.433Z</time>
      </trkpt>
      <trkpt lat="48.23502223" lon="14.42565389">
        <ele>249.4615</ele>
        <time>2021-08-01T01:08:03.028Z</time>
      </trkpt>
      <trkpt lat="48.23498889" lon="14.42596751">
        <ele>248.8462</ele>
        <time>2021-08-01T01:08:08.016Z</time>
      </trkpt>
      <trkpt lat="48.23470695" lon="14.42610417">
        <ele>248.3077</ele>
        <time>2021-08-01T01:08:14.993Z</time>
      </trkpt>
      <trkpt lat="48.23447945" lon="14.42675139">
        <ele>247.6154</ele>
        <time>2021-08-01T01:08:26.498Z</time>
      </trkpt>
      <trkpt lat="48.23410584" lon="14.42743362">
        <ele>247.2308</ele>
        <time>2021-08-01T01:08:40.375Z</time>
      </trkpt>
      <trkpt lat="48.23374667" lon="14.4279575">
        <ele>246.6154</ele>
        <time>2021-08-01T01:08:52.184Z</time>
      </trkpt>
      <trkpt lat="48.23336084" lon="14.42867473">
        <ele>246</ele>
        <time>2021-08-01T01:09:06.67Z</time>
      </trkpt>
      <trkpt lat="48.23324084" lon="14.42897417">
        <ele>245.8462</ele>
        <time>2021-08-01T01:09:12.157Z</time>
      </trkpt>
      <trkpt lat="48.23317945" lon="14.42957528">
        <ele>245.6154</ele>
        <time>2021-08-01T01:09:21.723Z</time>
      </trkpt>
      <trkpt lat="48.23310362" lon="14.430295">
        <ele>245.3846</ele>
        <time>2021-08-01T01:09:33.185Z</time>
      </trkpt>
      <trkpt lat="48.23295195" lon="14.43072695">
        <ele>244.9231</ele>
        <time>2021-08-01T01:09:40.862Z</time>
      </trkpt>
      <trkpt lat="48.23222" lon="14.43210417">
        <ele>244.4615</ele>
        <time>2021-08-01T01:10:08.547Z</time>
      </trkpt>
      <trkpt lat="48.23146639" lon="14.43368945">
        <ele>244.3077</ele>
        <time>2021-08-01T01:10:39.156Z</time>
      </trkpt>
      <trkpt lat="48.2308775" lon="14.43496695">
        <ele>244.3846</ele>
        <time>2021-08-01T01:11:03.573Z</time>
      </trkpt>
      <trkpt lat="48.23074973" lon="14.43517389">
        <ele>244.3846</ele>
        <time>2021-08-01T01:11:08.002Z</time>
      </trkpt>
      <trkpt lat="48.23095223" lon="14.43604084">
        <ele>244.3077</ele>
        <time>2021-08-01T01:11:22.451Z</time>
      </trkpt>
      <trkpt lat="48.23126139" lon="14.43688084">
        <ele>244.3846</ele>
        <time>2021-08-01T01:11:37.539Z</time>
      </trkpt>
      <trkpt lat="48.23203917" lon="14.43622139">
        <ele>244.3846</ele>
        <time>2021-08-01T01:11:58.588Z</time>
      </trkpt>
      <trkpt lat="48.23237778" lon="14.43600584">
        <ele>244.4615</ele>
        <time>2021-08-01T01:12:07.25Z</time>
      </trkpt>
      <trkpt lat="48.23267639" lon="14.43617501">
        <ele>244.5385</ele>
        <time>2021-08-01T01:12:14.767Z</time>
      </trkpt>
      <trkpt lat="48.23280584" lon="14.43631695">
        <ele>244.3077</ele>
        <time>2021-08-01T01:12:18.544Z</time>
      </trkpt>
      <trkpt lat="48.23302223" lon="14.43641112">
        <ele>244.3077</ele>
        <time>2021-08-01T01:12:23.85Z</time>
      </trkpt>
      <trkpt lat="48.23311001" lon="14.43669834">
        <ele>244.3077</ele>
        <time>2021-08-01T01:12:28.813Z</time>
      </trkpt>
      <trkpt lat="48.23320334" lon="14.43753723">
        <ele>244</ele>
        <time>2021-08-01T01:12:42.192Z</time>
      </trkpt>
      <trkpt lat="48.23321584" lon="14.43848445">
        <ele>243.7692</ele>
        <time>2021-08-01T01:12:57.096Z</time>
      </trkpt>
      <trkpt lat="48.2332" lon="14.43929084">
        <ele>243.7692</ele>
        <time>2021-08-01T01:13:09.787Z</time>
      </trkpt>
      <trkpt lat="48.23312362" lon="14.43990862">
        <ele>243.7692</ele>
        <time>2021-08-01T01:13:19.671Z</time>
      </trkpt>
      <trkpt lat="48.23311723" lon="14.44114778">
        <ele>243.6923</ele>
        <time>2021-08-01T01:13:39.166Z</time>
      </trkpt>
      <trkpt lat="48.23293167" lon="14.44276389">
        <ele>243.5385</ele>
        <time>2021-08-01T01:14:04.963Z</time>
      </trkpt>
      <trkpt lat="48.23297167" lon="14.44387639">
        <ele>243.4615</ele>
        <time>2021-08-01T01:14:22.49Z</time>
      </trkpt>
      <trkpt lat="48.23287917" lon="14.44493806">
        <ele>243.4615</ele>
        <time>2021-08-01T01:14:39.333Z</time>
      </trkpt>
      <trkpt lat="48.23254945" lon="14.44646139">
        <ele>243.4615</ele>
        <time>2021-08-01T01:15:04.524Z</time>
      </trkpt>
      <trkpt lat="48.23174028" lon="14.44649862">
        <ele>243.6154</ele>
        <time>2021-08-01T01:15:23.587Z</time>
      </trkpt>
      <trkpt lat="48.23141056" lon="14.44667417">
        <ele>243.6923</ele>
        <time>2021-08-01T01:15:31.826Z</time>
      </trkpt>
      <trkpt lat="48.23105889" lon="14.4467425">
        <ele>243.6154</ele>
        <time>2021-08-01T01:15:40.176Z</time>
      </trkpt>
      <trkpt lat="48.23034889" lon="14.44760251">
        <ele>243.5385</ele>
        <time>2021-08-01T01:16:01.683Z</time>
      </trkpt>
      <trkpt lat="48.22996834" lon="14.44836362">
        <ele>243.5385</ele>
        <time>2021-08-01T01:16:16.639Z</time>
      </trkpt>
      <trkpt lat="48.22967445" lon="14.44864">
        <ele>243.3846</ele>
        <time>2021-08-01T01:16:24.808Z</time>
      </trkpt>
      <trkpt lat="48.22953528" lon="14.44907889">
        <ele>243.1538</ele>
        <time>2021-08-01T01:16:32.451Z</time>
      </trkpt>
      <trkpt lat="48.22922056" lon="14.44966028">
        <ele>243.1538</ele>
        <time>2021-08-01T01:16:44.223Z</time>
      </trkpt>
      <trkpt lat="48.22907639" lon="14.45056751">
        <ele>243.0769</ele>
        <time>2021-08-01T01:16:58.894Z</time>
      </trkpt>
      <trkpt lat="48.22905751" lon="14.45130695">
        <ele>243.1538</ele>
        <time>2021-08-01T01:17:10.536Z</time>
      </trkpt>
      <trkpt lat="48.22901612" lon="14.4525025">
        <ele>243.0769</ele>
        <time>2021-08-01T01:17:29.371Z</time>
      </trkpt>
      <trkpt lat="48.22894945" lon="14.45310167">
        <ele>243</ele>
        <time>2021-08-01T01:17:38.928Z</time>
      </trkpt>
      <trkpt lat="48.22916223" lon="14.45359889">
        <ele>242.9231</ele>
        <time>2021-08-01T01:17:48.218Z</time>
      </trkpt>
      <trkpt lat="48.229405" lon="14.45401639">
        <ele>243.1538</ele>
        <time>2021-08-01T01:17:56.926Z</time>
      </trkpt>
      <trkpt lat="48.22998612" lon="14.45418501">
        <ele>243.3077</ele>
        <time>2021-08-01T01:18:10.864Z</time>
      </trkpt>
      <trkpt lat="48.23086084" lon="14.45457528">
        <ele>243.4615</ele>
        <time>2021-08-01T01:18:32.357Z</time>
      </trkpt>
      <trkpt lat="48.23139334" lon="14.45501806">
        <ele>243.4615</ele>
        <time>2021-08-01T01:18:46.701Z</time>
      </trkpt>
      <trkpt lat="48.23222473" lon="14.45564667">
        <ele>243.6154</ele>
        <time>2021-08-01T01:19:08.634Z</time>
      </trkpt>
      <trkpt lat="48.23242862" lon="14.45577917">
        <ele>244.0769</ele>
        <time>2021-08-01T01:19:13.867Z</time>
      </trkpt>
      <trkpt lat="48.23319445" lon="14.45677056">
        <ele>244.6154</ele>
        <time>2021-08-01T01:19:37.709Z</time>
      </trkpt>
      <trkpt lat="48.23399751" lon="14.45725639">
        <ele>244.7692</ele>
        <time>2021-08-01T01:19:58.105Z</time>
      </trkpt>
      <trkpt lat="48.23398362" lon="14.45792584">
        <ele>245.6154</ele>
        <time>2021-08-01T01:20:08.641Z</time>
      </trkpt>
      <trkpt lat="48.23388612" lon="14.45984056">
        <ele>246.4615</ele>
        <time>2021-08-01T01:20:38.85Z</time>
      </trkpt>
      <trkpt lat="48.23397334" lon="14.46157417">
        <ele>247.8462</ele>
        <time>2021-08-01T01:21:06.199Z</time>
      </trkpt>
      <trkpt lat="48.23437889" lon="14.46305167">
        <ele>248.7692</ele>
        <time>2021-08-01T01:21:31.327Z</time>
      </trkpt>
      <trkpt lat="48.23475362" lon="14.46405112">
        <ele>250.2308</ele>
        <time>2021-08-01T01:21:49.356Z</time>
      </trkpt>
      <trkpt lat="48.23523501" lon="14.46622056">
        <ele>250.5385</ele>
        <time>2021-08-01T01:22:25.317Z</time>
      </trkpt>
      <trkpt lat="48.23461917" lon="14.46759723">
        <ele>250.5385</ele>
        <time>2021-08-01T01:22:51.38Z</time>
      </trkpt>
      <trkpt lat="48.23385445" lon="14.46962778">
        <ele>250.8462</ele>
        <time>2021-08-01T01:23:28.049Z</time>
      </trkpt>
      <trkpt lat="48.23351889" lon="14.47049639">
        <ele>251.2308</ele>
        <time>2021-08-01T01:23:43.834Z</time>
      </trkpt>
      <trkpt lat="48.23331195" lon="14.47126889">
        <ele>251.5385</ele>
        <time>2021-08-01T01:23:56.927Z</time>
      </trkpt>
      <trkpt lat="48.23337834" lon="14.47113195">
        <ele>251.6923</ele>
        <time>2021-08-01T01:23:59.586Z</time>
      </trkpt>
      <trkpt lat="48.2333125" lon="14.47144556">
        <ele>251.2308</ele>
        <time>2021-08-01T01:24:04.75Z</time>
      </trkpt>
      <trkpt lat="48.23330334" lon="14.47484112">
        <ele>250.9231</ele>
        <time>2021-08-01T01:24:58.168Z</time>
      </trkpt>
      <trkpt lat="48.23335001" lon="14.47531445">
        <ele>250.1538</ele>
        <time>2021-08-01T01:25:05.695Z</time>
      </trkpt>
      <trkpt lat="48.23351001" lon="14.47610334">
        <ele>249.3846</ele>
        <time>2021-08-01T01:25:18.665Z</time>
      </trkpt>
      <trkpt lat="48.23362362" lon="14.47661612">
        <ele>248.3846</ele>
        <time>2021-08-01T01:25:27.164Z</time>
      </trkpt>
      <trkpt lat="48.23368306" lon="14.47715251">
        <ele>247.6923</ele>
        <time>2021-08-01T01:25:35.718Z</time>
      </trkpt>
      <trkpt lat="48.23346667" lon="14.47749917">
        <ele>246.4615</ele>
        <time>2021-08-01T01:25:43.176Z</time>
      </trkpt>
      <trkpt lat="48.23340612" lon="14.47784139">
        <ele>245.8462</ele>
        <time>2021-08-01T01:25:48.738Z</time>
      </trkpt>
      <trkpt lat="48.23334306" lon="14.47813112">
        <ele>245.6154</ele>
        <time>2021-08-01T01:25:53.525Z</time>
      </trkpt>
      <trkpt lat="48.23330056" lon="14.47861334">
        <ele>245.1538</ele>
        <time>2021-08-01T01:26:01.177Z</time>
      </trkpt>
      <trkpt lat="48.2332975" lon="14.47952445">
        <ele>244.9231</ele>
        <time>2021-08-01T01:26:15.51Z</time>
      </trkpt>
      <trkpt lat="48.23309556" lon="14.47934195">
        <ele>244.6154</ele>
        <time>2021-08-01T01:26:21.062Z</time>
      </trkpt>
      <trkpt lat="48.23259334" lon="14.47962695">
        <ele>244.3077</ele>
        <time>2021-08-01T01:26:33.707Z</time>
      </trkpt>
      <trkpt lat="48.23159473" lon="14.4797">
        <ele>244.6154</ele>
        <time>2021-08-01T01:26:57.249Z</time>
      </trkpt>
      <trkpt lat="48.23051528" lon="14.48015167">
        <ele>244.8462</ele>
        <time>2021-08-01T01:27:23.642Z</time>
      </trkpt>
      <trkpt lat="48.22904584" lon="14.48087278">
        <ele>245.0769</ele>
        <time>2021-08-01T01:28:00.056Z</time>
      </trkpt>
      <trkpt lat="48.22879362" lon="14.48098917">
        <ele>245.3077</ele>
        <time>2021-08-01T01:28:06.27Z</time>
      </trkpt>
      <trkpt lat="48.22872528" lon="14.48072778">
        <ele>245.4615</ele>
        <time>2021-08-01T01:28:10.68Z</time>
      </trkpt>
      <trkpt lat="48.22855862" lon="14.48051112">
        <ele>245.9231</ele>
        <time>2021-08-01T01:28:15.875Z</time>
      </trkpt>
      <trkpt lat="48.22800223" lon="14.47990528">
        <ele>246.4615</ele>
        <time>2021-08-01T01:28:32.077Z</time>
      </trkpt>
      <trkpt lat="48.22764278" lon="14.47966001">
        <ele>247.2308</ele>
        <time>2021-08-01T01:28:41.377Z</time>
      </trkpt>
      <trkpt lat="48.22767417" lon="14.47963639">
        <ele>247.3719</ele>
        <time>2021-08-01T01:28:42.204Z</time>
      </trkpt>
      <trkpt lat="48.22727195" lon="14.47956417">
        <ele>249</ele>
        <time>2021-08-01T01:28:51.743Z</time>
      </trkpt>
      <trkpt lat="48.22610251" lon="14.47924973">
        <ele>249.7692</ele>
        <time>2021-08-01T01:29:19.72Z</time>
      </trkpt>
      <trkpt lat="48.22498084" lon="14.47846001">
        <ele>250.5385</ele>
        <time>2021-08-01T01:29:48.909Z</time>
      </trkpt>
      <trkpt lat="48.22464223" lon="14.47826139">
        <ele>251.3077</ele>
        <time>2021-08-01T01:29:57.471Z</time>
      </trkpt>
      <trkpt lat="48.22383667" lon="14.47821917">
        <ele>251.9231</ele>
        <time>2021-08-01T01:30:16.451Z</time>
      </trkpt>
      <trkpt lat="48.22253389" lon="14.47855973">
        <ele>252.7692</ele>
        <time>2021-08-01T01:30:47.591Z</time>
      </trkpt>
      <trkpt lat="48.22213251" lon="14.47864167">
        <ele>253.7692</ele>
        <time>2021-08-01T01:30:57.13Z</time>
      </trkpt>
      <trkpt lat="48.22194223" lon="14.47823251">
        <ele>254.7692</ele>
        <time>2021-08-01T01:31:04.974Z</time>
      </trkpt>
      <trkpt lat="48.22163612" lon="14.47746473">
        <ele>255.4615</ele>
        <time>2021-08-01T01:31:19.042Z</time>
      </trkpt>
      <trkpt lat="48.22157028" lon="14.47710362">
        <ele>256.1538</ele>
        <time>2021-08-01T01:31:24.924Z</time>
      </trkpt>
      <trkpt lat="48.22093362" lon="14.47732417">
        <ele>256.7692</ele>
        <time>2021-08-01T01:31:40.311Z</time>
      </trkpt>
      <trkpt lat="48.22050806" lon="14.47747612">
        <ele>257.3077</ele>
        <time>2021-08-01T01:31:50.612Z</time>
      </trkpt>
      <trkpt lat="48.2197125" lon="14.47809167">
        <ele>258.0769</ele>
        <time>2021-08-01T01:32:11.701Z</time>
      </trkpt>
      <trkpt lat="48.21940306" lon="14.47823584">
        <ele>258.7692</ele>
        <time>2021-08-01T01:32:19.331Z</time>
      </trkpt>
      <trkpt lat="48.21846195" lon="14.47898445">
        <ele>259.3077</ele>
        <time>2021-08-01T01:32:44.428Z</time>
      </trkpt>
      <trkpt lat="48.21730834" lon="14.48004417">
        <ele>259.7692</ele>
        <time>2021-08-01T01:33:16.302Z</time>
      </trkpt>
      <trkpt lat="48.21725417" lon="14.48008167">
        <ele>260.0769</ele>
        <time>2021-08-01T01:33:17.707Z</time>
      </trkpt>
      <trkpt lat="48.21731445" lon="14.48079862">
        <ele>260.1538</ele>
        <time>2021-08-01T01:33:29.078Z</time>
      </trkpt>
      <trkpt lat="48.21759612" lon="14.48218362">
        <ele>259.6154</ele>
        <time>2021-08-01T01:33:51.86Z</time>
      </trkpt>
      <trkpt lat="48.21793945" lon="14.48354612">
        <ele>258.6154</ele>
        <time>2021-08-01T01:34:14.774Z</time>
      </trkpt>
      <trkpt lat="48.21811945" lon="14.48391028">
        <ele>257.6154</ele>
        <time>2021-08-01T01:34:21.895Z</time>
      </trkpt>
      <trkpt lat="48.21827945" lon="14.48416056">
        <ele>256.6923</ele>
        <time>2021-08-01T01:34:27.341Z</time>
      </trkpt>
      <trkpt lat="48.21862251" lon="14.48435889">
        <ele>255.7692</ele>
        <time>2021-08-01T01:34:35.999Z</time>
      </trkpt>
      <trkpt lat="48.21897584" lon="14.4846425">
        <ele>254.7692</ele>
        <time>2021-08-01T01:34:45.437Z</time>
      </trkpt>
      <trkpt lat="48.21961556" lon="14.48522778">
        <ele>253.8462</ele>
        <time>2021-08-01T01:35:03.093Z</time>
      </trkpt>
      <trkpt lat="48.21920973" lon="14.48703389">
        <ele>252.6154</ele>
        <time>2021-08-01T01:35:33.077Z</time>
      </trkpt>
      <trkpt lat="48.21920112" lon="14.48726834">
        <ele>251.3077</ele>
        <time>2021-08-01T01:35:36.766Z</time>
      </trkpt>
      <trkpt lat="48.21805889" lon="14.48701445">
        <ele>250.3077</ele>
        <time>2021-08-01T01:36:03.956Z</time>
      </trkpt>
      <trkpt lat="48.21631723" lon="14.48629001">
        <ele>249.5385</ele>
        <time>2021-08-01T01:36:46.522Z</time>
      </trkpt>
      <trkpt lat="48.21598056" lon="14.48576195">
        <ele>248.8462</ele>
        <time>2021-08-01T01:36:58.007Z</time>
      </trkpt>
      <trkpt lat="48.21585445" lon="14.48531112">
        <ele>248.3846</ele>
        <time>2021-08-01T01:37:05.698Z</time>
      </trkpt>
      <trkpt lat="48.21579667" lon="14.48499917">
        <ele>248.3846</ele>
        <time>2021-08-01T01:37:10.785Z</time>
      </trkpt>
      <trkpt lat="48.21562945" lon="14.48492834">
        <ele>248.9231</ele>
        <time>2021-08-01T01:37:14.877Z</time>
      </trkpt>
      <trkpt lat="48.21432417" lon="14.48507362">
        <ele>249.3846</ele>
        <time>2021-08-01T01:37:45.697Z</time>
      </trkpt>
      <trkpt lat="48.21353028" lon="14.48513028">
        <ele>249.6923</ele>
        <time>2021-08-01T01:38:04.412Z</time>
      </trkpt>
      <trkpt lat="48.21356306" lon="14.485045">
        <ele>249.6923</ele>
        <time>2021-08-01T01:38:05.959Z</time>
      </trkpt>
      <trkpt lat="48.21343112" lon="14.48504639">
        <ele>249.6923</ele>
        <time>2021-08-01T01:38:09.066Z</time>
      </trkpt>
      <trkpt lat="48.21329001" lon="14.48488417">
        <ele>249.6923</ele>
        <time>2021-08-01T01:38:13.254Z</time>
      </trkpt>
      <trkpt lat="48.21317917" lon="14.48550334">
        <ele>249.8462</ele>
        <time>2021-08-01T01:38:23.342Z</time>
      </trkpt>
      <trkpt lat="48.21308306" lon="14.48598917">
        <ele>250</ele>
        <time>2021-08-01T01:38:31.316Z</time>
      </trkpt>
      <trkpt lat="48.21291278" lon="14.48731778">
        <ele>249.9231</ele>
        <time>2021-08-01T01:38:52.606Z</time>
      </trkpt>
      <trkpt lat="48.21364445" lon="14.48738973">
        <ele>249.6154</ele>
        <time>2021-08-01T01:39:09.872Z</time>
      </trkpt>
      <trkpt lat="48.21406028" lon="14.48774473">
        <ele>249.4615</ele>
        <time>2021-08-01T01:39:21.141Z</time>
      </trkpt>
      <trkpt lat="48.21423084" lon="14.48809223">
        <ele>249.2308</ele>
        <time>2021-08-01T01:39:27.92Z</time>
      </trkpt>
      <trkpt lat="48.21442" lon="14.48837834">
        <ele>249</ele>
        <time>2021-08-01T01:39:34.249Z</time>
      </trkpt>
      <trkpt lat="48.21512389" lon="14.48938973">
        <ele>248.6154</ele>
        <time>2021-08-01T01:39:57.228Z</time>
      </trkpt>
      <trkpt lat="48.21583973" lon="14.49037167">
        <ele>248.3077</ele>
        <time>2021-08-01T01:40:20.095Z</time>
      </trkpt>
      <trkpt lat="48.21686806" lon="14.49130556">
        <ele>248.1538</ele>
        <time>2021-08-01T01:40:48.42Z</time>
      </trkpt>
      <trkpt lat="48.21735278" lon="14.49213612">
        <ele>248.0769</ele>
        <time>2021-08-01T01:41:05.772Z</time>
      </trkpt>
      <trkpt lat="48.21774501" lon="14.49279528">
        <ele>248</ele>
        <time>2021-08-01T01:41:19.661Z</time>
      </trkpt>
      <trkpt lat="48.21795417" lon="14.49300278">
        <ele>247.8462</ele>
        <time>2021-08-01T01:41:25.568Z</time>
      </trkpt>
      <trkpt lat="48.21798917" lon="14.49307028">
        <ele>247.6154</ele>
        <time>2021-08-01T01:41:26.911Z</time>
      </trkpt>
      <trkpt lat="48.21799501" lon="14.49325556">
        <ele>247.3846</ele>
        <time>2021-08-01T01:41:29.826Z</time>
      </trkpt>
      <trkpt lat="48.21825917" lon="14.49356417">
        <ele>247.3077</ele>
        <time>2021-08-01T01:41:37.713Z</time>
      </trkpt>
      <trkpt lat="48.21915417" lon="14.49459806">
        <ele>247.3077</ele>
        <time>2021-08-01T01:42:04.337Z</time>
      </trkpt>
      <trkpt lat="48.21958056" lon="14.49516806">
        <ele>247.2308</ele>
        <time>2021-08-01T01:42:17.8Z</time>
      </trkpt>
      <trkpt lat="48.21982167" lon="14.49549667">
        <ele>247.2308</ele>
        <time>2021-08-01T01:42:25.474Z</time>
      </trkpt>
      <trkpt lat="48.22031362" lon="14.49617445">
        <ele>247</ele>
        <time>2021-08-01T01:42:41.22Z</time>
      </trkpt>
      <trkpt lat="48.22098889" lon="14.49685695">
        <ele>246.7692</ele>
        <time>2021-08-01T01:43:00.408Z</time>
      </trkpt>
      <trkpt lat="48.22125973" lon="14.49761945">
        <ele>246.4615</ele>
        <time>2021-08-01T01:43:13.996Z</time>
      </trkpt>
      <trkpt lat="48.22128167" lon="14.49751445">
        <ele>246.2308</ele>
        <time>2021-08-01T01:43:15.725Z</time>
      </trkpt>
      <trkpt lat="48.22180889" lon="14.49667112">
        <ele>246</ele>
        <time>2021-08-01T01:43:33.897Z</time>
      </trkpt>
      <trkpt lat="48.22350667" lon="14.49369917">
        <ele>245.9231</ele>
        <time>2021-08-01T01:44:35.42Z</time>
      </trkpt>
      <trkpt lat="48.22402528" lon="14.49432195">
        <ele>245.7692</ele>
        <time>2021-08-01T01:44:51.077Z</time>
      </trkpt>
      <trkpt lat="48.22314667" lon="14.49584278">
        <ele>245.6923</ele>
        <time>2021-08-01T01:45:22.71Z</time>
      </trkpt>
      <trkpt lat="48.22162056" lon="14.49838667">
        <ele>245.6154</ele>
        <time>2021-08-01T01:46:16.502Z</time>
      </trkpt>
      <trkpt lat="48.22204556" lon="14.49979612">
        <ele>245.6154</ele>
        <time>2021-08-01T01:46:40.833Z</time>
      </trkpt>
      <trkpt lat="48.22208834" lon="14.49992306">
        <ele>245.5385</ele>
        <time>2021-08-01T01:46:43.067Z</time>
      </trkpt>
      <trkpt lat="48.22185834" lon="14.50010167">
        <ele>245.4615</ele>
        <time>2021-08-01T01:46:49.167Z</time>
      </trkpt>
      <trkpt lat="48.22022056" lon="14.50148862">
        <ele>245.1538</ele>
        <time>2021-08-01T01:47:33.479Z</time>
      </trkpt>
      <trkpt lat="48.22001028" lon="14.50168778">
        <ele>245.2308</ele>
        <time>2021-08-01T01:47:39.336Z</time>
      </trkpt>
      <trkpt lat="48.22007334" lon="14.50189028">
        <ele>245.2308</ele>
        <time>2021-08-01T01:47:42.847Z</time>
      </trkpt>
      <trkpt lat="48.22145667" lon="14.50588362">
        <ele>245.1538</ele>
        <time>2021-08-01T01:48:53.625Z</time>
      </trkpt>
      <trkpt lat="48.22213223" lon="14.50780528">
        <ele>245</ele>
        <time>2021-08-01T01:49:27.792Z</time>
      </trkpt>
      <trkpt lat="48.22244806" lon="14.50872667">
        <ele>244.8462</ele>
        <time>2021-08-01T01:49:44.086Z</time>
      </trkpt>
      <trkpt lat="48.22306028" lon="14.51027834">
        <ele>244.6923</ele>
        <time>2021-08-01T01:50:12.44Z</time>
      </trkpt>
      <trkpt lat="48.22399778" lon="14.50964417">
        <ele>244.6154</ele>
        <time>2021-08-01T01:50:36.666Z</time>
      </trkpt>
      <trkpt lat="48.22400028" lon="14.50975334">
        <ele>244.3846</ele>
        <time>2021-08-01T01:50:38.382Z</time>
      </trkpt>
      <trkpt lat="48.22408945" lon="14.51106612">
        <ele>244.3077</ele>
        <time>2021-08-01T01:50:59.144Z</time>
      </trkpt>
      <trkpt lat="48.22419001" lon="14.51183667">
        <ele>244.1538</ele>
        <time>2021-08-01T01:51:11.497Z</time>
      </trkpt>
      <trkpt lat="48.22403917" lon="14.51189417">
        <ele>243.9231</ele>
        <time>2021-08-01T01:51:15.162Z</time>
      </trkpt>
      <trkpt lat="48.22462445" lon="14.51239556">
        <ele>243.6154</ele>
        <time>2021-08-01T01:51:31.042Z</time>
      </trkpt>
      <trkpt lat="48.22505806" lon="14.51274612">
        <ele>243.6154</ele>
        <time>2021-08-01T01:51:42.643Z</time>
      </trkpt>
      <trkpt lat="48.2255325" lon="14.51292945">
        <ele>243.4615</ele>
        <time>2021-08-01T01:51:54.18Z</time>
      </trkpt>
      <trkpt lat="48.22708056" lon="14.5132275">
        <ele>243.0769</ele>
        <time>2021-08-01T01:52:30.932Z</time>
      </trkpt>
      <trkpt lat="48.22953639" lon="14.5140175">
        <ele>242.7692</ele>
        <time>2021-08-01T01:53:30.08Z</time>
      </trkpt>
      <trkpt lat="48.23082445" lon="14.51546528">
        <ele>242.5385</ele>
        <time>2021-08-01T01:54:08.01Z</time>
      </trkpt>
      <trkpt lat="48.23218612" lon="14.51789251">
        <ele>242.6923</ele>
        <time>2021-08-01T01:54:57.872Z</time>
      </trkpt>
      <trkpt lat="48.23285695" lon="14.51996778">
        <ele>243.2308</ele>
        <time>2021-08-01T01:55:34.14Z</time>
      </trkpt>
      <trkpt lat="48.23360445" lon="14.52219612">
        <ele>244.3077</ele>
        <time>2021-08-01T01:56:13.366Z</time>
      </trkpt>
      <trkpt lat="48.23378056" lon="14.522805">
        <ele>244.7692</ele>
        <time>2021-08-01T01:56:23.804Z</time>
      </trkpt>
      <trkpt lat="48.23394139" lon="14.52345528">
        <ele>244.6154</ele>
        <time>2021-08-01T01:56:34.712Z</time>
      </trkpt>
      <trkpt lat="48.23411028" lon="14.52397139">
        <ele>244.4615</ele>
        <time>2021-08-01T01:56:43.753Z</time>
      </trkpt>
      <trkpt lat="48.234325" lon="14.52482001">
        <ele>244.4615</ele>
        <time>2021-08-01T01:56:58.028Z</time>
      </trkpt>
      <trkpt lat="48.23449389" lon="14.52566001">
        <ele>244.4615</ele>
        <time>2021-08-01T01:57:11.828Z</time>
      </trkpt>
      <trkpt lat="48.23460084" lon="14.52626945">
        <ele>244.3846</ele>
        <time>2021-08-01T01:57:21.74Z</time>
      </trkpt>
      <trkpt lat="48.23419973" lon="14.52623167">
        <ele>244.6154</ele>
        <time>2021-08-01T01:57:31.204Z</time>
      </trkpt>
      <trkpt lat="48.23361917" lon="14.52632389">
        <ele>245.1538</ele>
        <time>2021-08-01T01:57:44.951Z</time>
      </trkpt>
      <trkpt lat="48.23299917" lon="14.52624278">
        <ele>245.6923</ele>
        <time>2021-08-01T01:57:59.606Z</time>
      </trkpt>
      <trkpt lat="48.23301917" lon="14.52635862">
        <ele>246.6154</ele>
        <time>2021-08-01T01:58:01.486Z</time>
      </trkpt>
      <trkpt lat="48.23307834" lon="14.52664778">
        <ele>246.6923</ele>
        <time>2021-08-01T01:58:06.237Z</time>
      </trkpt>
      <trkpt lat="48.23286723" lon="14.52711362">
        <ele>246.3846</ele>
        <time>2021-08-01T01:58:15.092Z</time>
      </trkpt>
      <trkpt lat="48.23219834" lon="14.52945806">
        <ele>245.3846</ele>
        <time>2021-08-01T01:58:55.197Z</time>
      </trkpt>
      <trkpt lat="48.23217417" lon="14.52957306">
        <ele>245.0769</ele>
        <time>2021-08-01T01:58:57.091Z</time>
      </trkpt>
      <trkpt lat="48.23213056" lon="14.52969501">
        <ele>245.2308</ele>
        <time>2021-08-01T01:58:59.265Z</time>
      </trkpt>
      <trkpt lat="48.23196334" lon="14.53014612">
        <ele>245.3846</ele>
        <time>2021-08-01T01:59:07.381Z</time>
      </trkpt>
      <trkpt lat="48.23176667" lon="14.53061639">
        <ele>245.5385</ele>
        <time>2021-08-01T01:59:16.109Z</time>
      </trkpt>
      <trkpt lat="48.23102917" lon="14.53268167">
        <ele>245.6923</ele>
        <time>2021-08-01T01:59:52.95Z</time>
      </trkpt>
      <trkpt lat="48.23059445" lon="14.53389417">
        <ele>245.8462</ele>
        <time>2021-08-01T02:00:14.599Z</time>
      </trkpt>
      <trkpt lat="48.23017695" lon="14.53542639">
        <ele>245.7692</ele>
        <time>2021-08-01T02:00:40.632Z</time>
      </trkpt>
      <trkpt lat="48.23011973" lon="14.53602028">
        <ele>245.6154</ele>
        <time>2021-08-01T02:00:50.072Z</time>
      </trkpt>
      <trkpt lat="48.22932862" lon="14.53663334">
        <ele>245.3846</ele>
        <time>2021-08-01T02:01:11.049Z</time>
      </trkpt>
      <trkpt lat="48.22933389" lon="14.53665334">
        <ele>245.3686</ele>
        <time>2021-08-01T02:01:11.387Z</time>
      </trkpt>
      <trkpt lat="48.22965584" lon="14.53776973">
        <ele>244.4615</ele>
        <time>2021-08-01T02:01:30.517Z</time>
      </trkpt>
      <trkpt lat="48.22984667" lon="14.53894862">
        <ele>244.0769</ele>
        <time>2021-08-01T02:01:49.601Z</time>
      </trkpt>
      <trkpt lat="48.22989223" lon="14.53988889">
        <ele>243.8462</ele>
        <time>2021-08-01T02:02:04.433Z</time>
      </trkpt>
      <trkpt lat="48.22982028" lon="14.54048445">
        <ele>243.3846</ele>
        <time>2021-08-01T02:02:13.955Z</time>
      </trkpt>
      <trkpt lat="48.22951667" lon="14.54142612">
        <ele>243.2308</ele>
        <time>2021-08-01T02:02:30.405Z</time>
      </trkpt>
      <trkpt lat="48.22933778" lon="14.54203028">
        <ele>243</ele>
        <time>2021-08-01T02:02:40.802Z</time>
      </trkpt>
      <trkpt lat="48.22923862" lon="14.54265528">
        <ele>242.8462</ele>
        <time>2021-08-01T02:02:50.908Z</time>
      </trkpt>
      <trkpt lat="48.22918889" lon="14.54321001">
        <ele>242.8462</ele>
        <time>2021-08-01T02:02:59.714Z</time>
      </trkpt>
      <trkpt lat="48.22894001" lon="14.54421306">
        <ele>242.6923</ele>
        <time>2021-08-01T02:03:16.548Z</time>
      </trkpt>
      <trkpt lat="48.22864695" lon="14.54533445">
        <ele>242.5385</ele>
        <time>2021-08-01T02:03:35.492Z</time>
      </trkpt>
      <trkpt lat="48.22838862" lon="14.54647084">
        <ele>242.3077</ele>
        <time>2021-08-01T02:03:54.377Z</time>
      </trkpt>
      <trkpt lat="48.22829501" lon="14.54728639">
        <ele>242.1538</ele>
        <time>2021-08-01T02:04:07.396Z</time>
      </trkpt>
      <trkpt lat="48.22830112" lon="14.54885139">
        <ele>242.0769</ele>
        <time>2021-08-01T02:04:32.019Z</time>
      </trkpt>
      <trkpt lat="48.228465" lon="14.5502025">
        <ele>241.8462</ele>
        <time>2021-08-01T02:04:53.624Z</time>
      </trkpt>
      <trkpt lat="48.22861445" lon="14.5509825">
        <ele>241.8462</ele>
        <time>2021-08-01T02:05:06.39Z</time>
      </trkpt>
      <trkpt lat="48.22899445" lon="14.55241306">
        <ele>241.9231</ele>
        <time>2021-08-01T02:05:30.61Z</time>
      </trkpt>
      <trkpt lat="48.22913806" lon="14.55364723">
        <ele>242.0769</ele>
        <time>2021-08-01T02:05:50.319Z</time>
      </trkpt>
      <trkpt lat="48.22928834" lon="14.5547025">
        <ele>241.9231</ele>
        <time>2021-08-01T02:06:07.294Z</time>
      </trkpt>
      <trkpt lat="48.22930528" lon="14.55644723">
        <ele>241.6923</ele>
        <time>2021-08-01T02:06:34.746Z</time>
      </trkpt>
      <trkpt lat="48.22924612" lon="14.55786195">
        <ele>241.4615</ele>
        <time>2021-08-01T02:06:57.047Z</time>
      </trkpt>
      <trkpt lat="48.22918056" lon="14.55958584">
        <ele>241.0769</ele>
        <time>2021-08-01T02:07:24.213Z</time>
      </trkpt>
      <trkpt lat="48.22899417" lon="14.56066612">
        <ele>240.7692</ele>
        <time>2021-08-01T02:07:41.766Z</time>
      </trkpt>
      <trkpt lat="48.22874945" lon="14.56150556">
        <ele>240.3846</ele>
        <time>2021-08-01T02:07:56.175Z</time>
      </trkpt>
      <trkpt lat="48.22858223" lon="14.5619">
        <ele>240.2308</ele>
        <time>2021-08-01T02:08:03.525Z</time>
      </trkpt>
      <trkpt lat="48.22831028" lon="14.56210973">
        <ele>240.0769</ele>
        <time>2021-08-01T02:08:10.727Z</time>
      </trkpt>
      <trkpt lat="48.22800778" lon="14.56276028">
        <ele>239.9231</ele>
        <time>2021-08-01T02:08:23.197Z</time>
      </trkpt>
      <trkpt lat="48.22764195" lon="14.56242667">
        <ele>239.7692</ele>
        <time>2021-08-01T02:08:33.28Z</time>
      </trkpt>
      <trkpt lat="48.22704084" lon="14.56212056">
        <ele>239.3846</ele>
        <time>2021-08-01T02:08:48.229Z</time>
      </trkpt>
      <trkpt lat="48.22654806" lon="14.56161862">
        <ele>238.9231</ele>
        <time>2021-08-01T02:09:02.265Z</time>
      </trkpt>
      <trkpt lat="48.22570001" lon="14.56234723">
        <ele>238.7692</ele>
        <time>2021-08-01T02:09:25.291Z</time>
      </trkpt>
      <trkpt lat="48.22560612" lon="14.56238501">
        <ele>238.6154</ele>
        <time>2021-08-01T02:09:27.58Z</time>
      </trkpt>
      <trkpt lat="48.22524306" lon="14.56277889">
        <ele>238.6154</ele>
        <time>2021-08-01T02:09:38.139Z</time>
      </trkpt>
      <trkpt lat="48.22419362" lon="14.56389389">
        <ele>238.6923</ele>
        <time>2021-08-01T02:10:08.445Z</time>
      </trkpt>
      <trkpt lat="48.22308639" lon="14.56491223">
        <ele>238.7692</ele>
        <time>2021-08-01T02:10:39.047Z</time>
      </trkpt>
      <trkpt lat="48.22172667" lon="14.56596612">
        <ele>238.7692</ele>
        <time>2021-08-01T02:11:15.104Z</time>
      </trkpt>
      <trkpt lat="48.22042445" lon="14.56716556">
        <ele>238.7692</ele>
        <time>2021-08-01T02:11:51.11Z</time>
      </trkpt>
      <trkpt lat="48.22003389" lon="14.56748112">
        <ele>238.6154</ele>
        <time>2021-08-01T02:12:01.558Z</time>
      </trkpt>
      <trkpt lat="48.21972195" lon="14.56763973">
        <ele>238.6154</ele>
        <time>2021-08-01T02:12:09.315Z</time>
      </trkpt>
      <trkpt lat="48.21888723" lon="14.56788389">
        <ele>238.5385</ele>
        <time>2021-08-01T02:12:29.341Z</time>
      </trkpt>
      <trkpt lat="48.21850084" lon="14.56795834">
        <ele>238.5385</ele>
        <time>2021-08-01T02:12:38.514Z</time>
      </trkpt>
      <trkpt lat="48.21732473" lon="14.56840139">
        <ele>238.6154</ele>
        <time>2021-08-01T02:13:07.072Z</time>
      </trkpt>
      <trkpt lat="48.21618278" lon="14.56880334">
        <ele>238.6154</ele>
        <time>2021-08-01T02:13:34.696Z</time>
      </trkpt>
      <trkpt lat="48.21490195" lon="14.56900723">
        <ele>238.5385</ele>
        <time>2021-08-01T02:14:05.025Z</time>
      </trkpt>
      <trkpt lat="48.21268667" lon="14.56941612">
        <ele>238.6154</ele>
        <time>2021-08-01T02:14:57.584Z</time>
      </trkpt>
      <trkpt lat="48.21234723" lon="14.56949695">
        <ele>238.6154</ele>
        <time>2021-08-01T02:15:05.677Z</time>
      </trkpt>
      <trkpt lat="48.21174473" lon="14.56883862">
        <ele>238.4615</ele>
        <time>2021-08-01T02:15:23.245Z</time>
      </trkpt>
      <trkpt lat="48.21119612" lon="14.56868695">
        <ele>238.2308</ele>
        <time>2021-08-01T02:15:36.381Z</time>
      </trkpt>
      <trkpt lat="48.21078" lon="14.56884667">
        <ele>238.2308</ele>
        <time>2021-08-01T02:15:46.496Z</time>
      </trkpt>
      <trkpt lat="48.21057278" lon="14.56908251">
        <ele>238</ele>
        <time>2021-08-01T02:15:52.623Z</time>
      </trkpt>
      <trkpt lat="48.20968556" lon="14.56924612">
        <ele>237.6923</ele>
        <time>2021-08-01T02:16:13.672Z</time>
      </trkpt>
      <trkpt lat="48.20924667" lon="14.57053751">
        <ele>237.3077</ele>
        <time>2021-08-01T02:16:36.474Z</time>
      </trkpt>
      <trkpt lat="48.20888278" lon="14.57073556">
        <ele>237</ele>
        <time>2021-08-01T02:16:45.59Z</time>
      </trkpt>
      <trkpt lat="48.20745112" lon="14.57109889">
        <ele>236.7692</ele>
        <time>2021-08-01T02:17:19.782Z</time>
      </trkpt>
      <trkpt lat="48.20711167" lon="14.57117973">
        <ele>236.7692</ele>
        <time>2021-08-01T02:17:27.875Z</time>
      </trkpt>
      <trkpt lat="48.20565362" lon="14.57181612">
        <ele>237.3077</ele>
        <time>2021-08-01T02:18:03.639Z</time>
      </trkpt>
      <trkpt lat="48.2050025" lon="14.57213362">
        <ele>237.6923</ele>
        <time>2021-08-01T02:18:19.763Z</time>
      </trkpt>
      <trkpt lat="48.20391167" lon="14.57218528">
        <ele>237.8462</ele>
        <time>2021-08-01T02:18:45.462Z</time>
      </trkpt>
      <trkpt lat="48.20320945" lon="14.57272084">
        <ele>238.1538</ele>
        <time>2021-08-01T02:19:04.022Z</time>
      </trkpt>
      <trkpt lat="48.20141334" lon="14.57512889">
        <ele>238.3077</ele>
        <time>2021-08-01T02:20:00.816Z</time>
      </trkpt>
      <trkpt lat="48.20040001" lon="14.57606862">
        <ele>238.5385</ele>
        <time>2021-08-01T02:20:28.89Z</time>
      </trkpt>
      <trkpt lat="48.19905306" lon="14.57726612">
        <ele>238.7692</ele>
        <time>2021-08-01T02:21:05.786Z</time>
      </trkpt>
      <trkpt lat="48.19835639" lon="14.57932056">
        <ele>238.9231</ele>
        <time>2021-08-01T02:21:42.05Z</time>
      </trkpt>
      <trkpt lat="48.19814417" lon="14.57960362">
        <ele>239.2308</ele>
        <time>2021-08-01T02:21:48.741Z</time>
      </trkpt>
      <trkpt lat="48.19755028" lon="14.57992667">
        <ele>239.3846</ele>
        <time>2021-08-01T02:22:03.619Z</time>
      </trkpt>
      <trkpt lat="48.19668751" lon="14.58060778">
        <ele>239.5385</ele>
        <time>2021-08-01T02:22:26.591Z</time>
      </trkpt>
      <trkpt lat="48.19621084" lon="14.58116223">
        <ele>239.6923</ele>
        <time>2021-08-01T02:22:40.81Z</time>
      </trkpt>
      <trkpt lat="48.19412889" lon="14.58285445">
        <ele>239.6923</ele>
        <time>2021-08-01T02:23:36.605Z</time>
      </trkpt>
      <trkpt lat="48.19350056" lon="14.58389723">
        <ele>239.1538</ele>
        <time>2021-08-01T02:23:58.705Z</time>
      </trkpt>
      <trkpt lat="48.19294389" lon="14.58487473">
        <ele>238.8462</ele>
        <time>2021-08-01T02:24:18.92Z</time>
      </trkpt>
      <trkpt lat="48.19197362" lon="14.58604584">
        <ele>238.5385</ele>
        <time>2021-08-01T02:24:48.279Z</time>
      </trkpt>
      <trkpt lat="48.1915025" lon="14.58762195">
        <ele>238.2308</ele>
        <time>2021-08-01T02:25:15.461Z</time>
      </trkpt>
      <trkpt lat="48.19071362" lon="14.58875">
        <ele>237.6923</ele>
        <time>2021-08-01T02:25:41.161Z</time>
      </trkpt>
      <trkpt lat="48.18947834" lon="14.58932806">
        <ele>237.1538</ele>
        <time>2021-08-01T02:26:11.639Z</time>
      </trkpt>
      <trkpt lat="48.18851001" lon="14.59035695">
        <ele>236.4615</ele>
        <time>2021-08-01T02:26:39.609Z</time>
      </trkpt>
      <trkpt lat="48.18651112" lon="14.591655">
        <ele>236.0769</ele>
        <time>2021-08-01T02:27:30.923Z</time>
      </trkpt>
      <trkpt lat="48.18569306" lon="14.59379139">
        <ele>235.6154</ele>
        <time>2021-08-01T02:28:09.688Z</time>
      </trkpt>
      <trkpt lat="48.18467445" lon="14.59462695">
        <ele>235.3077</ele>
        <time>2021-08-01T02:28:37.045Z</time>
      </trkpt>
      <trkpt lat="48.18461806" lon="14.59557362">
        <ele>235.0769</ele>
        <time>2021-08-01T02:28:52.011Z</time>
      </trkpt>
      <trkpt lat="48.18458112" lon="14.59634695">
        <ele>235</ele>
        <time>2021-08-01T02:29:04.219Z</time>
      </trkpt>
      <trkpt lat="48.18435528" lon="14.5969775">
        <ele>234.9231</ele>
        <time>2021-08-01T02:29:15.482Z</time>
      </trkpt>
      <trkpt lat="48.18416306" lon="14.59731223">
        <ele>235.0769</ele>
        <time>2021-08-01T02:29:22.424Z</time>
      </trkpt>
      <trkpt lat="48.18408251" lon="14.59777973">
        <ele>235.0769</ele>
        <time>2021-08-01T02:29:30.026Z</time>
      </trkpt>
      <trkpt lat="48.18414806" lon="14.59869695">
        <ele>235.0769</ele>
        <time>2021-08-01T02:29:44.551Z</time>
      </trkpt>
      <trkpt lat="48.18409973" lon="14.599075">
        <ele>234.8462</ele>
        <time>2021-08-01T02:29:50.603Z</time>
      </trkpt>
      <trkpt lat="48.18392056" lon="14.59961167">
        <ele>234.9231</ele>
        <time>2021-08-01T02:30:00.048Z</time>
      </trkpt>
      <trkpt lat="48.183805" lon="14.599855">
        <ele>235</ele>
        <time>2021-08-01T02:30:04.743Z</time>
      </trkpt>
      <trkpt lat="48.18378778" lon="14.6005975">
        <ele>235.0769</ele>
        <time>2021-08-01T02:30:16.442Z</time>
      </trkpt>
      <trkpt lat="48.18394278" lon="14.60252917">
        <ele>235.3077</ele>
        <time>2021-08-01T02:30:47.078Z</time>
      </trkpt>
      <trkpt lat="48.18470584" lon="14.60447028">
        <ele>235.6154</ele>
        <time>2021-08-01T02:31:22.534Z</time>
      </trkpt>
      <trkpt lat="48.1851" lon="14.60579112">
        <ele>235.6154</ele>
        <time>2021-08-01T02:31:45.309Z</time>
      </trkpt>
      <trkpt lat="48.18508028" lon="14.60662584">
        <ele>235.6923</ele>
        <time>2021-08-01T02:31:58.461Z</time>
      </trkpt>
      <trkpt lat="48.18563973" lon="14.60702501">
        <ele>235.4615</ele>
        <time>2021-08-01T02:32:13.057Z</time>
      </trkpt>
      <trkpt lat="48.18561223" lon="14.60763612">
        <ele>235.0769</ele>
        <time>2021-08-01T02:32:22.701Z</time>
      </trkpt>
      <trkpt lat="48.18601889" lon="14.60905">
        <ele>234.7692</ele>
        <time>2021-08-01T02:32:46.936Z</time>
      </trkpt>
      <trkpt lat="48.18597945" lon="14.61068445">
        <ele>234.3846</ele>
        <time>2021-08-01T02:33:12.689Z</time>
      </trkpt>
      <trkpt lat="48.18544028" lon="14.61247834">
        <ele>234.0769</ele>
        <time>2021-08-01T02:33:43.658Z</time>
      </trkpt>
      <trkpt lat="48.18514278" lon="14.61329084">
        <ele>233.9231</ele>
        <time>2021-08-01T02:33:58.244Z</time>
      </trkpt>
      <trkpt lat="48.18456973" lon="14.61466667">
        <ele>233.9231</ele>
        <time>2021-08-01T02:34:23.767Z</time>
      </trkpt>
      <trkpt lat="48.18396223" lon="14.61541917">
        <ele>233.8462</ele>
        <time>2021-08-01T02:34:42.342Z</time>
      </trkpt>
      <trkpt lat="48.18313278" lon="14.61653028">
        <ele>233.8462</ele>
        <time>2021-08-01T02:35:08.564Z</time>
      </trkpt>
      <trkpt lat="48.18266501" lon="14.61679139">
        <ele>233.7692</ele>
        <time>2021-08-01T02:35:20.319Z</time>
      </trkpt>
      <trkpt lat="48.18234834" lon="14.61698973">
        <ele>233.5385</ele>
        <time>2021-08-01T02:35:28.402Z</time>
      </trkpt>
      <trkpt lat="48.18187612" lon="14.61666417">
        <ele>233.5385</ele>
        <time>2021-08-01T02:35:40.643Z</time>
      </trkpt>
      <trkpt lat="48.18119167" lon="14.61596917">
        <ele>233.2308</ele>
        <time>2021-08-01T02:36:00.125Z</time>
      </trkpt>
      <trkpt lat="48.18042778" lon="14.61583806">
        <ele>233.0769</ele>
        <time>2021-08-01T02:36:18.23Z</time>
      </trkpt>
      <trkpt lat="48.18029306" lon="14.61562417">
        <ele>233.0769</ele>
        <time>2021-08-01T02:36:22.853Z</time>
      </trkpt>
      <trkpt lat="48.18003612" lon="14.61586612">
        <ele>232.8462</ele>
        <time>2021-08-01T02:36:30Z</time>
      </trkpt>
      <trkpt lat="48.17929917" lon="14.61647473">
        <ele>232.8462</ele>
        <time>2021-08-01T02:36:49.824Z</time>
      </trkpt>
      <trkpt lat="48.17865528" lon="14.61752445">
        <ele>232.9231</ele>
        <time>2021-08-01T02:37:12.255Z</time>
      </trkpt>
      <trkpt lat="48.17836723" lon="14.61813389">
        <ele>232.9231</ele>
        <time>2021-08-01T02:37:24.007Z</time>
      </trkpt>
      <trkpt lat="48.17795723" lon="14.61935223">
        <ele>232.7692</ele>
        <time>2021-08-01T02:37:45.486Z</time>
      </trkpt>
      <trkpt lat="48.17723445" lon="14.62052612">
        <ele>232.6923</ele>
        <time>2021-08-01T02:38:10.614Z</time>
      </trkpt>
      <trkpt lat="48.17681195" lon="14.62097389">
        <ele>232.6154</ele>
        <time>2021-08-01T02:38:22.808Z</time>
      </trkpt>
      <trkpt lat="48.17639612" lon="14.62116195">
        <ele>232.4615</ele>
        <time>2021-08-01T02:38:33.036Z</time>
      </trkpt>
      <trkpt lat="48.17601528" lon="14.62147584">
        <ele>232.2308</ele>
        <time>2021-08-01T02:38:43.272Z</time>
      </trkpt>
      <trkpt lat="48.1756125" lon="14.62194112">
        <ele>232.0769</ele>
        <time>2021-08-01T02:38:55.257Z</time>
      </trkpt>
      <trkpt lat="48.17542084" lon="14.62240556">
        <ele>232.0769</ele>
        <time>2021-08-01T02:39:03.852Z</time>
      </trkpt>
      <trkpt lat="48.17499917" lon="14.62395112">
        <ele>232.2308</ele>
        <time>2021-08-01T02:39:30.141Z</time>
      </trkpt>
      <trkpt lat="48.17449584" lon="14.62466306">
        <ele>232.2308</ele>
        <time>2021-08-01T02:39:46.456Z</time>
      </trkpt>
      <trkpt lat="48.17427945" lon="14.62522917">
        <ele>232.2308</ele>
        <time>2021-08-01T02:39:56.725Z</time>
      </trkpt>
      <trkpt lat="48.17329306" lon="14.62691334">
        <ele>232.1538</ele>
        <time>2021-08-01T02:40:31.982Z</time>
      </trkpt>
      <trkpt lat="48.17292195" lon="14.62789167">
        <ele>231.9231</ele>
        <time>2021-08-01T02:40:49.696Z</time>
      </trkpt>
      <trkpt lat="48.17293778" lon="14.62825028">
        <ele>231.6923</ele>
        <time>2021-08-01T02:40:55.348Z</time>
      </trkpt>
      <trkpt lat="48.17286278" lon="14.62956139">
        <ele>231.6154</ele>
        <time>2021-08-01T02:41:16.073Z</time>
      </trkpt>
      <trkpt lat="48.17284389" lon="14.6298725">
        <ele>231.5385</ele>
        <time>2021-08-01T02:41:20.986Z</time>
      </trkpt>
      <trkpt lat="48.17287973" lon="14.63019056">
        <ele>231.6154</ele>
        <time>2021-08-01T02:41:26.059Z</time>
      </trkpt>
      <trkpt lat="48.17279167" lon="14.63055389">
        <ele>231.6923</ele>
        <time>2021-08-01T02:41:32.138Z</time>
      </trkpt>
      <trkpt lat="48.17268167" lon="14.63109028">
        <ele>231.9231</ele>
        <time>2021-08-01T02:41:40.974Z</time>
      </trkpt>
      <trkpt lat="48.17250945" lon="14.6315675">
        <ele>232</ele>
        <time>2021-08-01T02:41:49.514Z</time>
      </trkpt>
      <trkpt lat="48.17219001" lon="14.63238056">
        <ele>232</ele>
        <time>2021-08-01T02:42:04.366Z</time>
      </trkpt>
      <trkpt lat="48.17160667" lon="14.63380501">
        <ele>232</ele>
        <time>2021-08-01T02:42:30.673Z</time>
      </trkpt>
      <trkpt lat="48.17138834" lon="14.63449584">
        <ele>232</ele>
        <time>2021-08-01T02:42:42.707Z</time>
      </trkpt>
      <trkpt lat="48.17162112" lon="14.63522028">
        <ele>232.0769</ele>
        <time>2021-08-01T02:42:55.366Z</time>
      </trkpt>
      <trkpt lat="48.17164834" lon="14.63599612">
        <ele>232.1538</ele>
        <time>2021-08-01T02:43:07.603Z</time>
      </trkpt>
      <trkpt lat="48.17160167" lon="14.63684778">
        <ele>232.2308</ele>
        <time>2021-08-01T02:43:21.062Z</time>
      </trkpt>
      <trkpt lat="48.17150945" lon="14.6375075">
        <ele>232.3077</ele>
        <time>2021-08-01T02:43:31.677Z</time>
      </trkpt>
      <trkpt lat="48.17196139" lon="14.63854612">
        <ele>232.3077</ele>
        <time>2021-08-01T02:43:51.193Z</time>
      </trkpt>
      <trkpt lat="48.17247612" lon="14.63887862">
        <ele>232.5385</ele>
        <time>2021-08-01T02:44:04.393Z</time>
      </trkpt>
      <trkpt lat="48.17318417" lon="14.63942056">
        <ele>232.6923</ele>
        <time>2021-08-01T02:44:23.123Z</time>
      </trkpt>
      <trkpt lat="48.17348751" lon="14.63969973">
        <ele>232.8462</ele>
        <time>2021-08-01T02:44:31.507Z</time>
      </trkpt>
      <trkpt lat="48.17375167" lon="14.64013473">
        <ele>233</ele>
        <time>2021-08-01T02:44:40.761Z</time>
      </trkpt>
      <trkpt lat="48.17398223" lon="14.64018556">
        <ele>233.2308</ele>
        <time>2021-08-01T02:44:46.249Z</time>
      </trkpt>
      <trkpt lat="48.17414584" lon="14.64004306">
        <ele>233.4615</ele>
        <time>2021-08-01T02:44:50.706Z</time>
      </trkpt>
      <trkpt lat="48.17458112" lon="14.63969945">
        <ele>233.5385</ele>
        <time>2021-08-01T02:45:02.293Z</time>
      </trkpt>
      <trkpt lat="48.17487501" lon="14.64015639">
        <ele>233.6923</ele>
        <time>2021-08-01T02:45:12.277Z</time>
      </trkpt>
      <trkpt lat="48.17481278" lon="14.64075195">
        <ele>233.7692</ele>
        <time>2021-08-01T02:45:21.771Z</time>
      </trkpt>
      <trkpt lat="48.17480751" lon="14.640735">
        <ele>233.8462</ele>
        <time>2021-08-01T02:45:22.065Z</time>
      </trkpt>
      <trkpt lat="48.17348" lon="14.64284723">
        <ele>234</ele>
        <time>2021-08-01T02:46:07.714Z</time>
      </trkpt>
      <trkpt lat="48.17180223" lon="14.64558584">
        <ele>234.1538</ele>
        <time>2021-08-01T02:47:06.205Z</time>
      </trkpt>
      <trkpt lat="48.17004362" lon="14.64933973">
        <ele>234.3077</ele>
        <time>2021-08-01T02:48:18.39Z</time>
      </trkpt>
      <trkpt lat="48.16830334" lon="14.65357862">
        <ele>234.3077</ele>
        <time>2021-08-01T02:49:36.73Z</time>
      </trkpt>
      <trkpt lat="48.16708084" lon="14.65689778">
        <ele>234.3846</ele>
        <time>2021-08-01T02:50:36.413Z</time>
      </trkpt>
      <trkpt lat="48.16605862" lon="14.66002723">
        <ele>234.3077</ele>
        <time>2021-08-01T02:51:31.271Z</time>
      </trkpt>
      <trkpt lat="48.16534028" lon="14.66289306">
        <ele>234.2308</ele>
        <time>2021-08-01T02:52:19.479Z</time>
      </trkpt>
      <trkpt lat="48.16462223" lon="14.66660445">
        <ele>234.1538</ele>
        <time>2021-08-01T02:53:20.339Z</time>
      </trkpt>
      <trkpt lat="48.16443306" lon="14.66801001">
        <ele>234.0769</ele>
        <time>2021-08-01T02:53:42.924Z</time>
      </trkpt>
      <trkpt lat="48.16420778" lon="14.67073667">
        <ele>234.0769</ele>
        <time>2021-08-01T02:54:26.203Z</time>
      </trkpt>
      <trkpt lat="48.16400334" lon="14.67388028">
        <ele>234</ele>
        <time>2021-08-01T02:55:15.957Z</time>
      </trkpt>
      <trkpt lat="48.16418362" lon="14.67890362">
        <ele>234.3077</ele>
        <time>2021-08-01T02:56:35.202Z</time>
      </trkpt>
      <trkpt lat="48.16437084" lon="14.68106806">
        <ele>234.9231</ele>
        <time>2021-08-01T02:57:09.582Z</time>
      </trkpt>
      <trkpt lat="48.16461528" lon="14.6834575">
        <ele>235.5385</ele>
        <time>2021-08-01T02:57:47.66Z</time>
      </trkpt>
      <trkpt lat="48.16478639" lon="14.68614251">
        <ele>235.9231</ele>
        <time>2021-08-01T02:58:30.147Z</time>
      </trkpt>
      <trkpt lat="48.16487001" lon="14.68769334">
        <ele>236.3077</ele>
        <time>2021-08-01T02:58:54.656Z</time>
      </trkpt>
      <trkpt lat="48.16485639" lon="14.6899825">
        <ele>236.6923</ele>
        <time>2021-08-01T02:59:30.718Z</time>
      </trkpt>
      <trkpt lat="48.16479695" lon="14.69189112">
        <ele>236.8462</ele>
        <time>2021-08-01T03:00:00.816Z</time>
      </trkpt>
      <trkpt lat="48.16397723" lon="14.69227723">
        <ele>237.0769</ele>
        <time>2021-08-01T03:00:21.053Z</time>
      </trkpt>
      <trkpt lat="48.1636325" lon="14.69319834">
        <ele>237.3077</ele>
        <time>2021-08-01T03:00:37.679Z</time>
      </trkpt>
      <trkpt lat="48.16336639" lon="14.69383223">
        <ele>237.5385</ele>
        <time>2021-08-01T03:00:49.468Z</time>
      </trkpt>
      <trkpt lat="48.16332723" lon="14.69396667">
        <ele>238.0769</ele>
        <time>2021-08-01T03:00:51.775Z</time>
      </trkpt>
      <trkpt lat="48.16334751" lon="14.69410584">
        <ele>238.6154</ele>
        <time>2021-08-01T03:00:54.016Z</time>
      </trkpt>
      <trkpt lat="48.16341501" lon="14.69441028">
        <ele>239.2308</ele>
        <time>2021-08-01T03:00:59.062Z</time>
      </trkpt>
      <trkpt lat="48.16352778" lon="14.69484195">
        <ele>239.3846</ele>
        <time>2021-08-01T03:01:06.362Z</time>
      </trkpt>
      <trkpt lat="48.16358806" lon="14.69514639">
        <ele>239.0769</ele>
        <time>2021-08-01T03:01:11.357Z</time>
      </trkpt>
      <trkpt lat="48.16386806" lon="14.69595806">
        <ele>238.6923</ele>
        <time>2021-08-01T03:01:25.743Z</time>
      </trkpt>
      <trkpt lat="48.16413751" lon="14.69662806">
        <ele>238.3077</ele>
        <time>2021-08-01T03:01:38.058Z</time>
      </trkpt>
      <trkpt lat="48.16437945" lon="14.69705695">
        <ele>237.9231</ele>
        <time>2021-08-01T03:01:46.895Z</time>
      </trkpt>
      <trkpt lat="48.16460528" lon="14.69730362">
        <ele>237.9231</ele>
        <time>2021-08-01T03:01:53.478Z</time>
      </trkpt>
      <trkpt lat="48.1648125" lon="14.69760639">
        <ele>237.9231</ele>
        <time>2021-08-01T03:02:00.296Z</time>
      </trkpt>
      <trkpt lat="48.16529751" lon="14.69815556">
        <ele>237.9231</ele>
        <time>2021-08-01T03:02:14.623Z</time>
      </trkpt>
      <trkpt lat="48.16547362" lon="14.69836306">
        <ele>238</ele>
        <time>2021-08-01T03:02:19.9Z</time>
      </trkpt>
      <trkpt lat="48.16566973" lon="14.69837112">
        <ele>237.6154</ele>
        <time>2021-08-01T03:02:24.52Z</time>
      </trkpt>
      <trkpt lat="48.16575251" lon="14.69875001">
        <ele>237.3077</ele>
        <time>2021-08-01T03:02:30.79Z</time>
      </trkpt>
      <trkpt lat="48.16592223" lon="14.70024695">
        <ele>237</ele>
        <time>2021-08-01T03:02:54.706Z</time>
      </trkpt>
      <trkpt lat="48.16592195" lon="14.70094889">
        <ele>236.5385</ele>
        <time>2021-08-01T03:03:05.763Z</time>
      </trkpt>
      <trkpt lat="48.16589417" lon="14.70179501">
        <ele>236</ele>
        <time>2021-08-01T03:03:19.107Z</time>
      </trkpt>
      <trkpt lat="48.16554528" lon="14.70391639">
        <ele>235.6154</ele>
        <time>2021-08-01T03:03:53.519Z</time>
      </trkpt>
      <trkpt lat="48.16521778" lon="14.70581556">
        <ele>235.3077</ele>
        <time>2021-08-01T03:04:24.413Z</time>
      </trkpt>
      <trkpt lat="48.16497362" lon="14.70727417">
        <ele>235.3077</ele>
        <time>2021-08-01T03:04:48.098Z</time>
      </trkpt>
      <trkpt lat="48.16493" lon="14.70759112">
        <ele>235.0769</ele>
        <time>2021-08-01T03:04:53.188Z</time>
      </trkpt>
      <trkpt lat="48.16535056" lon="14.70828278">
        <ele>234.6154</ele>
        <time>2021-08-01T03:05:07.911Z</time>
      </trkpt>
      <trkpt lat="48.16652389" lon="14.70840639">
        <ele>234.2308</ele>
        <time>2021-08-01T03:05:35.608Z</time>
      </trkpt>
      <trkpt lat="48.16763445" lon="14.70845556">
        <ele>233.9231</ele>
        <time>2021-08-01T03:06:01.77Z</time>
      </trkpt>
      <trkpt lat="48.16803195" lon="14.70864417">
        <ele>233.4615</ele>
        <time>2021-08-01T03:06:11.589Z</time>
      </trkpt>
      <trkpt lat="48.16863806" lon="14.70914389">
        <ele>233.4615</ele>
        <time>2021-08-01T03:06:27.888Z</time>
      </trkpt>
      <trkpt lat="48.16951945" lon="14.70951584">
        <ele>233.1538</ele>
        <time>2021-08-01T03:06:49.451Z</time>
      </trkpt>
      <trkpt lat="48.17028889" lon="14.71078612">
        <ele>232.7692</ele>
        <time>2021-08-01T03:07:16.443Z</time>
      </trkpt>
      <trkpt lat="48.17034973" lon="14.71099195">
        <ele>232.6154</ele>
        <time>2021-08-01T03:07:19.983Z</time>
      </trkpt>
      <trkpt lat="48.17069973" lon="14.71159778">
        <ele>232.7692</ele>
        <time>2021-08-01T03:07:32.592Z</time>
      </trkpt>
      <trkpt lat="48.17093334" lon="14.71211778">
        <ele>232.9231</ele>
        <time>2021-08-01T03:07:42.458Z</time>
      </trkpt>
      <trkpt lat="48.17116723" lon="14.71269528">
        <ele>233.2308</ele>
        <time>2021-08-01T03:07:53.091Z</time>
      </trkpt>
      <trkpt lat="48.17151778" lon="14.71350389">
        <ele>233.3846</ele>
        <time>2021-08-01T03:08:08.268Z</time>
      </trkpt>
      <trkpt lat="48.17190751" lon="14.71451501">
        <ele>233.6923</ele>
        <time>2021-08-01T03:08:26.648Z</time>
      </trkpt>
      <trkpt lat="48.1719175" lon="14.71471612">
        <ele>234</ele>
        <time>2021-08-01T03:08:29.82Z</time>
      </trkpt>
      <trkpt lat="48.17119195" lon="14.71492417">
        <ele>234.3077</ele>
        <time>2021-08-01T03:08:47.215Z</time>
      </trkpt>
      <trkpt lat="48.17084362" lon="14.71495528">
        <ele>234.5385</ele>
        <time>2021-08-01T03:08:55.432Z</time>
      </trkpt>
      <trkpt lat="48.17079223" lon="14.71487834">
        <ele>234.6923</ele>
        <time>2021-08-01T03:08:57.143Z</time>
      </trkpt>
      <trkpt lat="48.17060473" lon="14.71611084">
        <ele>234.8462</ele>
        <time>2021-08-01T03:09:17.052Z</time>
      </trkpt>
      <trkpt lat="48.17023084" lon="14.71729917">
        <ele>234.9231</ele>
        <time>2021-08-01T03:09:37.736Z</time>
      </trkpt>
      <trkpt lat="48.16988528" lon="14.71790473">
        <ele>235</ele>
        <time>2021-08-01T03:09:50.273Z</time>
      </trkpt>
      <trkpt lat="48.16968501" lon="14.71826445">
        <ele>234.8462</ele>
        <time>2021-08-01T03:09:57.638Z</time>
      </trkpt>
      <trkpt lat="48.16860389" lon="14.71928">
        <ele>234.5385</ele>
        <time>2021-08-01T03:10:27.704Z</time>
      </trkpt>
      <trkpt lat="48.16760473" lon="14.7203">
        <ele>234.2308</ele>
        <time>2021-08-01T03:10:56.194Z</time>
      </trkpt>
      <trkpt lat="48.16635834" lon="14.72165389">
        <ele>233.6923</ele>
        <time>2021-08-01T03:11:32.473Z</time>
      </trkpt>
      <trkpt lat="48.16537917" lon="14.72284945">
        <ele>233.2308</ele>
        <time>2021-08-01T03:12:02.243Z</time>
      </trkpt>
      <trkpt lat="48.16536195" lon="14.72285473">
        <ele>233.1934</ele>
        <time>2021-08-01T03:12:02.657Z</time>
      </trkpt>
      <trkpt lat="48.16531834" lon="14.72336667">
        <ele>232.4615</ele>
        <time>2021-08-01T03:12:10.786Z</time>
      </trkpt>
      <trkpt lat="48.16512612" lon="14.72389362">
        <ele>232</ele>
        <time>2021-08-01T03:12:20.241Z</time>
      </trkpt>
      <trkpt lat="48.16420778" lon="14.72551251">
        <ele>231.6154</ele>
        <time>2021-08-01T03:12:53.677Z</time>
      </trkpt>
      <trkpt lat="48.16351473" lon="14.72708473">
        <ele>231.3846</ele>
        <time>2021-08-01T03:13:23.337Z</time>
      </trkpt>
      <trkpt lat="48.16337167" lon="14.72736695">
        <ele>231.2308</ele>
        <time>2021-08-01T03:13:28.91Z</time>
      </trkpt>
      <trkpt lat="48.16321612" lon="14.72764223">
        <ele>231.1538</ele>
        <time>2021-08-01T03:13:34.581Z</time>
      </trkpt>
      <trkpt lat="48.16243612" lon="14.72805973">
        <ele>231</ele>
        <time>2021-08-01T03:13:54.09Z</time>
      </trkpt>
      <trkpt lat="48.16140417" lon="14.72896139">
        <ele>230.8462</ele>
        <time>2021-08-01T03:14:22.236Z</time>
      </trkpt>
      <trkpt lat="48.16108334" lon="14.72946195">
        <ele>230.6154</ele>
        <time>2021-08-01T03:14:33.156Z</time>
      </trkpt>
      <trkpt lat="48.16032751" lon="14.73086195">
        <ele>230.3846</ele>
        <time>2021-08-01T03:15:01.497Z</time>
      </trkpt>
      <trkpt lat="48.15959667" lon="14.73215945">
        <ele>230.3077</ele>
        <time>2021-08-01T03:15:28.217Z</time>
      </trkpt>
      <trkpt lat="48.15883306" lon="14.73349639">
        <ele>230.2308</ele>
        <time>2021-08-01T03:15:55.911Z</time>
      </trkpt>
      <trkpt lat="48.15868584" lon="14.73402362">
        <ele>230.0769</ele>
        <time>2021-08-01T03:16:04.912Z</time>
      </trkpt>
      <trkpt lat="48.15846723" lon="14.73499806">
        <ele>229.6923</ele>
        <time>2021-08-01T03:16:21.104Z</time>
      </trkpt>
      <trkpt lat="48.15807417" lon="14.73648084">
        <ele>229.3846</ele>
        <time>2021-08-01T03:16:46.231Z</time>
      </trkpt>
      <trkpt lat="48.15743334" lon="14.73835167">
        <ele>229.5385</ele>
        <time>2021-08-01T03:17:19.343Z</time>
      </trkpt>
      <trkpt lat="48.15691723" lon="14.74019639">
        <ele>229.7692</ele>
        <time>2021-08-01T03:17:50.845Z</time>
      </trkpt>
      <trkpt lat="48.15688417" lon="14.74094445">
        <ele>229.6154</ele>
        <time>2021-08-01T03:18:02.656Z</time>
      </trkpt>
      <trkpt lat="48.15740723" lon="14.74200112">
        <ele>229.3846</ele>
        <time>2021-08-01T03:18:23.364Z</time>
      </trkpt>
      <trkpt lat="48.15824584" lon="14.74339084">
        <ele>229.1538</ele>
        <time>2021-08-01T03:18:52.848Z</time>
      </trkpt>
      <trkpt lat="48.15846778" lon="14.74388278">
        <ele>229.0769</ele>
        <time>2021-08-01T03:19:02.196Z</time>
      </trkpt>
      <trkpt lat="48.15896001" lon="14.74569223">
        <ele>229.0769</ele>
        <time>2021-08-01T03:19:32.969Z</time>
      </trkpt>
      <trkpt lat="48.15948556" lon="14.74785167">
        <ele>229.0769</ele>
        <time>2021-08-01T03:20:09.17Z</time>
      </trkpt>
      <trkpt lat="48.15974306" lon="14.74868056">
        <ele>229.2308</ele>
        <time>2021-08-01T03:20:23.567Z</time>
      </trkpt>
      <trkpt lat="48.16016445" lon="14.74980528">
        <ele>229.6923</ele>
        <time>2021-08-01T03:20:43.875Z</time>
      </trkpt>
      <trkpt lat="48.16047056" lon="14.75138251">
        <ele>230.3846</ele>
        <time>2021-08-01T03:21:09.747Z</time>
      </trkpt>
      <trkpt lat="48.16056445" lon="14.75247389">
        <ele>230.5385</ele>
        <time>2021-08-01T03:21:27.082Z</time>
      </trkpt>
      <trkpt lat="48.16045362" lon="14.75286028">
        <ele>230.7692</ele>
        <time>2021-08-01T03:21:33.705Z</time>
      </trkpt>
      <trkpt lat="48.15990695" lon="14.75356334">
        <ele>230.4615</ele>
        <time>2021-08-01T03:21:50.687Z</time>
      </trkpt>
      <trkpt lat="48.15928889" lon="14.75436723">
        <ele>230.1538</ele>
        <time>2021-08-01T03:22:09.979Z</time>
      </trkpt>
      <trkpt lat="48.15874306" lon="14.75543834">
        <ele>230.0769</ele>
        <time>2021-08-01T03:22:31.191Z</time>
      </trkpt>
      <trkpt lat="48.15812556" lon="14.75651889">
        <ele>230.3077</ele>
        <time>2021-08-01T03:22:53.579Z</time>
      </trkpt>
      <trkpt lat="48.15724584" lon="14.75794112">
        <ele>230.3077</ele>
        <time>2021-08-01T03:23:24.094Z</time>
      </trkpt>
      <trkpt lat="48.15670778" lon="14.75898473">
        <ele>230.3077</ele>
        <time>2021-08-01T03:23:44.851Z</time>
      </trkpt>
      <trkpt lat="48.15656278" lon="14.75981556">
        <ele>230.3077</ele>
        <time>2021-08-01T03:23:58.379Z</time>
      </trkpt>
      <trkpt lat="48.15640778" lon="14.76145528">
        <ele>230.3077</ele>
        <time>2021-08-01T03:24:24.47Z</time>
      </trkpt>
      <trkpt lat="48.15639167" lon="14.76205334">
        <ele>230.0769</ele>
        <time>2021-08-01T03:24:33.9Z</time>
      </trkpt>
      <trkpt lat="48.15621389" lon="14.76251056">
        <ele>229.5385</ele>
        <time>2021-08-01T03:24:42.232Z</time>
      </trkpt>
      <trkpt lat="48.15621667" lon="14.7639175">
        <ele>228.8462</ele>
        <time>2021-08-01T03:25:04.399Z</time>
      </trkpt>
      <trkpt lat="48.15611695" lon="14.76478917">
        <ele>228.7692</ele>
        <time>2021-08-01T03:25:18.332Z</time>
      </trkpt>
      <trkpt lat="48.15652167" lon="14.76497278">
        <ele>228.7692</ele>
        <time>2021-08-01T03:25:28.29Z</time>
      </trkpt>
      <trkpt lat="48.1565375" lon="14.76549973">
        <ele>228.7692</ele>
        <time>2021-08-01T03:25:36.601Z</time>
      </trkpt>
      <trkpt lat="48.15705862" lon="14.76571139">
        <ele>228.6923</ele>
        <time>2021-08-01T03:25:49.315Z</time>
      </trkpt>
      <trkpt lat="48.15732445" lon="14.76597667">
        <ele>229</ele>
        <time>2021-08-01T03:25:56.838Z</time>
      </trkpt>
      <trkpt lat="48.15732945" lon="14.76589501">
        <ele>228.6923</ele>
        <time>2021-08-01T03:25:58.128Z</time>
      </trkpt>
      <trkpt lat="48.15737973" lon="14.76628528">
        <ele>228.8462</ele>
        <time>2021-08-01T03:26:04.39Z</time>
      </trkpt>
      <trkpt lat="48.15801334" lon="14.76706334">
        <ele>229</ele>
        <time>2021-08-01T03:26:23.699Z</time>
      </trkpt>
      <trkpt lat="48.15925139" lon="14.76849167">
        <ele>229.2308</ele>
        <time>2021-08-01T03:27:00.526Z</time>
      </trkpt>
      <trkpt lat="48.15965723" lon="14.76931139">
        <ele>229.4615</ele>
        <time>2021-08-01T03:27:16.591Z</time>
      </trkpt>
      <trkpt lat="48.16019806" lon="14.77076362">
        <ele>229.5385</ele>
        <time>2021-08-01T03:27:42.775Z</time>
      </trkpt>
      <trkpt lat="48.16091612" lon="14.77274806">
        <ele>229.6154</ele>
        <time>2021-08-01T03:28:18.317Z</time>
      </trkpt>
      <trkpt lat="48.16186306" lon="14.77506056">
        <ele>229.6923</ele>
        <time>2021-08-01T03:29:01.029Z</time>
      </trkpt>
      <trkpt lat="48.16224723" lon="14.77627028">
        <ele>229.9231</ele>
        <time>2021-08-01T03:29:22.124Z</time>
      </trkpt>
      <trkpt lat="48.16247778" lon="14.77756084">
        <ele>230.1538</ele>
        <time>2021-08-01T03:29:43.167Z</time>
      </trkpt>
      <trkpt lat="48.16244973" lon="14.77829001">
        <ele>230.4615</ele>
        <time>2021-08-01T03:29:54.673Z</time>
      </trkpt>
      <trkpt lat="48.16234501" lon="14.77948473">
        <ele>230.4615</ele>
        <time>2021-08-01T03:30:13.655Z</time>
      </trkpt>
      <trkpt lat="48.16237917" lon="14.78042945">
        <ele>230.1538</ele>
        <time>2021-08-01T03:30:28.559Z</time>
      </trkpt>
      <trkpt lat="48.16245528" lon="14.78132473">
        <ele>230.0769</ele>
        <time>2021-08-01T03:30:42.776Z</time>
      </trkpt>
      <trkpt lat="48.16243917" lon="14.78198639">
        <ele>229.7692</ele>
        <time>2021-08-01T03:30:53.206Z</time>
      </trkpt>
      <trkpt lat="48.16274973" lon="14.78218778">
        <ele>229.4615</ele>
        <time>2021-08-01T03:31:01.175Z</time>
      </trkpt>
      <trkpt lat="48.16308501" lon="14.78259528">
        <ele>229.1538</ele>
        <time>2021-08-01T03:31:11.35Z</time>
      </trkpt>
      <trkpt lat="48.16360195" lon="14.78316028">
        <ele>228.9231</ele>
        <time>2021-08-01T03:31:26.429Z</time>
      </trkpt>
      <trkpt lat="48.163875" lon="14.78329501">
        <ele>228.7692</ele>
        <time>2021-08-01T03:31:33.199Z</time>
      </trkpt>
      <trkpt lat="48.16506278" lon="14.78337473">
        <ele>228.6923</ele>
        <time>2021-08-01T03:32:01.196Z</time>
      </trkpt>
      <trkpt lat="48.16621084" lon="14.78347028">
        <ele>228.6154</ele>
        <time>2021-08-01T03:32:28.271Z</time>
      </trkpt>
      <trkpt lat="48.16656862" lon="14.78370556">
        <ele>228.3846</ele>
        <time>2021-08-01T03:32:37.473Z</time>
      </trkpt>
      <trkpt lat="48.16687223" lon="14.78422945">
        <ele>227.9231</ele>
        <time>2021-08-01T03:32:48.391Z</time>
      </trkpt>
      <trkpt lat="48.16700973" lon="14.78488806">
        <ele>227.5385</ele>
        <time>2021-08-01T03:32:59.259Z</time>
      </trkpt>
      <trkpt lat="48.16715862" lon="14.78631306">
        <ele>227.4615</ele>
        <time>2021-08-01T03:33:21.978Z</time>
      </trkpt>
      <trkpt lat="48.16730528" lon="14.78777278">
        <ele>227.3846</ele>
        <time>2021-08-01T03:33:45.229Z</time>
      </trkpt>
      <trkpt lat="48.16755528" lon="14.78881">
        <ele>227.3846</ele>
        <time>2021-08-01T03:34:02.595Z</time>
      </trkpt>
      <trkpt lat="48.16802139" lon="14.7903325">
        <ele>227.5385</ele>
        <time>2021-08-01T03:34:28.969Z</time>
      </trkpt>
      <trkpt lat="48.16828834" lon="14.79118139">
        <ele>227.6923</ele>
        <time>2021-08-01T03:34:43.744Z</time>
      </trkpt>
      <trkpt lat="48.16851362" lon="14.79234389">
        <ele>227.7692</ele>
        <time>2021-08-01T03:35:02.808Z</time>
      </trkpt>
      <trkpt lat="48.16861445" lon="14.79322417">
        <ele>227.6923</ele>
        <time>2021-08-01T03:35:16.875Z</time>
      </trkpt>
      <trkpt lat="48.16884167" lon="14.79537945">
        <ele>227.6923</ele>
        <time>2021-08-01T03:35:51.243Z</time>
      </trkpt>
      <trkpt lat="48.16895834" lon="14.79694612">
        <ele>227.5385</ele>
        <time>2021-08-01T03:36:16.073Z</time>
      </trkpt>
      <trkpt lat="48.16878639" lon="14.79929473">
        <ele>227.3077</ele>
        <time>2021-08-01T03:36:53.288Z</time>
      </trkpt>
      <trkpt lat="48.16853334" lon="14.80205751">
        <ele>227.2308</ele>
        <time>2021-08-01T03:37:37.212Z</time>
      </trkpt>
      <trkpt lat="48.16840417" lon="14.80330112">
        <ele>227.1538</ele>
        <time>2021-08-01T03:37:57.035Z</time>
      </trkpt>
      <trkpt lat="48.168425" lon="14.80391612">
        <ele>226.8462</ele>
        <time>2021-08-01T03:38:06.735Z</time>
      </trkpt>
      <trkpt lat="48.16852251" lon="14.8045175">
        <ele>226.6923</ele>
        <time>2021-08-01T03:38:16.482Z</time>
      </trkpt>
      <trkpt lat="48.16982889" lon="14.80877778">
        <ele>226.6923</ele>
        <time>2021-08-01T03:39:30.301Z</time>
      </trkpt>
      <trkpt lat="48.17062167" lon="14.81126917">
        <ele>226.6923</ele>
        <time>2021-08-01T03:40:13.757Z</time>
      </trkpt>
      <trkpt lat="48.17097778" lon="14.81211223">
        <ele>226.6154</ele>
        <time>2021-08-01T03:40:29.462Z</time>
      </trkpt>
      <trkpt lat="48.17147723" lon="14.81278723">
        <ele>226.5385</ele>
        <time>2021-08-01T03:40:45.316Z</time>
      </trkpt>
      <trkpt lat="48.17233139" lon="14.81364056">
        <ele>226.5385</ele>
        <time>2021-08-01T03:41:09.506Z</time>
      </trkpt>
      <trkpt lat="48.17443723" lon="14.81550473">
        <ele>226.5385</ele>
        <time>2021-08-01T03:42:07.133Z</time>
      </trkpt>
      <trkpt lat="48.17486945" lon="14.81600973">
        <ele>226.6154</ele>
        <time>2021-08-01T03:42:20.05Z</time>
      </trkpt>
      <trkpt lat="48.17509862" lon="14.81656473">
        <ele>226.7692</ele>
        <time>2021-08-01T03:42:30.322Z</time>
      </trkpt>
      <trkpt lat="48.17564778" lon="14.81900639">
        <ele>227</ele>
        <time>2021-08-01T03:43:10.892Z</time>
      </trkpt>
      <trkpt lat="48.17587834" lon="14.82034">
        <ele>227.1538</ele>
        <time>2021-08-01T03:43:32.586Z</time>
      </trkpt>
      <trkpt lat="48.1761425" lon="14.82123223">
        <ele>227.3846</ele>
        <time>2021-08-01T03:43:47.953Z</time>
      </trkpt>
      <trkpt lat="48.17655306" lon="14.82216417">
        <ele>227.7692</ele>
        <time>2021-08-01T03:44:05.528Z</time>
      </trkpt>
      <trkpt lat="48.17759195" lon="14.82376251">
        <ele>228.0769</ele>
        <time>2021-08-01T03:44:40.629Z</time>
      </trkpt>
      <trkpt lat="48.17792445" lon="14.82402139">
        <ele>228.5385</ele>
        <time>2021-08-01T03:44:49.453Z</time>
      </trkpt>
      <trkpt lat="48.17840362" lon="14.82437917">
        <ele>229.0769</ele>
        <time>2021-08-01T03:45:02.061Z</time>
      </trkpt>
      <trkpt lat="48.17879612" lon="14.82469639">
        <ele>229.6923</ele>
        <time>2021-08-01T03:45:12.563Z</time>
      </trkpt>
      <trkpt lat="48.17893528" lon="14.82490056">
        <ele>230.3077</ele>
        <time>2021-08-01T03:45:17.15Z</time>
      </trkpt>
      <trkpt lat="48.17914167" lon="14.82517195">
        <ele>231</ele>
        <time>2021-08-01T03:45:23.618Z</time>
      </trkpt>
      <trkpt lat="48.17940278" lon="14.825885">
        <ele>231.5385</ele>
        <time>2021-08-01T03:45:36.42Z</time>
      </trkpt>
      <trkpt lat="48.17964723" lon="14.82688695">
        <ele>231.9231</ele>
        <time>2021-08-01T03:45:53.216Z</time>
      </trkpt>
      <trkpt lat="48.17966195" lon="14.82689417">
        <ele>232.1538</ele>
        <time>2021-08-01T03:45:53.581Z</time>
      </trkpt>
      <trkpt lat="48.18013778" lon="14.82666723">
        <ele>232.4615</ele>
        <time>2021-08-01T03:46:05.34Z</time>
      </trkpt>
      <trkpt lat="48.18105445" lon="14.82619528">
        <ele>232.6923</ele>
        <time>2021-08-01T03:46:28.168Z</time>
      </trkpt>
      <trkpt lat="48.18173334" lon="14.82564917">
        <ele>232.7692</ele>
        <time>2021-08-01T03:46:46.32Z</time>
      </trkpt>
      <trkpt lat="48.18259028" lon="14.82504639">
        <ele>232.7692</ele>
        <time>2021-08-01T03:47:08.619Z</time>
      </trkpt>
      <trkpt lat="48.18291973" lon="14.82489556">
        <ele>232.8462</ele>
        <time>2021-08-01T03:47:16.731Z</time>
      </trkpt>
      <trkpt lat="48.1838025" lon="14.82480528">
        <ele>232.6154</ele>
        <time>2021-08-01T03:47:37.566Z</time>
      </trkpt>
      <trkpt lat="48.18451195" lon="14.82510473">
        <ele>232.3846</ele>
        <time>2021-08-01T03:47:54.922Z</time>
      </trkpt>
      <trkpt lat="48.18523945" lon="14.82564473">
        <ele>231.9231</ele>
        <time>2021-08-01T03:48:14.047Z</time>
      </trkpt>
      <trkpt lat="48.18568667" lon="14.82617612">
        <ele>231.4615</ele>
        <time>2021-08-01T03:48:27.497Z</time>
      </trkpt>
      <trkpt lat="48.18599778" lon="14.82688501">
        <ele>230.9231</ele>
        <time>2021-08-01T03:48:40.848Z</time>
      </trkpt>
      <trkpt lat="48.18625751" lon="14.82819223">
        <ele>230.6923</ele>
        <time>2021-08-01T03:49:02.321Z</time>
      </trkpt>
      <trkpt lat="48.18624028" lon="14.82819445">
        <ele>230.5385</ele>
        <time>2021-08-01T03:49:02.728Z</time>
      </trkpt>
      <trkpt lat="48.18629" lon="14.82833639">
        <ele>230.4615</ele>
        <time>2021-08-01T03:49:05.248Z</time>
      </trkpt>
      <trkpt lat="48.18644862" lon="14.82829889">
        <ele>230.3846</ele>
        <time>2021-08-01T03:49:09.029Z</time>
      </trkpt>
      <trkpt lat="48.18652056" lon="14.82836917">
        <ele>230.4615</ele>
        <time>2021-08-01T03:49:11.051Z</time>
      </trkpt>
      <trkpt lat="48.18656834" lon="14.82870834">
        <ele>230.8462</ele>
        <time>2021-08-01T03:49:16.501Z</time>
      </trkpt>
      <trkpt lat="48.18632473" lon="14.82992723">
        <ele>231.3846</ele>
        <time>2021-08-01T03:49:36.532Z</time>
      </trkpt>
      <trkpt lat="48.18625362" lon="14.83003445">
        <ele>231.6923</ele>
        <time>2021-08-01T03:49:38.908Z</time>
      </trkpt>
      <trkpt lat="48.18612001" lon="14.83125112">
        <ele>231.6923</ele>
        <time>2021-08-01T03:49:58.322Z</time>
      </trkpt>
      <trkpt lat="48.18598667" lon="14.83293084">
        <ele>231.6154</ele>
        <time>2021-08-01T03:50:24.957Z</time>
      </trkpt>
      <trkpt lat="48.18597" lon="14.83475528">
        <ele>231.7692</ele>
        <time>2021-08-01T03:50:53.687Z</time>
      </trkpt>
      <trkpt lat="48.18573834" lon="14.83516139">
        <ele>231.6923</ele>
        <time>2021-08-01T03:51:02.092Z</time>
      </trkpt>
      <trkpt lat="48.18575834" lon="14.83556695">
        <ele>231.6154</ele>
        <time>2021-08-01T03:51:08.495Z</time>
      </trkpt>
      <trkpt lat="48.18593278" lon="14.83582695">
        <ele>231.5385</ele>
        <time>2021-08-01T03:51:14.29Z</time>
      </trkpt>
      <trkpt lat="48.1863025" lon="14.83698389">
        <ele>231.5385</ele>
        <time>2021-08-01T03:51:34.481Z</time>
      </trkpt>
      <trkpt lat="48.18665223" lon="14.83779362">
        <ele>231.5385</ele>
        <time>2021-08-01T03:51:49.659Z</time>
      </trkpt>
      <trkpt lat="48.18698195" lon="14.83831389">
        <ele>231.5385</ele>
        <time>2021-08-01T03:52:00.946Z</time>
      </trkpt>
      <trkpt lat="48.18752528" lon="14.83903612">
        <ele>231.4615</ele>
        <time>2021-08-01T03:52:18.063Z</time>
      </trkpt>
      <trkpt lat="48.18762334" lon="14.83987556">
        <ele>231.3077</ele>
        <time>2021-08-01T03:52:31.481Z</time>
      </trkpt>
      <trkpt lat="48.18783695" lon="14.84039639">
        <ele>231</ele>
        <time>2021-08-01T03:52:41.101Z</time>
      </trkpt>
      <trkpt lat="48.18836195" lon="14.84198751">
        <ele>230.9231</ele>
        <time>2021-08-01T03:53:09.038Z</time>
      </trkpt>
      <trkpt lat="48.18867306" lon="14.84291306">
        <ele>231</ele>
        <time>2021-08-01T03:53:25.349Z</time>
      </trkpt>
      <trkpt lat="48.18912056" lon="14.84441751">
        <ele>231.2308</ele>
        <time>2021-08-01T03:53:51.275Z</time>
      </trkpt>
      <trkpt lat="48.18937334" lon="14.84511195">
        <ele>231.2308</ele>
        <time>2021-08-01T03:54:03.724Z</time>
      </trkpt>
      <trkpt lat="48.18991667" lon="14.84609501">
        <ele>231.2308</ele>
        <time>2021-08-01T03:54:23.805Z</time>
      </trkpt>
      <trkpt lat="48.19055667" lon="14.84681695">
        <ele>231.6923</ele>
        <time>2021-08-01T03:54:42.681Z</time>
      </trkpt>
      <trkpt lat="48.19115778" lon="14.8473075">
        <ele>231.6923</ele>
        <time>2021-08-01T03:54:58.805Z</time>
      </trkpt>
      <trkpt lat="48.19187473" lon="14.84782667">
        <ele>231.5385</ele>
        <time>2021-08-01T03:55:17.562Z</time>
      </trkpt>
      <trkpt lat="48.19211973" lon="14.84780778">
        <ele>231.6154</ele>
        <time>2021-08-01T03:55:23.339Z</time>
      </trkpt>
      <trkpt lat="48.19225834" lon="14.84758778">
        <ele>231.4615</ele>
        <time>2021-08-01T03:55:28.094Z</time>
      </trkpt>
      <trkpt lat="48.19242167" lon="14.84745389">
        <ele>231.3846</ele>
        <time>2021-08-01T03:55:32.478Z</time>
      </trkpt>
      <trkpt lat="48.19309112" lon="14.84750278">
        <ele>231.3846</ele>
        <time>2021-08-01T03:55:48.26Z</time>
      </trkpt>
      <trkpt lat="48.19399084" lon="14.84726723">
        <ele>231.6154</ele>
        <time>2021-08-01T03:56:09.767Z</time>
      </trkpt>
      <trkpt lat="48.19434334" lon="14.84726306">
        <ele>231.7692</ele>
        <time>2021-08-01T03:56:18.068Z</time>
      </trkpt>
      <trkpt lat="48.19503278" lon="14.84752417">
        <ele>232.4615</ele>
        <time>2021-08-01T03:56:34.813Z</time>
      </trkpt>
      <trkpt lat="48.19582195" lon="14.84797334">
        <ele>232.5385</ele>
        <time>2021-08-01T03:56:54.696Z</time>
      </trkpt>
      <trkpt lat="48.19602306" lon="14.84809528">
        <ele>232.6154</ele>
        <time>2021-08-01T03:56:59.805Z</time>
      </trkpt>
      <trkpt lat="48.19611223" lon="14.84830139">
        <ele>233.9231</ele>
        <time>2021-08-01T03:57:03.666Z</time>
      </trkpt>
      <trkpt lat="48.19679695" lon="14.84846278">
        <ele>234.6923</ele>
        <time>2021-08-01T03:57:19.987Z</time>
      </trkpt>
      <trkpt lat="48.1973425" lon="14.84843167">
        <ele>235.2308</ele>
        <time>2021-08-01T03:57:32.842Z</time>
      </trkpt>
      <trkpt lat="48.19802889" lon="14.84806667">
        <ele>235.1538</ele>
        <time>2021-08-01T03:57:49.993Z</time>
      </trkpt>
      <trkpt lat="48.19840584" lon="14.84797223">
        <ele>235.7692</ele>
        <time>2021-08-01T03:57:58.992Z</time>
      </trkpt>
      <trkpt lat="48.19869834" lon="14.84804251">
        <ele>236.5385</ele>
        <time>2021-08-01T03:58:05.968Z</time>
      </trkpt>
      <trkpt lat="48.19901612" lon="14.84834528">
        <ele>237.0769</ele>
        <time>2021-08-01T03:58:14.836Z</time>
      </trkpt>
      <trkpt lat="48.19931917" lon="14.84864084">
        <ele>237.3846</ele>
        <time>2021-08-01T03:58:23.351Z</time>
      </trkpt>
      <trkpt lat="48.19964139" lon="14.84874362">
        <ele>237.6923</ele>
        <time>2021-08-01T03:58:31.108Z</time>
      </trkpt>
      <trkpt lat="48.20008028" lon="14.8488175">
        <ele>237.1538</ele>
        <time>2021-08-01T03:58:41.508Z</time>
      </trkpt>
      <trkpt lat="48.2012175" lon="14.84984695">
        <ele>236.2308</ele>
        <time>2021-08-01T03:59:12.808Z</time>
      </trkpt>
      <trkpt lat="48.20183778" lon="14.85021112">
        <ele>236.3846</ele>
        <time>2021-08-01T03:59:28.495Z</time>
      </trkpt>
      <trkpt lat="48.20223278" lon="14.85060251">
        <ele>236.1538</ele>
        <time>2021-08-01T03:59:39.651Z</time>
      </trkpt>
      <trkpt lat="48.20314584" lon="14.85105501">
        <ele>235.1538</ele>
        <time>2021-08-01T04:00:02.3Z</time>
      </trkpt>
      <trkpt lat="48.20377362" lon="14.85140556">
        <ele>234.3077</ele>
        <time>2021-08-01T04:00:18.076Z</time>
      </trkpt>
      <trkpt lat="48.20430973" lon="14.85188834">
        <ele>233.8462</ele>
        <time>2021-08-01T04:00:32.811Z</time>
      </trkpt>
      <trkpt lat="48.20479139" lon="14.85240278">
        <ele>234.5385</ele>
        <time>2021-08-01T04:00:46.747Z</time>
      </trkpt>
      <trkpt lat="48.20532334" lon="14.85340167">
        <ele>234.2308</ele>
        <time>2021-08-01T04:01:06.849Z</time>
      </trkpt>
      <trkpt lat="48.20551167" lon="14.85319112">
        <ele>233.3846</ele>
        <time>2021-08-01T04:01:12.382Z</time>
      </trkpt>
      <trkpt lat="48.20598612" lon="14.85397723">
        <ele>232.5385</ele>
        <time>2021-08-01T04:01:29.053Z</time>
      </trkpt>
      <trkpt lat="48.20751584" lon="14.85572056">
        <ele>231.7692</ele>
        <time>2021-08-01T04:02:14.334Z</time>
      </trkpt>
      <trkpt lat="48.20768667" lon="14.85561362">
        <ele>230.9231</ele>
        <time>2021-08-01T04:02:18.694Z</time>
      </trkpt>
      <trkpt lat="48.20843167" lon="14.85646862">
        <ele>230.7692</ele>
        <time>2021-08-01T04:02:40.804Z</time>
      </trkpt>
      <trkpt lat="48.20895028" lon="14.85682195">
        <ele>230.6154</ele>
        <time>2021-08-01T04:02:54.219Z</time>
      </trkpt>
      <trkpt lat="48.21045917" lon="14.85772973">
        <ele>229.9231</ele>
        <time>2021-08-01T04:03:32.514Z</time>
      </trkpt>
      <trkpt lat="48.21097528" lon="14.85804973">
        <ele>230.3846</ele>
        <time>2021-08-01T04:03:45.666Z</time>
      </trkpt>
      <trkpt lat="48.21120862" lon="14.85832612">
        <ele>231.8462</ele>
        <time>2021-08-01T04:03:52.67Z</time>
      </trkpt>
      <trkpt lat="48.21131806" lon="14.85853862">
        <ele>234</ele>
        <time>2021-08-01T04:03:56.888Z</time>
      </trkpt>
      <trkpt lat="48.2114025" lon="14.85849612">
        <ele>235.1428</ele>
        <time>2021-08-01T04:03:58.985Z</time>
      </trkpt>
      <trkpt lat="48.21154612" lon="14.85852306">
        <ele>237</ele>
        <time>2021-08-01T04:04:02.393Z</time>
      </trkpt>
      <trkpt lat="48.21204028" lon="14.85887028">
        <ele>238.5385</ele>
        <time>2021-08-01T04:04:15.245Z</time>
      </trkpt>
      <trkpt lat="48.21263084" lon="14.85939223">
        <ele>240.6154</ele>
        <time>2021-08-01T04:04:31.396Z</time>
      </trkpt>
      <trkpt lat="48.21318389" lon="14.85958028">
        <ele>241.2308</ele>
        <time>2021-08-01T04:04:44.75Z</time>
      </trkpt>
      <trkpt lat="48.21384862" lon="14.85949112">
        <ele>241.4615</ele>
        <time>2021-08-01T04:05:00.465Z</time>
      </trkpt>
      <trkpt lat="48.2145175" lon="14.85924334">
        <ele>241.3846</ele>
        <time>2021-08-01T04:05:16.689Z</time>
      </trkpt>
      <trkpt lat="48.21568223" lon="14.85852889">
        <ele>241.4615</ele>
        <time>2021-08-01T04:05:46.33Z</time>
      </trkpt>
      <trkpt lat="48.21706528" lon="14.85836278">
        <ele>241.4615</ele>
        <time>2021-08-01T04:06:19.001Z</time>
      </trkpt>
      <trkpt lat="48.21913584" lon="14.85812223">
        <ele>241.4615</ele>
        <time>2021-08-01T04:07:07.903Z</time>
      </trkpt>
      <trkpt lat="48.22051445" lon="14.85821473">
        <ele>240.8462</ele>
        <time>2021-08-01T04:07:40.398Z</time>
      </trkpt>
      <trkpt lat="48.22197528" lon="14.85840528">
        <ele>239</ele>
        <time>2021-08-01T04:08:14.926Z</time>
      </trkpt>
      <trkpt lat="48.22350084" lon="14.85873584">
        <ele>236.3077</ele>
        <time>2021-08-01T04:08:51.222Z</time>
      </trkpt>
      <trkpt lat="48.22460223" lon="14.85940778">
        <ele>233.7692</ele>
        <time>2021-08-01T04:09:19.229Z</time>
      </trkpt>
      <trkpt lat="48.22524778" lon="14.85999667">
        <ele>232.2308</ele>
        <time>2021-08-01T04:09:37.031Z</time>
      </trkpt>
      <trkpt lat="48.22568" lon="14.86064306">
        <ele>230.0769</ele>
        <time>2021-08-01T04:09:51.419Z</time>
      </trkpt>
      <trkpt lat="48.22604306" lon="14.86150695">
        <ele>228.0769</ele>
        <time>2021-08-01T04:10:07.476Z</time>
      </trkpt>
      <trkpt lat="48.22614334" lon="14.86233889">
        <ele>228</ele>
        <time>2021-08-01T04:10:20.777Z</time>
      </trkpt>
      <trkpt lat="48.22617917" lon="14.86316834">
        <ele>229.3077</ele>
        <time>2021-08-01T04:10:33.855Z</time>
      </trkpt>
      <trkpt lat="48.22619667" lon="14.86553723">
        <ele>231.6923</ele>
        <time>2021-08-01T04:11:11.129Z</time>
      </trkpt>
      <trkpt lat="48.22616306" lon="14.86657945">
        <ele>233.2308</ele>
        <time>2021-08-01T04:11:27.546Z</time>
      </trkpt>
      <trkpt lat="48.22622056" lon="14.86704612">
        <ele>233.5385</ele>
        <time>2021-08-01T04:11:35.012Z</time>
      </trkpt>
      <trkpt lat="48.22674945" lon="14.86983667">
        <ele>234.7692</ele>
        <time>2021-08-01T04:12:20.65Z</time>
      </trkpt>
      <trkpt lat="48.226965" lon="14.87161889">
        <ele>235.4615</ele>
        <time>2021-08-01T04:12:49.146Z</time>
      </trkpt>
      <trkpt lat="48.22716389" lon="14.87237862">
        <ele>235.8462</ele>
        <time>2021-08-01T04:13:01.984Z</time>
      </trkpt>
      <trkpt lat="48.22749723" lon="14.87327">
        <ele>235.8462</ele>
        <time>2021-08-01T04:13:18.056Z</time>
      </trkpt>
      <trkpt lat="48.22852778" lon="14.87467889">
        <ele>235.8462</ele>
        <time>2021-08-01T04:13:50.923Z</time>
      </trkpt>
      <trkpt lat="48.22928001" lon="14.87553667">
        <ele>235.8462</ele>
        <time>2021-08-01T04:14:13.191Z</time>
      </trkpt>
      <trkpt lat="48.22987167" lon="14.87696695">
        <ele>235.9231</ele>
        <time>2021-08-01T04:14:39.657Z</time>
      </trkpt>
      <trkpt lat="48.23015056" lon="14.87806528">
        <ele>235.8462</ele>
        <time>2021-08-01T04:14:58.142Z</time>
      </trkpt>
      <trkpt lat="48.23024167" lon="14.87966389">
        <ele>235.3846</ele>
        <time>2021-08-01T04:15:23.384Z</time>
      </trkpt>
      <trkpt lat="48.23018806" lon="14.88056084">
        <ele>234</ele>
        <time>2021-08-01T04:15:37.552Z</time>
      </trkpt>
      <trkpt lat="48.23003" lon="14.88143945">
        <ele>231.8462</ele>
        <time>2021-08-01T04:15:51.867Z</time>
      </trkpt>
      <trkpt lat="48.22979278" lon="14.88199973">
        <ele>230.4615</ele>
        <time>2021-08-01T04:16:02.303Z</time>
      </trkpt>
      <trkpt lat="48.22923306" lon="14.88268278">
        <ele>230.4615</ele>
        <time>2021-08-01T04:16:19.309Z</time>
      </trkpt>
      <trkpt lat="48.2287025" lon="14.88310084">
        <ele>229.5385</ele>
        <time>2021-08-01T04:16:33.428Z</time>
      </trkpt>
      <trkpt lat="48.22801167" lon="14.88368084">
        <ele>228.9231</ele>
        <time>2021-08-01T04:16:52.08Z</time>
      </trkpt>
      <trkpt lat="48.22778889" lon="14.88401084">
        <ele>228.5385</ele>
        <time>2021-08-01T04:16:59.455Z</time>
      </trkpt>
      <trkpt lat="48.22763806" lon="14.88438528">
        <ele>228.5385</ele>
        <time>2021-08-01T04:17:06.326Z</time>
      </trkpt>
      <trkpt lat="48.22755667" lon="14.88508778">
        <ele>228.5385</ele>
        <time>2021-08-01T04:17:17.544Z</time>
      </trkpt>
      <trkpt lat="48.22744556" lon="14.8855525">
        <ele>228.5385</ele>
        <time>2021-08-01T04:17:25.31Z</time>
      </trkpt>
      <trkpt lat="48.22709223" lon="14.88662195">
        <ele>228.4615</ele>
        <time>2021-08-01T04:17:44.081Z</time>
      </trkpt>
      <trkpt lat="48.22705139" lon="14.88797195">
        <ele>228.3846</ele>
        <time>2021-08-01T04:18:05.343Z</time>
      </trkpt>
      <trkpt lat="48.22710917" lon="14.88888556">
        <ele>228.3077</ele>
        <time>2021-08-01T04:18:19.782Z</time>
      </trkpt>
      <trkpt lat="48.22714778" lon="14.89017306">
        <ele>228.1538</ele>
        <time>2021-08-01T04:18:40.059Z</time>
      </trkpt>
      <trkpt lat="48.22705945" lon="14.89121">
        <ele>228</ele>
        <time>2021-08-01T04:18:56.506Z</time>
      </trkpt>
      <trkpt lat="48.22690473" lon="14.89271139">
        <ele>227.9231</ele>
        <time>2021-08-01T04:19:20.407Z</time>
      </trkpt>
      <trkpt lat="48.22687306" lon="14.89343834">
        <ele>227.7692</ele>
        <time>2021-08-01T04:19:31.869Z</time>
      </trkpt>
      <trkpt lat="48.2268875" lon="14.89537889">
        <ele>229</ele>
        <time>2021-08-01T04:20:02.403Z</time>
      </trkpt>
      <trkpt lat="48.22706945" lon="14.89668751">
        <ele>229.5385</ele>
        <time>2021-08-01T04:20:23.433Z</time>
      </trkpt>
      <trkpt lat="48.22735306" lon="14.89788778">
        <ele>229.5385</ele>
        <time>2021-08-01T04:20:43.463Z</time>
      </trkpt>
      <trkpt lat="48.2278975" lon="14.89922473">
        <ele>229.5385</ele>
        <time>2021-08-01T04:21:08.097Z</time>
      </trkpt>
      <trkpt lat="48.22873667" lon="14.90059">
        <ele>229.5385</ele>
        <time>2021-08-01T04:21:37.283Z</time>
      </trkpt>
      <trkpt lat="48.22944417" lon="14.90140834">
        <ele>229.5385</ele>
        <time>2021-08-01T04:21:58.338Z</time>
      </trkpt>
      <trkpt lat="48.23017667" lon="14.90280834">
        <ele>229.6923</ele>
        <time>2021-08-01T04:22:26.314Z</time>
      </trkpt>
      <trkpt lat="48.23041056" lon="14.90372945">
        <ele>229.6923</ele>
        <time>2021-08-01T04:22:41.817Z</time>
      </trkpt>
      <trkpt lat="48.23056528" lon="14.90496195">
        <ele>230.3077</ele>
        <time>2021-08-01T04:23:01.547Z</time>
      </trkpt>
      <trkpt lat="48.23058056" lon="14.90547834">
        <ele>231.5385</ele>
        <time>2021-08-01T04:23:09.679Z</time>
      </trkpt>
      <trkpt lat="48.23037028" lon="14.90595306">
        <ele>232</ele>
        <time>2021-08-01T04:23:18.64Z</time>
      </trkpt>
      <trkpt lat="48.23028139" lon="14.90666834">
        <ele>232.3846</ele>
        <time>2021-08-01T04:23:30.086Z</time>
      </trkpt>
      <trkpt lat="48.23037945" lon="14.90795889">
        <ele>232.2308</ele>
        <time>2021-08-01T04:23:50.52Z</time>
      </trkpt>
      <trkpt lat="48.23056862" lon="14.90913917">
        <ele>230.6923</ele>
        <time>2021-08-01T04:24:09.616Z</time>
      </trkpt>
      <trkpt lat="48.23086528" lon="14.91090723">
        <ele>230.4615</ele>
        <time>2021-08-01T04:24:38.296Z</time>
      </trkpt>
      <trkpt lat="48.231305" lon="14.91223834">
        <ele>230.6154</ele>
        <time>2021-08-01T04:25:01.657Z</time>
      </trkpt>
      <trkpt lat="48.23172556" lon="14.91385334">
        <ele>231</ele>
        <time>2021-08-01T04:25:28.926Z</time>
      </trkpt>
      <trkpt lat="48.23189" lon="14.91496167">
        <ele>231.3846</ele>
        <time>2021-08-01T04:25:46.787Z</time>
      </trkpt>
      <trkpt lat="48.23188834" lon="14.91608889">
        <ele>231.7692</ele>
        <time>2021-08-01T04:26:04.521Z</time>
      </trkpt>
      <trkpt lat="48.2317525" lon="14.91725723">
        <ele>232.7692</ele>
        <time>2021-08-01T04:26:23.178Z</time>
      </trkpt>
      <trkpt lat="48.23138889" lon="14.91849167">
        <ele>232.7692</ele>
        <time>2021-08-01T04:26:44.402Z</time>
      </trkpt>
      <trkpt lat="48.23128028" lon="14.91905584">
        <ele>232.1538</ele>
        <time>2021-08-01T04:26:53.639Z</time>
      </trkpt>
      <trkpt lat="48.23127334" lon="14.91987723">
        <ele>230.9231</ele>
        <time>2021-08-01T04:27:06.562Z</time>
      </trkpt>
      <trkpt lat="48.23137139" lon="14.92173334">
        <ele>230.3846</ele>
        <time>2021-08-01T04:27:35.854Z</time>
      </trkpt>
      <trkpt lat="48.23134778" lon="14.92341889">
        <ele>229.8462</ele>
        <time>2021-08-01T04:28:02.377Z</time>
      </trkpt>
      <trkpt lat="48.23105362" lon="14.92846278">
        <ele>229.8462</ele>
        <time>2021-08-01T04:29:22.03Z</time>
      </trkpt>
      <trkpt lat="48.23086" lon="14.93267945">
        <ele>230</ele>
        <time>2021-08-01T04:30:28.524Z</time>
      </trkpt>
      <trkpt lat="48.23076167" lon="14.93397723">
        <ele>229.6154</ele>
        <time>2021-08-01T04:30:49.072Z</time>
      </trkpt>
      <trkpt lat="48.23056667" lon="14.93536251">
        <ele>229.4615</ele>
        <time>2021-08-01T04:31:11.344Z</time>
      </trkpt>
      <trkpt lat="48.23014806" lon="14.93669389">
        <ele>229.3846</ele>
        <time>2021-08-01T04:31:34.493Z</time>
      </trkpt>
      <trkpt lat="48.22977417" lon="14.93752306">
        <ele>229.0769</ele>
        <time>2021-08-01T04:31:50.231Z</time>
      </trkpt>
      <trkpt lat="48.22929639" lon="14.93861917">
        <ele>228.6923</ele>
        <time>2021-08-01T04:32:10.821Z</time>
      </trkpt>
      <trkpt lat="48.22827556" lon="14.94006806">
        <ele>227.6154</ele>
        <time>2021-08-01T04:32:43.949Z</time>
      </trkpt>
      <trkpt lat="48.22663501" lon="14.94192612">
        <ele>227.8462</ele>
        <time>2021-08-01T04:33:32.394Z</time>
      </trkpt>
      <trkpt lat="48.22478612" lon="14.94361695">
        <ele>228.0769</ele>
        <time>2021-08-01T04:34:23.415Z</time>
      </trkpt>
      <trkpt lat="48.22336834" lon="14.94482862">
        <ele>228.6923</ele>
        <time>2021-08-01T04:35:01.86Z</time>
      </trkpt>
      <trkpt lat="48.2216975" lon="14.94604028">
        <ele>228.9231</ele>
        <time>2021-08-01T04:35:45.579Z</time>
      </trkpt>
      <trkpt lat="48.22001445" lon="14.94729167">
        <ele>229.2308</ele>
        <time>2021-08-01T04:36:29.832Z</time>
      </trkpt>
      <trkpt lat="48.21963528" lon="14.94749417">
        <ele>229.3077</ele>
        <time>2021-08-01T04:36:39.31Z</time>
      </trkpt>
      <trkpt lat="48.21879778" lon="14.94818528">
        <ele>229.2308</ele>
        <time>2021-08-01T04:37:01.831Z</time>
      </trkpt>
      <trkpt lat="48.21786056" lon="14.94920139">
        <ele>229.7692</ele>
        <time>2021-08-01T04:37:29.084Z</time>
      </trkpt>
      <trkpt lat="48.21691612" lon="14.94985889">
        <ele>230.6154</ele>
        <time>2021-08-01T04:37:53.612Z</time>
      </trkpt>
      <trkpt lat="48.21611778" lon="14.95021778">
        <ele>231.3846</ele>
        <time>2021-08-01T04:38:13.238Z</time>
      </trkpt>
      <trkpt lat="48.21517834" lon="14.95080862">
        <ele>232.0769</ele>
        <time>2021-08-01T04:38:37.234Z</time>
      </trkpt>
      <trkpt lat="48.21444973" lon="14.95123862">
        <ele>232.7692</ele>
        <time>2021-08-01T04:38:55.677Z</time>
      </trkpt>
      <trkpt lat="48.21400584" lon="14.95151223">
        <ele>232.6923</ele>
        <time>2021-08-01T04:39:06.979Z</time>
      </trkpt>
      <trkpt lat="48.21373056" lon="14.95159556">
        <ele>232.4615</ele>
        <time>2021-08-01T04:39:13.592Z</time>
      </trkpt>
      <trkpt lat="48.21282084" lon="14.95185473">
        <ele>232.2308</ele>
        <time>2021-08-01T04:39:35.397Z</time>
      </trkpt>
      <trkpt lat="48.21244917" lon="14.95212612">
        <ele>231.6154</ele>
        <time>2021-08-01T04:39:45.133Z</time>
      </trkpt>
      <trkpt lat="48.21167084" lon="14.95284862">
        <ele>231.4615</ele>
        <time>2021-08-01T04:40:06.701Z</time>
      </trkpt>
      <trkpt lat="48.21124195" lon="14.95323195">
        <ele>231.1538</ele>
        <time>2021-08-01T04:40:18.46Z</time>
      </trkpt>
      <trkpt lat="48.21004195" lon="14.95381834">
        <ele>231.0769</ele>
        <time>2021-08-01T04:40:48.185Z</time>
      </trkpt>
      <trkpt lat="48.20751306" lon="14.95475695">
        <ele>231</ele>
        <time>2021-08-01T04:41:49.538Z</time>
      </trkpt>
      <trkpt lat="48.20630584" lon="14.95549834">
        <ele>230.4615</ele>
        <time>2021-08-01T04:42:20.266Z</time>
      </trkpt>
      <trkpt lat="48.20556723" lon="14.95593028">
        <ele>229.6923</ele>
        <time>2021-08-01T04:42:38.94Z</time>
      </trkpt>
      <trkpt lat="48.20471695" lon="14.95655139">
        <ele>228.6154</ele>
        <time>2021-08-01T04:43:01.221Z</time>
      </trkpt>
      <trkpt lat="48.20391889" lon="14.95753112">
        <ele>228</ele>
        <time>2021-08-01T04:43:25.531Z</time>
      </trkpt>
      <trkpt lat="48.20299695" lon="14.95876889">
        <ele>227.3077</ele>
        <time>2021-08-01T04:43:54.701Z</time>
      </trkpt>
      <trkpt lat="48.20226306" lon="14.95957056">
        <ele>227.3077</ele>
        <time>2021-08-01T04:44:16.099Z</time>
      </trkpt>
      <trkpt lat="48.20162862" lon="14.96029417">
        <ele>227.6923</ele>
        <time>2021-08-01T04:44:34.885Z</time>
      </trkpt>
      <trkpt lat="48.20131389" lon="14.96079084">
        <ele>227.9231</ele>
        <time>2021-08-01T04:44:45.658Z</time>
      </trkpt>
      <trkpt lat="48.20099445" lon="14.96163028">
        <ele>227.9231</ele>
        <time>2021-08-01T04:45:00.863Z</time>
      </trkpt>
      <trkpt lat="48.20077639" lon="14.96247473">
        <ele>227.8462</ele>
        <time>2021-08-01T04:45:15.113Z</time>
      </trkpt>
      <trkpt lat="48.20070973" lon="14.96326028">
        <ele>227.8462</ele>
        <time>2021-08-01T04:45:27.578Z</time>
      </trkpt>
      <trkpt lat="48.20062306" lon="14.96407473">
        <ele>227.9231</ele>
        <time>2021-08-01T04:45:40.56Z</time>
      </trkpt>
      <trkpt lat="48.20051445" lon="14.96506639">
        <ele>228.0769</ele>
        <time>2021-08-01T04:45:56.378Z</time>
      </trkpt>
      <trkpt lat="48.20036334" lon="14.96601584">
        <ele>228.1538</ele>
        <time>2021-08-01T04:46:11.742Z</time>
      </trkpt>
      <trkpt lat="48.20012056" lon="14.96702584">
        <ele>228.3077</ele>
        <time>2021-08-01T04:46:28.638Z</time>
      </trkpt>
      <trkpt lat="48.19955306" lon="14.96844112">
        <ele>228.3077</ele>
        <time>2021-08-01T04:46:54.617Z</time>
      </trkpt>
      <trkpt lat="48.19918667" lon="14.96935973">
        <ele>228.1538</ele>
        <time>2021-08-01T04:47:11.456Z</time>
      </trkpt>
      <trkpt lat="48.19857195" lon="14.97064584">
        <ele>228.1538</ele>
        <time>2021-08-01T04:47:36.344Z</time>
      </trkpt>
      <trkpt lat="48.19762001" lon="14.97214695">
        <ele>228.1538</ele>
        <time>2021-08-01T04:48:08.915Z</time>
      </trkpt>
      <trkpt lat="48.19684667" lon="14.97379167">
        <ele>228</ele>
        <time>2021-08-01T04:48:40.569Z</time>
      </trkpt>
      <trkpt lat="48.19631389" lon="14.9752175">
        <ele>227.7692</ele>
        <time>2021-08-01T04:49:06.284Z</time>
      </trkpt>
      <trkpt lat="48.19583084" lon="14.97696556">
        <ele>227.8462</ele>
        <time>2021-08-01T04:49:36.062Z</time>
      </trkpt>
      <trkpt lat="48.19558056" lon="14.97822528">
        <ele>227.8462</ele>
        <time>2021-08-01T04:49:56.751Z</time>
      </trkpt>
      <trkpt lat="48.19548167" lon="14.97904806">
        <ele>227.8462</ele>
        <time>2021-08-01T04:50:09.912Z</time>
      </trkpt>
      <trkpt lat="48.19535028" lon="14.98008334">
        <ele>227.9231</ele>
        <time>2021-08-01T04:50:26.502Z</time>
      </trkpt>
      <trkpt lat="48.19514723" lon="14.98129612">
        <ele>228.0769</ele>
        <time>2021-08-01T04:50:46.185Z</time>
      </trkpt>
      <trkpt lat="48.19484028" lon="14.98377473">
        <ele>228.3846</ele>
        <time>2021-08-01T04:51:25.87Z</time>
      </trkpt>
      <trkpt lat="48.19464223" lon="14.98634334">
        <ele>228.6154</ele>
        <time>2021-08-01T04:52:06.577Z</time>
      </trkpt>
      <trkpt lat="48.19450834" lon="14.98759223">
        <ele>228.9231</ele>
        <time>2021-08-01T04:52:26.49Z</time>
      </trkpt>
      <trkpt lat="48.194325" lon="14.98902751">
        <ele>229</ele>
        <time>2021-08-01T04:52:49.495Z</time>
      </trkpt>
      <trkpt lat="48.19393612" lon="14.99206278">
        <ele>229.2308</ele>
        <time>2021-08-01T04:53:38.151Z</time>
      </trkpt>
      <trkpt lat="48.19385917" lon="14.99360001">
        <ele>229.3846</ele>
        <time>2021-08-01T04:54:02.42Z</time>
      </trkpt>
      <trkpt lat="48.19382723" lon="14.99555806">
        <ele>229.0769</ele>
        <time>2021-08-01T04:54:33.256Z</time>
      </trkpt>
      <trkpt lat="48.19379751" lon="14.99748639">
        <ele>229</ele>
        <time>2021-08-01T04:55:03.623Z</time>
      </trkpt>
      <trkpt lat="48.19375501" lon="14.99947362">
        <ele>229</ele>
        <time>2021-08-01T04:55:34.925Z</time>
      </trkpt>
      <trkpt lat="48.19364362" lon="15.00110834">
        <ele>229</ele>
        <time>2021-08-01T04:56:00.795Z</time>
      </trkpt>
      <trkpt lat="48.19341056" lon="15.00260084">
        <ele>229</ele>
        <time>2021-08-01T04:56:24.925Z</time>
      </trkpt>
      <trkpt lat="48.19321445" lon="15.00368445">
        <ele>228.6154</ele>
        <time>2021-08-01T04:56:42.599Z</time>
      </trkpt>
      <trkpt lat="48.19280778" lon="15.00548889">
        <ele>228.2308</ele>
        <time>2021-08-01T04:57:12.578Z</time>
      </trkpt>
      <trkpt lat="48.19250778" lon="15.00695556">
        <ele>228.2308</ele>
        <time>2021-08-01T04:57:36.726Z</time>
      </trkpt>
      <trkpt lat="48.19218278" lon="15.00892528">
        <ele>228.0769</ele>
        <time>2021-08-01T04:58:08.668Z</time>
      </trkpt>
      <trkpt lat="48.19182834" lon="15.01058056">
        <ele>228</ele>
        <time>2021-08-01T04:58:36.033Z</time>
      </trkpt>
      <trkpt lat="48.19158251" lon="15.01200945">
        <ele>228</ele>
        <time>2021-08-01T04:58:59.263Z</time>
      </trkpt>
      <trkpt lat="48.19140362" lon="15.01452389">
        <ele>227.6154</ele>
        <time>2021-08-01T04:59:39.075Z</time>
      </trkpt>
      <trkpt lat="48.19126667" lon="15.01859056">
        <ele>227.6923</ele>
        <time>2021-08-01T05:00:43.184Z</time>
      </trkpt>
      <trkpt lat="48.19137806" lon="15.02059001">
        <ele>227.7692</ele>
        <time>2021-08-01T05:01:14.773Z</time>
      </trkpt>
      <trkpt lat="48.191675" lon="15.02264167">
        <ele>228.3077</ele>
        <time>2021-08-01T05:01:47.823Z</time>
      </trkpt>
      <trkpt lat="48.19226" lon="15.02499278">
        <ele>229.8462</ele>
        <time>2021-08-01T05:02:27.319Z</time>
      </trkpt>
      <trkpt lat="48.19252473" lon="15.02616001">
        <ele>230.4615</ele>
        <time>2021-08-01T05:02:46.724Z</time>
      </trkpt>
      <trkpt lat="48.19293084" lon="15.02861001">
        <ele>230.6154</ele>
        <time>2021-08-01T05:03:26.465Z</time>
      </trkpt>
      <trkpt lat="48.19331695" lon="15.03189362">
        <ele>230.7692</ele>
        <time>2021-08-01T05:04:18.955Z</time>
      </trkpt>
      <trkpt lat="48.19372528" lon="15.03495389">
        <ele>230.5385</ele>
        <time>2021-08-01T05:05:08.085Z</time>
      </trkpt>
      <trkpt lat="48.19404445" lon="15.03638195">
        <ele>229.6923</ele>
        <time>2021-08-01T05:05:31.791Z</time>
      </trkpt>
      <trkpt lat="48.19444334" lon="15.03783889">
        <ele>229.0769</ele>
        <time>2021-08-01T05:05:56.577Z</time>
      </trkpt>
      <trkpt lat="48.19520862" lon="15.04040112">
        <ele>228.7692</ele>
        <time>2021-08-01T05:06:40.757Z</time>
      </trkpt>
      <trkpt lat="48.19542139" lon="15.04140751">
        <ele>228.6923</ele>
        <time>2021-08-01T05:06:57.374Z</time>
      </trkpt>
      <trkpt lat="48.19551501" lon="15.04272528">
        <ele>228.7692</ele>
        <time>2021-08-01T05:07:18.237Z</time>
      </trkpt>
      <trkpt lat="48.19545973" lon="15.04467167">
        <ele>228.3846</ele>
        <time>2021-08-01T05:07:48.907Z</time>
      </trkpt>
      <trkpt lat="48.19505612" lon="15.04941695">
        <ele>228.4615</ele>
        <time>2021-08-01T05:09:04.215Z</time>
      </trkpt>
      <trkpt lat="48.19486945" lon="15.05123167">
        <ele>228.0769</ele>
        <time>2021-08-01T05:09:33.121Z</time>
      </trkpt>
      <trkpt lat="48.19468084" lon="15.05177306">
        <ele>226.5385</ele>
        <time>2021-08-01T05:09:42.732Z</time>
      </trkpt>
      <trkpt lat="48.19441778" lon="15.05224695">
        <ele>226.2308</ele>
        <time>2021-08-01T05:09:52.429Z</time>
      </trkpt>
      <trkpt lat="48.19392667" lon="15.05278612">
        <ele>226.3077</ele>
        <time>2021-08-01T05:10:06.774Z</time>
      </trkpt>
      <trkpt lat="48.19369612" lon="15.05307584">
        <ele>226.5385</ele>
        <time>2021-08-01T05:10:13.86Z</time>
      </trkpt>
      <trkpt lat="48.19344528" lon="15.05367167">
        <ele>227.0769</ele>
        <time>2021-08-01T05:10:24.945Z</time>
      </trkpt>
      <trkpt lat="48.19312751" lon="15.05450195">
        <ele>227.9231</ele>
        <time>2021-08-01T05:10:40.007Z</time>
      </trkpt>
      <trkpt lat="48.19217917" lon="15.05693528">
        <ele>228.7692</ele>
        <time>2021-08-01T05:11:24.35Z</time>
      </trkpt>
      <trkpt lat="48.19185112" lon="15.0581225">
        <ele>229.2308</ele>
        <time>2021-08-01T05:11:44.575Z</time>
      </trkpt>
      <trkpt lat="48.19157528" lon="15.05925028">
        <ele>229.6923</ele>
        <time>2021-08-01T05:12:03.482Z</time>
      </trkpt>
      <trkpt lat="48.19137417" lon="15.05979056">
        <ele>230.3846</ele>
        <time>2021-08-01T05:12:13.218Z</time>
      </trkpt>
      <trkpt lat="48.19103445" lon="15.06032917">
        <ele>231.2308</ele>
        <time>2021-08-01T05:12:24.876Z</time>
      </trkpt>
      <trkpt lat="48.190585" lon="15.06076751">
        <ele>231.6923</ele>
        <time>2021-08-01T05:12:37.511Z</time>
      </trkpt>
      <trkpt lat="48.19020806" lon="15.06117417">
        <ele>232.4615</ele>
        <time>2021-08-01T05:12:48.455Z</time>
      </trkpt>
      <trkpt lat="48.19004945" lon="15.06151195">
        <ele>233.1538</ele>
        <time>2021-08-01T05:12:54.947Z</time>
      </trkpt>
      <trkpt lat="48.18980334" lon="15.06213667">
        <ele>233.6154</ele>
        <time>2021-08-01T05:13:06.363Z</time>
      </trkpt>
      <trkpt lat="48.18965167" lon="15.06278806">
        <ele>234.5385</ele>
        <time>2021-08-01T05:13:17.223Z</time>
      </trkpt>
      <trkpt lat="48.18942084" lon="15.06354028">
        <ele>235.7692</ele>
        <time>2021-08-01T05:13:30.254Z</time>
      </trkpt>
      <trkpt lat="48.18904584" lon="15.06431639">
        <ele>236</ele>
        <time>2021-08-01T05:13:45.33Z</time>
      </trkpt>
      <trkpt lat="48.18849223" lon="15.06551945">
        <ele>236.2308</ele>
        <time>2021-08-01T05:14:08.325Z</time>
      </trkpt>
      <trkpt lat="48.18803973" lon="15.06718889">
        <ele>236.5385</ele>
        <time>2021-08-01T05:14:36.688Z</time>
      </trkpt>
      <trkpt lat="48.18816917" lon="15.06678528">
        <ele>236.4615</ele>
        <time>2021-08-01T05:14:43.736Z</time>
      </trkpt>
      <trkpt lat="48.18793862" lon="15.06676306">
        <ele>236.6154</ele>
        <time>2021-08-01T05:14:49.176Z</time>
      </trkpt>
      <trkpt lat="48.18772501" lon="15.06709445">
        <ele>235.4615</ele>
        <time>2021-08-01T05:14:56.418Z</time>
      </trkpt>
      <trkpt lat="48.18785389" lon="15.067585">
        <ele>234.3846</ele>
        <time>2021-08-01T05:15:04.717Z</time>
      </trkpt>
      <trkpt lat="48.18751389" lon="15.068005">
        <ele>233.2308</ele>
        <time>2021-08-01T05:15:15.101Z</time>
      </trkpt>
      <trkpt lat="48.18719112" lon="15.06843556">
        <ele>231.8462</ele>
        <time>2021-08-01T05:15:25.286Z</time>
      </trkpt>
      <trkpt lat="48.18679639" lon="15.06946445">
        <ele>230.3846</ele>
        <time>2021-08-01T05:15:43.964Z</time>
      </trkpt>
      <trkpt lat="48.18656278" lon="15.07020445">
        <ele>228.9231</ele>
        <time>2021-08-01T05:15:56.849Z</time>
      </trkpt>
      <trkpt lat="48.18698167" lon="15.07060834">
        <ele>227.0769</ele>
        <time>2021-08-01T05:16:08.585Z</time>
      </trkpt>
      <trkpt lat="48.18687973" lon="15.07082695">
        <ele>225</ele>
        <time>2021-08-01T05:16:12.777Z</time>
      </trkpt>
      <trkpt lat="48.18650223" lon="15.07198917">
        <ele>223.8462</ele>
        <time>2021-08-01T05:16:33.122Z</time>
      </trkpt>
      <trkpt lat="48.18622139" lon="15.07304056">
        <ele>222.5385</ele>
        <time>2021-08-01T05:16:50.949Z</time>
      </trkpt>
      <trkpt lat="48.18576889" lon="15.07465584">
        <ele>220.9231</ele>
        <time>2021-08-01T05:17:18.525Z</time>
      </trkpt>
      <trkpt lat="48.18539917" lon="15.07548917">
        <ele>219.8462</ele>
        <time>2021-08-01T05:17:34.272Z</time>
      </trkpt>
      <trkpt lat="48.18490501" lon="15.07616334">
        <ele>218.4615</ele>
        <time>2021-08-01T05:17:50.023Z</time>
      </trkpt>
      <trkpt lat="48.18423973" lon="15.07740667">
        <ele>218.6923</ele>
        <time>2021-08-01T05:18:15.097Z</time>
      </trkpt>
      <trkpt lat="48.18332389" lon="15.07880112">
        <ele>218.5385</ele>
        <time>2021-08-01T05:18:45.874Z</time>
      </trkpt>
      <trkpt lat="48.18215723" lon="15.08056528">
        <ele>218.8462</ele>
        <time>2021-08-01T05:19:24.943Z</time>
      </trkpt>
      <trkpt lat="48.18147473" lon="15.08140778">
        <ele>219</ele>
        <time>2021-08-01T05:19:45.783Z</time>
      </trkpt>
      <trkpt lat="48.18114195" lon="15.08189889">
        <ele>219.3846</ele>
        <time>2021-08-01T05:19:56.793Z</time>
      </trkpt>
      <trkpt lat="48.18070001" lon="15.08252001">
        <ele>219.7692</ele>
        <time>2021-08-01T05:20:11.075Z</time>
      </trkpt>
      <trkpt lat="48.18046362" lon="15.08233556">
        <ele>220.3077</ele>
        <time>2021-08-01T05:20:17.352Z</time>
      </trkpt>
      <trkpt lat="48.18007834" lon="15.08278778">
        <ele>220.9231</ele>
        <time>2021-08-01T05:20:28.885Z</time>
      </trkpt>
      <trkpt lat="48.17913278" lon="15.08377417">
        <ele>221.2308</ele>
        <time>2021-08-01T05:20:56.033Z</time>
      </trkpt>
      <trkpt lat="48.17894695" lon="15.08394334">
        <ele>221.6154</ele>
        <time>2021-08-01T05:21:01.154Z</time>
      </trkpt>
      <trkpt lat="48.17850556" lon="15.08452667">
        <ele>222.0769</ele>
        <time>2021-08-01T05:21:15.025Z</time>
      </trkpt>
      <trkpt lat="48.17828639" lon="15.08488584">
        <ele>222.2308</ele>
        <time>2021-08-01T05:21:22.676Z</time>
      </trkpt>
      <trkpt lat="48.17786834" lon="15.08506612">
        <ele>222.3077</ele>
        <time>2021-08-01T05:21:32.92Z</time>
      </trkpt>
      <trkpt lat="48.17774806" lon="15.08504834">
        <ele>221.9231</ele>
        <time>2021-08-01T05:21:35.766Z</time>
      </trkpt>
      <trkpt lat="48.17754528" lon="15.08531278">
        <ele>221.8462</ele>
        <time>2021-08-01T05:21:42.098Z</time>
      </trkpt>
      <trkpt lat="48.17731639" lon="15.08530889">
        <ele>221.6154</ele>
        <time>2021-08-01T05:21:47.488Z</time>
      </trkpt>
      <trkpt lat="48.17727139" lon="15.08546834">
        <ele>221.4615</ele>
        <time>2021-08-01T05:21:50.21Z</time>
      </trkpt>
      <trkpt lat="48.17705667" lon="15.08588862">
        <ele>221.3077</ele>
        <time>2021-08-01T05:21:58.539Z</time>
      </trkpt>
      <trkpt lat="48.17667945" lon="15.08629417">
        <ele>221.0769</ele>
        <time>2021-08-01T05:22:09.479Z</time>
      </trkpt>
      <trkpt lat="48.17645251" lon="15.08651695">
        <ele>220.7692</ele>
        <time>2021-08-01T05:22:15.869Z</time>
      </trkpt>
      <trkpt lat="48.17592056" lon="15.08682445">
        <ele>220.3846</ele>
        <time>2021-08-01T05:22:29.296Z</time>
      </trkpt>
      <trkpt lat="48.17568584" lon="15.08684084">
        <ele>220.2308</ele>
        <time>2021-08-01T05:22:34.829Z</time>
      </trkpt>
      <trkpt lat="48.17560389" lon="15.08679639">
        <ele>219.7692</ele>
        <time>2021-08-01T05:22:36.881Z</time>
      </trkpt>
      <trkpt lat="48.17555501" lon="15.08670528">
        <ele>219.3846</ele>
        <time>2021-08-01T05:22:38.719Z</time>
      </trkpt>
      <trkpt lat="48.17539834" lon="15.0865">
        <ele>219.3077</ele>
        <time>2021-08-01T05:22:43.621Z</time>
      </trkpt>
      <trkpt lat="48.17498445" lon="15.08631417">
        <ele>219.3846</ele>
        <time>2021-08-01T05:22:53.796Z</time>
      </trkpt>
      <trkpt lat="48.17480612" lon="15.08624723">
        <ele>219.3846</ele>
        <time>2021-08-01T05:22:58.125Z</time>
      </trkpt>
      <trkpt lat="48.17457806" lon="15.08615056">
        <ele>219.3077</ele>
        <time>2021-08-01T05:23:03.706Z</time>
      </trkpt>
      <trkpt lat="48.17405751" lon="15.08578695">
        <ele>219.1538</ele>
        <time>2021-08-01T05:23:17.232Z</time>
      </trkpt>
      <trkpt lat="48.17374528" lon="15.08547528">
        <ele>219</ele>
        <time>2021-08-01T05:23:26.068Z</time>
      </trkpt>
      <trkpt lat="48.17340028" lon="15.08573528">
        <ele>218.7692</ele>
        <time>2021-08-01T05:23:35.163Z</time>
      </trkpt>
      <trkpt lat="48.17290445" lon="15.08559251">
        <ele>218.6154</ele>
        <time>2021-08-01T05:23:47.052Z</time>
      </trkpt>
      <trkpt lat="48.17243834" lon="15.08559834">
        <ele>218.2308</ele>
        <time>2021-08-01T05:23:58.028Z</time>
      </trkpt>
      <trkpt lat="48.17106973" lon="15.08550278">
        <ele>218</ele>
        <time>2021-08-01T05:24:30.29Z</time>
      </trkpt>
      <trkpt lat="48.17099278" lon="15.08562528">
        <ele>217.9231</ele>
        <time>2021-08-01T05:24:32.935Z</time>
      </trkpt>
      <trkpt lat="48.17082167" lon="15.08559445">
        <ele>218.1538</ele>
        <time>2021-08-01T05:24:36.993Z</time>
      </trkpt>
      <trkpt lat="48.17070667" lon="15.08549695">
        <ele>218.3846</ele>
        <time>2021-08-01T05:24:40.105Z</time>
      </trkpt>
      <trkpt lat="48.16889695" lon="15.08662639">
        <ele>218.6154</ele>
        <time>2021-08-01T05:25:26.283Z</time>
      </trkpt>
      <trkpt lat="48.16737195" lon="15.08766362">
        <ele>218.7692</ele>
        <time>2021-08-01T05:26:05.734Z</time>
      </trkpt>
      <trkpt lat="48.16706639" lon="15.08795139">
        <ele>219.1538</ele>
        <time>2021-08-01T05:26:14.234Z</time>
      </trkpt>
      <trkpt lat="48.16676723" lon="15.08838001">
        <ele>219.2308</ele>
        <time>2021-08-01T05:26:23.991Z</time>
      </trkpt>
      <trkpt lat="48.16640139" lon="15.08938917">
        <ele>219.3077</ele>
        <time>2021-08-01T05:26:42.071Z</time>
      </trkpt>
      <trkpt lat="48.16615973" lon="15.09003473">
        <ele>219.4615</ele>
        <time>2021-08-01T05:26:53.724Z</time>
      </trkpt>
      <trkpt lat="48.16593056" lon="15.0905575">
        <ele>219.4615</ele>
        <time>2021-08-01T05:27:03.569Z</time>
      </trkpt>
      <trkpt lat="48.16509862" lon="15.09226473">
        <ele>219.4615</ele>
        <time>2021-08-01T05:27:36.84Z</time>
      </trkpt>
      <trkpt lat="48.16446306" lon="15.09339167">
        <ele>219.8462</ele>
        <time>2021-08-01T05:28:00.059Z</time>
      </trkpt>
      <trkpt lat="48.16408584" lon="15.09406389">
        <ele>220</ele>
        <time>2021-08-01T05:28:13.88Z</time>
      </trkpt>
      <trkpt lat="48.16383528" lon="15.09460834">
        <ele>220</ele>
        <time>2021-08-01T05:28:24.29Z</time>
      </trkpt>
      <trkpt lat="48.16573445" lon="15.09695251">
        <ele>220</ele>
        <time>2021-08-01T05:29:22.285Z</time>
      </trkpt>
      <trkpt lat="48.16658917" lon="15.09771917">
        <ele>220</ele>
        <time>2021-08-01T05:29:45.756Z</time>
      </trkpt>
      <trkpt lat="48.16686806" lon="15.09815389">
        <ele>219.9231</ele>
        <time>2021-08-01T05:29:55.244Z</time>
      </trkpt>
      <trkpt lat="48.16742139" lon="15.09901084">
        <ele>219.9231</ele>
        <time>2021-08-01T05:30:14.005Z</time>
      </trkpt>
      <trkpt lat="48.16827362" lon="15.10014056">
        <ele>220</ele>
        <time>2021-08-01T05:30:40.826Z</time>
      </trkpt>
      <trkpt lat="48.16846306" lon="15.10169251">
        <ele>219.9231</ele>
        <time>2021-08-01T05:31:05.675Z</time>
      </trkpt>
      <trkpt lat="48.16897973" lon="15.10306862">
        <ele>220.0769</ele>
        <time>2021-08-01T05:31:30.531Z</time>
      </trkpt>
      <trkpt lat="48.16908639" lon="15.1046725">
        <ele>220.0769</ele>
        <time>2021-08-01T05:31:55.919Z</time>
      </trkpt>
      <trkpt lat="48.16928334" lon="15.10447556">
        <ele>220.1538</ele>
        <time>2021-08-01T05:32:01.496Z</time>
      </trkpt>
      <trkpt lat="48.16928195" lon="15.10632223">
        <ele>220.3077</ele>
        <time>2021-08-01T05:32:30.583Z</time>
      </trkpt>
      <trkpt lat="48.16931778" lon="15.10764723">
        <ele>220.7692</ele>
        <time>2021-08-01T05:32:51.47Z</time>
      </trkpt>
      <trkpt lat="48.16951723" lon="15.10912112">
        <ele>221</ele>
        <time>2021-08-01T05:33:15.156Z</time>
      </trkpt>
      <trkpt lat="48.169605" lon="15.11064695">
        <ele>221.2308</ele>
        <time>2021-08-01T05:33:39.278Z</time>
      </trkpt>
      <trkpt lat="48.17000501" lon="15.11238667">
        <ele>221.3846</ele>
        <time>2021-08-01T05:34:08.254Z</time>
      </trkpt>
      <trkpt lat="48.17046223" lon="15.11383528">
        <ele>221.3846</ele>
        <time>2021-08-01T05:34:33.483Z</time>
      </trkpt>
      <trkpt lat="48.17078667" lon="15.11445584">
        <ele>221.3846</ele>
        <time>2021-08-01T05:34:45.889Z</time>
      </trkpt>
      <trkpt lat="48.17263889" lon="15.11689">
        <ele>221.3077</ele>
        <time>2021-08-01T05:35:43.959Z</time>
      </trkpt>
      <trkpt lat="48.17378556" lon="15.11829639">
        <ele>221</ele>
        <time>2021-08-01T05:36:18.883Z</time>
      </trkpt>
      <trkpt lat="48.17495723" lon="15.11946917">
        <ele>221.0769</ele>
        <time>2021-08-01T05:36:52.084Z</time>
      </trkpt>
      <trkpt lat="48.17680862" lon="15.12040945">
        <ele>221</ele>
        <time>2021-08-01T05:37:38.125Z</time>
      </trkpt>
      <trkpt lat="48.17806306" lon="15.12081639">
        <ele>221.0769</ele>
        <time>2021-08-01T05:38:08.35Z</time>
      </trkpt>
      <trkpt lat="48.17874195" lon="15.12090889">
        <ele>221.1538</ele>
        <time>2021-08-01T05:38:24.402Z</time>
      </trkpt>
      <trkpt lat="48.17942445" lon="15.12108445">
        <ele>221.2308</ele>
        <time>2021-08-01T05:38:40.708Z</time>
      </trkpt>
      <trkpt lat="48.18019001" lon="15.12116">
        <ele>220.8462</ele>
        <time>2021-08-01T05:38:58.774Z</time>
      </trkpt>
      <trkpt lat="48.18049945" lon="15.12121695">
        <ele>220.7692</ele>
        <time>2021-08-01T05:39:06.115Z</time>
      </trkpt>
      <trkpt lat="48.18094973" lon="15.12117473">
        <ele>220.8462</ele>
        <time>2021-08-01T05:39:16.738Z</time>
      </trkpt>
      <trkpt lat="48.18164695" lon="15.12095917">
        <ele>221</ele>
        <time>2021-08-01T05:39:33.502Z</time>
      </trkpt>
      <trkpt lat="48.18219917" lon="15.12074334">
        <ele>221.2308</ele>
        <time>2021-08-01T05:39:46.941Z</time>
      </trkpt>
      <trkpt lat="48.18267889" lon="15.12044028">
        <ele>221.6923</ele>
        <time>2021-08-01T05:39:59.201Z</time>
      </trkpt>
      <trkpt lat="48.1829675" lon="15.12044112">
        <ele>222.3846</ele>
        <time>2021-08-01T05:40:05.997Z</time>
      </trkpt>
      <trkpt lat="48.18295778" lon="15.12049834">
        <ele>223</ele>
        <time>2021-08-01T05:40:06.925Z</time>
      </trkpt>
      <trkpt lat="48.18390612" lon="15.11960695">
        <ele>223.7692</ele>
        <time>2021-08-01T05:40:33.301Z</time>
      </trkpt>
      <trkpt lat="48.18474" lon="15.11886778">
        <ele>224.1538</ele>
        <time>2021-08-01T05:40:56.127Z</time>
      </trkpt>
      <trkpt lat="48.18628862" lon="15.11761195">
        <ele>224.2308</ele>
        <time>2021-08-01T05:41:37.609Z</time>
      </trkpt>
      <trkpt lat="48.18707501" lon="15.11700778">
        <ele>224.3077</ele>
        <time>2021-08-01T05:41:58.427Z</time>
      </trkpt>
      <trkpt lat="48.18735056" lon="15.11682362">
        <ele>224.5385</ele>
        <time>2021-08-01T05:42:05.532Z</time>
      </trkpt>
      <trkpt lat="48.18735112" lon="15.11649028">
        <ele>224.7692</ele>
        <time>2021-08-01T05:42:10.773Z</time>
      </trkpt>
      <trkpt lat="48.18749028" lon="15.11643362">
        <ele>224.8462</ele>
        <time>2021-08-01T05:42:14.169Z</time>
      </trkpt>
      <trkpt lat="48.18837667" lon="15.11576251">
        <ele>224.7692</ele>
        <time>2021-08-01T05:42:37.563Z</time>
      </trkpt>
      <trkpt lat="48.18949584" lon="15.11487445">
        <ele>224.5385</ele>
        <time>2021-08-01T05:43:07.396Z</time>
      </trkpt>
      <trkpt lat="48.1902225" lon="15.11444167">
        <ele>224.2308</ele>
        <time>2021-08-01T05:43:25.814Z</time>
      </trkpt>
      <trkpt lat="48.19074556" lon="15.11426917">
        <ele>223.8462</ele>
        <time>2021-08-01T05:43:38.426Z</time>
      </trkpt>
      <trkpt lat="48.19093445" lon="15.11429112">
        <ele>223.1538</ele>
        <time>2021-08-01T05:43:42.887Z</time>
      </trkpt>
      <trkpt lat="48.19113806" lon="15.11403112">
        <ele>222.5385</ele>
        <time>2021-08-01T05:43:49.187Z</time>
      </trkpt>
      <trkpt lat="48.19139945" lon="15.11400973">
        <ele>221.6923</ele>
        <time>2021-08-01T05:43:55.351Z</time>
      </trkpt>
      <trkpt lat="48.19163195" lon="15.11392362">
        <ele>221.1538</ele>
        <time>2021-08-01T05:44:00.991Z</time>
      </trkpt>
      <trkpt lat="48.19203862" lon="15.11372889">
        <ele>220.9231</ele>
        <time>2021-08-01T05:44:11.044Z</time>
      </trkpt>
      <trkpt lat="48.19282306" lon="15.11355695">
        <ele>220.6154</ele>
        <time>2021-08-01T05:44:29.712Z</time>
      </trkpt>
      <trkpt lat="48.19328834" lon="15.11318862">
        <ele>220.0769</ele>
        <time>2021-08-01T05:44:42.104Z</time>
      </trkpt>
      <trkpt lat="48.19391306" lon="15.11288584">
        <ele>219.4615</ele>
        <time>2021-08-01T05:44:57.565Z</time>
      </trkpt>
      <trkpt lat="48.19507528" lon="15.11251917">
        <ele>219.1538</ele>
        <time>2021-08-01T05:45:25.532Z</time>
      </trkpt>
      <trkpt lat="48.19600473" lon="15.11249945">
        <ele>218.9231</ele>
        <time>2021-08-01T05:45:47.42Z</time>
      </trkpt>
      <trkpt lat="48.19696334" lon="15.11254501">
        <ele>218.8462</ele>
        <time>2021-08-01T05:46:10.004Z</time>
      </trkpt>
      <trkpt lat="48.19787806" lon="15.11282945">
        <ele>218.6923</ele>
        <time>2021-08-01T05:46:32.002Z</time>
      </trkpt>
      <trkpt lat="48.19857667" lon="15.11327139">
        <ele>218.6923</ele>
        <time>2021-08-01T05:46:49.863Z</time>
      </trkpt>
      <trkpt lat="48.19874889" lon="15.11326584">
        <ele>219.0769</ele>
        <time>2021-08-01T05:46:53.919Z</time>
      </trkpt>
      <trkpt lat="48.19940223" lon="15.11370167">
        <ele>219.3077</ele>
        <time>2021-08-01T05:47:10.764Z</time>
      </trkpt>
      <trkpt lat="48.20009862" lon="15.11429001">
        <ele>219.6923</ele>
        <time>2021-08-01T05:47:29.597Z</time>
      </trkpt>
      <trkpt lat="48.20067917" lon="15.11479084">
        <ele>220.0769</ele>
        <time>2021-08-01T05:47:45.378Z</time>
      </trkpt>
      <trkpt lat="48.20086778" lon="15.11498667">
        <ele>220.2308</ele>
        <time>2021-08-01T05:47:50.782Z</time>
      </trkpt>
      <trkpt lat="48.200545" lon="15.11625139">
        <ele>220.5385</ele>
        <time>2021-08-01T05:48:12.092Z</time>
      </trkpt>
      <trkpt lat="48.20109501" lon="15.11695473">
        <ele>220.7692</ele>
        <time>2021-08-01T05:48:29.131Z</time>
      </trkpt>
      <trkpt lat="48.20172139" lon="15.11778251">
        <ele>220.9231</ele>
        <time>2021-08-01T05:48:48.812Z</time>
      </trkpt>
      <trkpt lat="48.20195945" lon="15.11788667">
        <ele>220.9231</ele>
        <time>2021-08-01T05:48:54.652Z</time>
      </trkpt>
      <trkpt lat="48.20268028" lon="15.11853">
        <ele>220.9231</ele>
        <time>2021-08-01T05:49:14.417Z</time>
      </trkpt>
      <trkpt lat="48.20310889" lon="15.11880056">
        <ele>220.7692</ele>
        <time>2021-08-01T05:49:25.369Z</time>
      </trkpt>
      <trkpt lat="48.20357695" lon="15.11929473">
        <ele>220.6923</ele>
        <time>2021-08-01T05:49:38.859Z</time>
      </trkpt>
      <trkpt lat="48.20382778" lon="15.11903139">
        <ele>220.3846</ele>
        <time>2021-08-01T05:49:46.071Z</time>
      </trkpt>
      <trkpt lat="48.20427723" lon="15.11960028">
        <ele>219.8462</ele>
        <time>2021-08-01T05:49:59.934Z</time>
      </trkpt>
      <trkpt lat="48.20481362" lon="15.12042723">
        <ele>219.4615</ele>
        <time>2021-08-01T05:50:18.071Z</time>
      </trkpt>
      <trkpt lat="48.20508917" lon="15.12068862">
        <ele>219</ele>
        <time>2021-08-01T05:50:25.751Z</time>
      </trkpt>
      <trkpt lat="48.20568362" lon="15.12171112">
        <ele>218.6154</ele>
        <time>2021-08-01T05:50:47.081Z</time>
      </trkpt>
      <trkpt lat="48.20616195" lon="15.12269001">
        <ele>218.2308</ele>
        <time>2021-08-01T05:51:06.167Z</time>
      </trkpt>
      <trkpt lat="48.20664001" lon="15.12369056">
        <ele>217.8462</ele>
        <time>2021-08-01T05:51:25.525Z</time>
      </trkpt>
      <trkpt lat="48.20711806" lon="15.12479973">
        <ele>217.4615</ele>
        <time>2021-08-01T05:51:46.297Z</time>
      </trkpt>
      <trkpt lat="48.20756695" lon="15.12599584">
        <ele>217.4615</ele>
        <time>2021-08-01T05:52:07.888Z</time>
      </trkpt>
      <trkpt lat="48.20800139" lon="15.12723528">
        <ele>217.4615</ele>
        <time>2021-08-01T05:52:29.916Z</time>
      </trkpt>
      <trkpt lat="48.20831917" lon="15.12869195">
        <ele>217.4615</ele>
        <time>2021-08-01T05:52:54.033Z</time>
      </trkpt>
      <trkpt lat="48.2086225" lon="15.13030056">
        <ele>217.5385</ele>
        <time>2021-08-01T05:53:20.339Z</time>
      </trkpt>
      <trkpt lat="48.20880973" lon="15.13173501">
        <ele>217.6923</ele>
        <time>2021-08-01T05:53:43.342Z</time>
      </trkpt>
      <trkpt lat="48.20892417" lon="15.13325639">
        <ele>217.8462</ele>
        <time>2021-08-01T05:54:07.438Z</time>
      </trkpt>
      <trkpt lat="48.20800889" lon="15.13347112">
        <ele>217.9231</ele>
        <time>2021-08-01T05:54:29.253Z</time>
      </trkpt>
      <trkpt lat="48.20828417" lon="15.13399334">
        <ele>218</ele>
        <time>2021-08-01T05:54:39.721Z</time>
      </trkpt>
      <trkpt lat="48.20826862" lon="15.13479723">
        <ele>218.1538</ele>
        <time>2021-08-01T05:54:52.379Z</time>
      </trkpt>
      <trkpt lat="48.20842778" lon="15.13531917">
        <ele>218.2308</ele>
        <time>2021-08-01T05:55:01.408Z</time>
      </trkpt>
      <trkpt lat="48.20844167" lon="15.1359275">
        <ele>218.6154</ele>
        <time>2021-08-01T05:55:10.988Z</time>
      </trkpt>
      <trkpt lat="48.20865889" lon="15.13644973">
        <ele>218.8462</ele>
        <time>2021-08-01T05:55:20.669Z</time>
      </trkpt>
      <trkpt lat="48.20858584" lon="15.13673195">
        <ele>219.1538</ele>
        <time>2021-08-01T05:55:25.426Z</time>
      </trkpt>
      <trkpt lat="48.20842612" lon="15.13679667">
        <ele>219.0769</ele>
        <time>2021-08-01T05:55:29.322Z</time>
      </trkpt>
      <trkpt lat="48.20843473" lon="15.13689917">
        <ele>219</ele>
        <time>2021-08-01T05:55:30.946Z</time>
      </trkpt>
      <trkpt lat="48.20892167" lon="15.14034695">
        <ele>218.8462</ele>
        <time>2021-08-01T05:56:26.409Z</time>
      </trkpt>
      <trkpt lat="48.20956806" lon="15.14495362">
        <ele>218.6154</ele>
        <time>2021-08-01T05:57:40.494Z</time>
      </trkpt>
      <trkpt lat="48.20981139" lon="15.14649834">
        <ele>218.3846</ele>
        <time>2021-08-01T05:58:05.472Z</time>
      </trkpt>
      <trkpt lat="48.21007945" lon="15.14647362">
        <ele>218.0769</ele>
        <time>2021-08-01T05:58:11.796Z</time>
      </trkpt>
      <trkpt lat="48.21028473" lon="15.1466775">
        <ele>217.9231</ele>
        <time>2021-08-01T05:58:17.595Z</time>
      </trkpt>
      <trkpt lat="48.21069084" lon="15.14732834">
        <ele>217.8462</ele>
        <time>2021-08-01T05:58:31.608Z</time>
      </trkpt>
      <trkpt lat="48.21094028" lon="15.14813584">
        <ele>217.7692</ele>
        <time>2021-08-01T05:58:45.608Z</time>
      </trkpt>
      <trkpt lat="48.21102556" lon="15.1491575">
        <ele>217.6923</ele>
        <time>2021-08-01T05:59:01.812Z</time>
      </trkpt>
      <trkpt lat="48.21114223" lon="15.15098112">
        <ele>217.4615</ele>
        <time>2021-08-01T05:59:30.644Z</time>
      </trkpt>
      <trkpt lat="48.21122278" lon="15.15216112">
        <ele>217.3846</ele>
        <time>2021-08-01T05:59:49.312Z</time>
      </trkpt>
      <trkpt lat="48.21122556" lon="15.15340528">
        <ele>217.3077</ele>
        <time>2021-08-01T06:00:08.893Z</time>
      </trkpt>
      <trkpt lat="48.21150084" lon="15.15723945">
        <ele>217.4615</ele>
        <time>2021-08-01T06:01:09.584Z</time>
      </trkpt>
      <trkpt lat="48.2118025" lon="15.16131056">
        <ele>217.5385</ele>
        <time>2021-08-01T06:02:14.049Z</time>
      </trkpt>
      <trkpt lat="48.21187028" lon="15.16254417">
        <ele>217.6154</ele>
        <time>2021-08-01T06:02:33.529Z</time>
      </trkpt>
      <trkpt lat="48.21191167" lon="15.16313556">
        <ele>217.6154</ele>
        <time>2021-08-01T06:02:42.887Z</time>
      </trkpt>
      <trkpt lat="48.21191195" lon="15.163165">
        <ele>217.6154</ele>
        <time>2021-08-01T06:02:43.35Z</time>
      </trkpt>
      <trkpt lat="48.21223" lon="15.16594556">
        <ele>217.4615</ele>
        <time>2021-08-01T06:03:27.747Z</time>
      </trkpt>
      <trkpt lat="48.21304695" lon="15.17013973">
        <ele>217.0769</ele>
        <time>2021-08-01T06:04:36.501Z</time>
      </trkpt>
      <trkpt lat="48.21347001" lon="15.17249">
        <ele>216.7692</ele>
        <time>2021-08-01T06:05:14.807Z</time>
      </trkpt>
      <trkpt lat="48.21382306" lon="15.17518084">
        <ele>216.5385</ele>
        <time>2021-08-01T06:05:57.963Z</time>
      </trkpt>
      <trkpt lat="48.21403945" lon="15.1780125">
        <ele>216.3077</ele>
        <time>2021-08-01T06:06:42.817Z</time>
      </trkpt>
      <trkpt lat="48.21412973" lon="15.18041084">
        <ele>216.0769</ele>
        <time>2021-08-01T06:07:20.621Z</time>
      </trkpt>
      <trkpt lat="48.21412945" lon="15.18383667">
        <ele>216.0769</ele>
        <time>2021-08-01T06:08:14.535Z</time>
      </trkpt>
      <trkpt lat="48.21395584" lon="15.18691028">
        <ele>216.0769</ele>
        <time>2021-08-01T06:09:03.078Z</time>
      </trkpt>
      <trkpt lat="48.21376973" lon="15.18867417">
        <ele>215.8462</ele>
        <time>2021-08-01T06:09:31.181Z</time>
      </trkpt>
      <trkpt lat="48.21370445" lon="15.19056945">
        <ele>215.6923</ele>
        <time>2021-08-01T06:10:01.048Z</time>
      </trkpt>
      <trkpt lat="48.2135775" lon="15.19371251">
        <ele>215.6154</ele>
        <time>2021-08-01T06:10:50.603Z</time>
      </trkpt>
      <trkpt lat="48.21308917" lon="15.19375306">
        <ele>215.6923</ele>
        <time>2021-08-01T06:11:02.119Z</time>
      </trkpt>
      <trkpt lat="48.21072139" lon="15.19353945">
        <ele>215.7692</ele>
        <time>2021-08-01T06:11:57.974Z</time>
      </trkpt>
      <trkpt lat="48.21070639" lon="15.19356723">
        <ele>216.0769</ele>
        <time>2021-08-01T06:11:58.536Z</time>
      </trkpt>
      <trkpt lat="48.21076556" lon="15.19387778">
        <ele>216.4615</ele>
        <time>2021-08-01T06:12:03.611Z</time>
      </trkpt>
      <trkpt lat="48.21081417" lon="15.19433001">
        <ele>216.6154</ele>
        <time>2021-08-01T06:12:10.82Z</time>
      </trkpt>
      <trkpt lat="48.21084362" lon="15.1947675">
        <ele>216.8462</ele>
        <time>2021-08-01T06:12:17.74Z</time>
      </trkpt>
      <trkpt lat="48.21086334" lon="15.19478389">
        <ele>217.0769</ele>
        <time>2021-08-01T06:12:18.271Z</time>
      </trkpt>
      <trkpt lat="48.2130375" lon="15.19500528">
        <ele>217.2308</ele>
        <time>2021-08-01T06:13:09.584Z</time>
      </trkpt>
      <trkpt lat="48.21322584" lon="15.19505778">
        <ele>217</ele>
        <time>2021-08-01T06:13:14.095Z</time>
      </trkpt>
      <trkpt lat="48.21329973" lon="15.19532528">
        <ele>216.7692</ele>
        <time>2021-08-01T06:13:18.644Z</time>
      </trkpt>
      <trkpt lat="48.21309945" lon="15.19783667">
        <ele>216.5385</ele>
        <time>2021-08-01T06:13:58.448Z</time>
      </trkpt>
      <trkpt lat="48.21287945" lon="15.20317389">
        <ele>216.3077</ele>
        <time>2021-08-01T06:15:22.604Z</time>
      </trkpt>
      <trkpt lat="48.21282056" lon="15.2055625">
        <ele>216.2308</ele>
        <time>2021-08-01T06:16:00.221Z</time>
      </trkpt>
      <trkpt lat="48.21281834" lon="15.20700001">
        <ele>216.1538</ele>
        <time>2021-08-01T06:16:22.844Z</time>
      </trkpt>
      <trkpt lat="48.21282028" lon="15.20856334">
        <ele>216.0769</ele>
        <time>2021-08-01T06:16:47.448Z</time>
      </trkpt>
      <trkpt lat="48.21285334" lon="15.20951917">
        <ele>216</ele>
        <time>2021-08-01T06:17:02.511Z</time>
      </trkpt>
      <trkpt lat="48.21295973" lon="15.21105334">
        <ele>215.9231</ele>
        <time>2021-08-01T06:17:26.785Z</time>
      </trkpt>
      <trkpt lat="48.21314167" lon="15.21188362">
        <ele>216</ele>
        <time>2021-08-01T06:17:40.536Z</time>
      </trkpt>
      <trkpt lat="48.21333056" lon="15.21283306">
        <ele>216</ele>
        <time>2021-08-01T06:17:56.126Z</time>
      </trkpt>
      <trkpt lat="48.21343334" lon="15.21365362">
        <ele>215.9231</ele>
        <time>2021-08-01T06:18:09.265Z</time>
      </trkpt>
      <trkpt lat="48.21344584" lon="15.21364223">
        <ele>215.9231</ele>
        <time>2021-08-01T06:18:09.609Z</time>
      </trkpt>
      <trkpt lat="48.21343028" lon="15.21785445">
        <ele>215.9231</ele>
        <time>2021-08-01T06:19:15.901Z</time>
      </trkpt>
      <trkpt lat="48.21337" lon="15.21963556">
        <ele>216.1538</ele>
        <time>2021-08-01T06:19:43.967Z</time>
      </trkpt>
      <trkpt lat="48.21332917" lon="15.221435">
        <ele>216.3846</ele>
        <time>2021-08-01T06:20:12.302Z</time>
      </trkpt>
      <trkpt lat="48.21308973" lon="15.22223445">
        <ele>216.1538</ele>
        <time>2021-08-01T06:20:26.089Z</time>
      </trkpt>
      <trkpt lat="48.21309778" lon="15.22320195">
        <ele>215.7692</ele>
        <time>2021-08-01T06:20:41.316Z</time>
      </trkpt>
      <trkpt lat="48.21315973" lon="15.22688389">
        <ele>215.7692</ele>
        <time>2021-08-01T06:21:39.28Z</time>
      </trkpt>
      <trkpt lat="48.21330834" lon="15.22962223">
        <ele>215.6154</ele>
        <time>2021-08-01T06:22:22.517Z</time>
      </trkpt>
      <trkpt lat="48.21338889" lon="15.23026806">
        <ele>215.4615</ele>
        <time>2021-08-01T06:22:32.856Z</time>
      </trkpt>
      <trkpt lat="48.21353362" lon="15.23110751">
        <ele>215.3846</ele>
        <time>2021-08-01T06:22:46.499Z</time>
      </trkpt>
      <trkpt lat="48.21377139" lon="15.23240001">
        <ele>215.1538</ele>
        <time>2021-08-01T06:23:07.596Z</time>
      </trkpt>
      <trkpt lat="48.21422695" lon="15.23394723">
        <ele>214.6923</ele>
        <time>2021-08-01T06:23:34.204Z</time>
      </trkpt>
      <trkpt lat="48.21497139" lon="15.23605806">
        <ele>214.3846</ele>
        <time>2021-08-01T06:24:11.764Z</time>
      </trkpt>
      <trkpt lat="48.21586389" lon="15.23846306">
        <ele>214.1538</ele>
        <time>2021-08-01T06:24:55.055Z</time>
      </trkpt>
      <trkpt lat="48.21639389" lon="15.23988917">
        <ele>214.2308</ele>
        <time>2021-08-01T06:25:20.734Z</time>
      </trkpt>
      <trkpt lat="48.21678612" lon="15.24114028">
        <ele>214.0769</ele>
        <time>2021-08-01T06:25:42.481Z</time>
      </trkpt>
      <trkpt lat="48.21736195" lon="15.24310889">
        <ele>214.1538</ele>
        <time>2021-08-01T06:26:16.298Z</time>
      </trkpt>
      <trkpt lat="48.21810223" lon="15.24595445">
        <ele>214.6923</ele>
        <time>2021-08-01T06:27:04.35Z</time>
      </trkpt>
      <trkpt lat="48.2183825" lon="15.24708028">
        <ele>215.0769</ele>
        <time>2021-08-01T06:27:23.256Z</time>
      </trkpt>
      <trkpt lat="48.21900389" lon="15.24985584">
        <ele>215.0769</ele>
        <time>2021-08-01T06:28:09.318Z</time>
      </trkpt>
      <trkpt lat="48.21948973" lon="15.25233584">
        <ele>215.0769</ele>
        <time>2021-08-01T06:28:49.985Z</time>
      </trkpt>
      <trkpt lat="48.22002889" lon="15.25504278">
        <ele>215.0769</ele>
        <time>2021-08-01T06:29:34.432Z</time>
      </trkpt>
      <trkpt lat="48.22037028" lon="15.25665223">
        <ele>215</ele>
        <time>2021-08-01T06:30:01.003Z</time>
      </trkpt>
      <trkpt lat="48.22066445" lon="15.25808917">
        <ele>215.1538</ele>
        <time>2021-08-01T06:30:24.651Z</time>
      </trkpt>
      <trkpt lat="48.22104001" lon="15.26081612">
        <ele>215.4615</ele>
        <time>2021-08-01T06:31:08.462Z</time>
      </trkpt>
      <trkpt lat="48.22151834" lon="15.26424723">
        <ele>215.5385</ele>
        <time>2021-08-01T06:32:03.614Z</time>
      </trkpt>
      <trkpt lat="48.22193028" lon="15.26726778">
        <ele>215.6154</ele>
        <time>2021-08-01T06:32:52.123Z</time>
      </trkpt>
      <trkpt lat="48.22215806" lon="15.26945501">
        <ele>215.3846</ele>
        <time>2021-08-01T06:33:26.955Z</time>
      </trkpt>
      <trkpt lat="48.22219584" lon="15.27038084">
        <ele>215.0769</ele>
        <time>2021-08-01T06:33:41.55Z</time>
      </trkpt>
      <trkpt lat="48.22231473" lon="15.27353306">
        <ele>214.8462</ele>
        <time>2021-08-01T06:34:31.229Z</time>
      </trkpt>
      <trkpt lat="48.22237528" lon="15.27622528">
        <ele>214.3846</ele>
        <time>2021-08-01T06:35:13.615Z</time>
      </trkpt>
      <trkpt lat="48.22236112" lon="15.27906112">
        <ele>214.3077</ele>
        <time>2021-08-01T06:35:58.238Z</time>
      </trkpt>
      <trkpt lat="48.22230834" lon="15.28134417">
        <ele>214.1538</ele>
        <time>2021-08-01T06:36:34.183Z</time>
      </trkpt>
      <trkpt lat="48.22210473" lon="15.28448223">
        <ele>214.0769</ele>
        <time>2021-08-01T06:37:23.793Z</time>
      </trkpt>
      <trkpt lat="48.2219225" lon="15.28688389">
        <ele>214.3077</ele>
        <time>2021-08-01T06:38:01.826Z</time>
      </trkpt>
      <trkpt lat="48.22163" lon="15.2898675">
        <ele>214.9231</ele>
        <time>2021-08-01T06:38:49.276Z</time>
      </trkpt>
      <trkpt lat="48.22146778" lon="15.29227584">
        <ele>215.3077</ele>
        <time>2021-08-01T06:39:27.364Z</time>
      </trkpt>
      <trkpt lat="48.22145584" lon="15.29402612">
        <ele>215.4615</ele>
        <time>2021-08-01T06:39:54.906Z</time>
      </trkpt>
      <trkpt lat="48.22148973" lon="15.29727389">
        <ele>216.1538</ele>
        <time>2021-08-01T06:40:46.017Z</time>
      </trkpt>
      <trkpt lat="48.22166834" lon="15.30009084">
        <ele>216.6923</ele>
        <time>2021-08-01T06:41:30.541Z</time>
      </trkpt>
      <trkpt lat="48.221435" lon="15.30016917">
        <ele>217.1538</ele>
        <time>2021-08-01T06:41:36.172Z</time>
      </trkpt>
      <trkpt lat="48.22090862" lon="15.30039084">
        <ele>217.6923</ele>
        <time>2021-08-01T06:41:49.047Z</time>
      </trkpt>
      <trkpt lat="48.22052195" lon="15.30044639">
        <ele>218.1538</ele>
        <time>2021-08-01T06:41:58.194Z</time>
      </trkpt>
      <trkpt lat="48.21983945" lon="15.30061556">
        <ele>218.6923</ele>
        <time>2021-08-01T06:42:14.483Z</time>
      </trkpt>
      <trkpt lat="48.21980306" lon="15.30211445">
        <ele>219.1538</ele>
        <time>2021-08-01T06:42:38.085Z</time>
      </trkpt>
      <trkpt lat="48.21991667" lon="15.30326889">
        <ele>219.9231</ele>
        <time>2021-08-01T06:42:56.447Z</time>
      </trkpt>
      <trkpt lat="48.21997612" lon="15.30432001">
        <ele>220.9231</ele>
        <time>2021-08-01T06:43:13.046Z</time>
      </trkpt>
      <trkpt lat="48.21997389" lon="15.30515417">
        <ele>221.3846</ele>
        <time>2021-08-01T06:43:26.172Z</time>
      </trkpt>
      <trkpt lat="48.22019973" lon="15.30503223">
        <ele>221.1538</ele>
        <time>2021-08-01T06:43:31.824Z</time>
      </trkpt>
      <trkpt lat="48.22051862" lon="15.30470667">
        <ele>220.8462</ele>
        <time>2021-08-01T06:43:40.91Z</time>
      </trkpt>
      <trkpt lat="48.22057917" lon="15.30504778">
        <ele>220.8462</ele>
        <time>2021-08-01T06:43:46.456Z</time>
      </trkpt>
      <trkpt lat="48.22047056" lon="15.30558723">
        <ele>220.6923</ele>
        <time>2021-08-01T06:43:55.321Z</time>
      </trkpt>
      <trkpt lat="48.22035139" lon="15.30681001">
        <ele>220.6923</ele>
        <time>2021-08-01T06:44:14.766Z</time>
      </trkpt>
      <trkpt lat="48.22029139" lon="15.30788723">
        <ele>221.2308</ele>
        <time>2021-08-01T06:44:31.775Z</time>
      </trkpt>
      <trkpt lat="48.22036889" lon="15.30867362">
        <ele>221.5385</ele>
        <time>2021-08-01T06:44:44.283Z</time>
      </trkpt>
      <trkpt lat="48.22062389" lon="15.30972167">
        <ele>221.2308</ele>
        <time>2021-08-01T06:45:01.834Z</time>
      </trkpt>
      <trkpt lat="48.22065834" lon="15.30973834">
        <ele>220.9231</ele>
        <time>2021-08-01T06:45:02.686Z</time>
      </trkpt>
      <trkpt lat="48.22117223" lon="15.30954195">
        <ele>220.4615</ele>
        <time>2021-08-01T06:45:15.174Z</time>
      </trkpt>
      <trkpt lat="48.22177251" lon="15.30940778">
        <ele>219.4615</ele>
        <time>2021-08-01T06:45:29.465Z</time>
      </trkpt>
      <trkpt lat="48.22209695" lon="15.30960695">
        <ele>218.6154</ele>
        <time>2021-08-01T06:45:37.721Z</time>
      </trkpt>
      <trkpt lat="48.22225556" lon="15.30961528">
        <ele>217.8462</ele>
        <time>2021-08-01T06:45:41.458Z</time>
      </trkpt>
      <trkpt lat="48.22274695" lon="15.30942112">
        <ele>217.6923</ele>
        <time>2021-08-01T06:45:53.424Z</time>
      </trkpt>
      <trkpt lat="48.22285028" lon="15.30972973">
        <ele>217.2308</ele>
        <time>2021-08-01T06:45:58.849Z</time>
      </trkpt>
      <trkpt lat="48.22330278" lon="15.31106778">
        <ele>216.7692</ele>
        <time>2021-08-01T06:46:22.446Z</time>
      </trkpt>
      <trkpt lat="48.22386195" lon="15.31244278">
        <ele>215.7692</ele>
        <time>2021-08-01T06:46:47.773Z</time>
      </trkpt>
      <trkpt lat="48.22454195" lon="15.31407556">
        <ele>214.6923</ele>
        <time>2021-08-01T06:47:18.045Z</time>
      </trkpt>
      <trkpt lat="48.22537362" lon="15.31550306">
        <ele>213.3077</ele>
        <time>2021-08-01T06:47:47.844Z</time>
      </trkpt>
      <trkpt lat="48.22620334" lon="15.3167575">
        <ele>212.2308</ele>
        <time>2021-08-01T06:48:15.616Z</time>
      </trkpt>
      <trkpt lat="48.22789251" lon="15.31926612">
        <ele>211.5385</ele>
        <time>2021-08-01T06:49:11.651Z</time>
      </trkpt>
      <trkpt lat="48.23020445" lon="15.32248167">
        <ele>211.0769</ele>
        <time>2021-08-01T06:50:25.968Z</time>
      </trkpt>
      <trkpt lat="48.23191889" lon="15.32479584">
        <ele>210.6154</ele>
        <time>2021-08-01T06:51:20.33Z</time>
      </trkpt>
      <trkpt lat="48.23306139" lon="15.32673778">
        <ele>210.7692</ele>
        <time>2021-08-01T06:52:01.037Z</time>
      </trkpt>
      <trkpt lat="48.23338917" lon="15.32744917">
        <ele>210.8462</ele>
        <time>2021-08-01T06:52:14.632Z</time>
      </trkpt>
      <trkpt lat="48.23338834" lon="15.32771612">
        <ele>211</ele>
        <time>2021-08-01T06:52:18.825Z</time>
      </trkpt>
      <trkpt lat="48.23373306" lon="15.32851889">
        <ele>210.5385</ele>
        <time>2021-08-01T06:52:33.837Z</time>
      </trkpt>
      <trkpt lat="48.23375251" lon="15.32872639">
        <ele>210.4615</ele>
        <time>2021-08-01T06:52:37.128Z</time>
      </trkpt>
      <trkpt lat="48.23366806" lon="15.32877806">
        <ele>210.4615</ele>
        <time>2021-08-01T06:52:39.276Z</time>
      </trkpt>
      <trkpt lat="48.23308584" lon="15.32844778">
        <ele>210.9231</ele>
        <time>2021-08-01T06:52:53.934Z</time>
      </trkpt>
      <trkpt lat="48.23146723" lon="15.32772945">
        <ele>211.3077</ele>
        <time>2021-08-01T06:53:33.688Z</time>
      </trkpt>
      <trkpt lat="48.22961917" lon="15.32692834">
        <ele>212.0769</ele>
        <time>2021-08-01T06:54:18.993Z</time>
      </trkpt>
      <trkpt lat="48.22891556" lon="15.32668973">
        <ele>212.8462</ele>
        <time>2021-08-01T06:54:35.98Z</time>
      </trkpt>
      <trkpt lat="48.22841" lon="15.32717306">
        <ele>213.4615</ele>
        <time>2021-08-01T06:54:50.106Z</time>
      </trkpt>
      <trkpt lat="48.22778084" lon="15.32808251">
        <ele>214.2727</ele>
        <time>2021-08-01T06:55:10.703Z</time>
      </trkpt>
      <trkpt lat="48.22752945" lon="15.32851806">
        <ele>214.2222</ele>
        <time>2021-08-01T06:55:19.758Z</time>
      </trkpt>
      <trkpt lat="48.22756306" lon="15.32839306">
        <ele>214.5714</ele>
        <time>2021-08-01T06:55:21.875Z</time>
      </trkpt>
      <trkpt lat="48.22736973" lon="15.32883389">
        <ele>216</ele>
        <time>2021-08-01T06:55:30.171Z</time>
      </trkpt>
      <trkpt lat="48.22726945" lon="15.32918889">
        <ele>217.6667</ele>
        <time>2021-08-01T06:55:36.227Z</time>
      </trkpt>
      <trkpt lat="48.22717695" lon="15.32944834">
        <ele>216</ele>
        <time>2021-08-01T06:55:40.848Z</time>
      </trkpt>
    </trkseg>
  </trk>
</gpx>
